Provisional Data: Yellow Breeches Creek near Lisburn, PA


Please select a monitoring station.
Please select start date.
Please select start date.

Toggle Unit: C/F Toggle Unit: C/F
Sample Time Temperature (C) Temperature (F) Specific Conductivity (mS/cm) pH   Turbidity (NTU+) DO (mg/L)
5/2/2023 12:00:00 AM 11.8 53.24 0.13 7.24 1692 0.01
5/2/2023 12:15:00 AM 11.8 53.24 0.128 7.27 1680 0.01
5/2/2023 12:30:00 AM 11.78 53.204 0.125 7.25 1678 0.01
5/2/2023 12:45:00 AM 11.76 53.168 0.128 7.23 1682 0.01
5/2/2023 1:00:00 AM 11.76 53.168 0.13 7.24 1675 0.01
5/2/2023 1:15:00 AM 11.75 53.15 0.131 7.28 1662 0.01
5/2/2023 1:30:00 AM 11.74 53.132 0.133 7.19 1658 0.01
5/2/2023 1:45:00 AM 11.74 53.132 0.137 7.16 1650 0.01
5/2/2023 2:00:00 AM 11.73 53.114 0.137 7.09 1652 0.01
5/2/2023 2:15:00 AM 11.72 53.096 0.138 7.17 1645 0.01
5/2/2023 2:30:00 AM 11.71 53.078 0.143 7.09 1631 0.01
5/2/2023 2:45:00 AM 11.7 53.06 0.144 7.14 1623 0.01
5/2/2023 3:00:00 AM 11.7 53.06 0.145 7.13 1616 0.01
5/2/2023 3:15:00 AM 11.69 53.042 0.144 7.07 1609 0.01
5/2/2023 3:30:00 AM 11.68 53.024 0.142 7.15 1590 0.01
5/2/2023 3:45:00 AM 11.67 53.006 0.139 7.1 1587 0.01
5/2/2023 4:00:00 AM 11.66 52.988 0.139 7.14 1579 0.01
5/2/2023 4:15:00 AM 11.64 52.952 0.134 7.22 1538 0.01
5/2/2023 4:30:00 AM 11.63 52.934 0.135 7.19 1537 0.02
5/2/2023 4:45:00 AM 11.61 52.898 0.133 7.2 1520 0.01
5/2/2023 5:00:00 AM 11.6 52.88 0.139 7.22 1510 0.01
5/2/2023 5:15:00 AM 11.58 52.844 0.134 7.2 1502 0.02
5/2/2023 5:30:00 AM 11.57 52.826 0.141 7.11 1493 0.01
5/2/2023 5:45:00 AM 11.56 52.808 0.147 7.08 1500 0.01
5/2/2023 6:00:00 AM 11.56 52.808 0.151 7.13 1479 0.01
5/2/2023 6:15:00 AM 11.54 52.772 0.152 7.13 1466 0.01
5/2/2023 6:30:00 AM 11.54 52.772 0.158 7.09 1459 0.01
5/2/2023 6:45:00 AM 11.52 52.736 0.161 7.1 1448 0.01
5/2/2023 7:00:00 AM 11.51 52.718 0.161 7.09 1439 0.01
5/2/2023 7:15:00 AM 11.5 52.7 0.167 7.1 1428 0.01
5/2/2023 7:30:00 AM 11.48 52.664 0.171 7.09 1423 0.01
5/2/2023 7:45:00 AM 11.47 52.646 0.17 7.12 1415 0.02
5/2/2023 8:00:00 AM 11.44 52.592 0.166 7.16 1409 0.02
5/2/2023 8:15:00 AM 11.43 52.574 0.166 7.14 1399 0.01
5/2/2023 8:30:00 AM 11.41 52.538 0.162 7.19 1396 0.02
5/2/2023 8:45:00 AM 11.39 52.502 0.161 7.17 1383 0.02
5/2/2023 9:00:00 AM 11.38 52.484 0.161 7.12 1376 0.01
5/2/2023 9:15:00 AM 11.37 52.466 0.16 7.12 1370 0.01
5/2/2023 9:30:00 AM 11.36 52.448 0.162 7.12 1366 0.01
5/2/2023 9:45:00 AM 11.36 52.448 0.164 7.12 1359 0.02
5/2/2023 10:00:00 AM 11.35 52.43 0.168 7.15 1350 0.01
5/2/2023 10:15:00 AM 11.34 52.412 0.169 7.18 1341 0.02
5/2/2023 10:30:00 AM 11.33 52.394 0.17 7.16 1333 0.01
5/2/2023 10:45:00 AM 11.33 52.394 0.173 7.16 1324 0.01
5/2/2023 11:00:00 AM 11.32 52.376 0.174 7.25 1303 0.02
5/2/2023 11:15:00 AM 11.32 52.376 0.179 7.15 1271 0.02
5/2/2023 11:30:00 AM 11.31 52.358 0.178 7.15 1266 0.01
5/2/2023 11:45:00 AM 11.31 52.358 0.179 7.19 1255 0.02
5/2/2023 12:00:00 PM 11.31 52.358 0.178 7.2 1246 0.01
5/2/2023 12:15:00 PM 11.32 52.376 0.179 7.21 1237 0.02
5/2/2023 12:30:00 PM 11.32 52.376 0.176 7.2 1238 0.02
5/2/2023 12:45:00 PM 11.32 52.376 0.175 7.21 1214 0.01
5/2/2023 1:00:00 PM 11.33 52.394 0.176 7.23 1218 0.01
5/2/2023 1:15:00 PM 11.33 52.394 0.178 7.22 1197 0.01
5/2/2023 1:30:00 PM 11.34 52.412 0.179 7.22 1191 0.01
5/2/2023 1:45:00 PM 11.35 52.43 0.176 7.26 1185 0.01
5/2/2023 2:00:00 PM 11.35 52.43 0.18 7.23 1177 0.01
5/2/2023 2:15:00 PM 11.36 52.448 0.181 7.21 1171 0.01
5/2/2023 2:30:00 PM 11.37 52.466 0.181 7.17 1161 0.01
5/2/2023 2:45:00 PM 11.38 52.484 0.182 7.16 1171 0.01
5/2/2023 3:00:00 PM 11.39 52.502 0.183 7.17 1148 0.02
5/2/2023 3:15:00 PM 11.4 52.52 0.182 7.17 1148 0.01
5/2/2023 3:30:00 PM 11.41 52.538 0.18 7.17 1133 0.02
5/2/2023 3:45:00 PM 11.42 52.556 0.184 7.17 1131 0.01
5/2/2023 4:00:00 PM 11.43 52.574 0.185 7.16 1124 0.01
5/2/2023 4:15:00 PM 11.44 52.592 0.184 7.19 1116 0.01
5/2/2023 4:30:00 PM 11.45 52.61 0.183 7.16 1109 0.01
5/2/2023 4:45:00 PM 11.46 52.628 0.186 7.18 1073 0.01
5/2/2023 5:00:00 PM 11.46 52.628 0.186 7.17 1026 0.01
5/2/2023 5:15:00 PM 11.47 52.646 0.186 7.18 1001 0.01
5/2/2023 5:30:00 PM 11.47 52.646 0.183 7.2 985.4 0.02
5/2/2023 5:45:00 PM 11.48 52.664 0.184 7.19 968.2 0.01
5/2/2023 6:00:00 PM 11.49 52.682 0.186 7.2 952.3 0.02
5/2/2023 6:15:00 PM 11.49 52.682 0.186 7.2 936.2 0.01
5/2/2023 6:30:00 PM 11.49 52.682 0.186 7.19 921.9 0.01
5/2/2023 6:45:00 PM 11.49 52.682 0.184 7.18 910.6 0.01
5/2/2023 7:00:00 PM 11.49 52.682 0.185 7.19 903 0.01
5/2/2023 7:15:00 PM 11.49 52.682 0.181 7.21 894.2 0.01
5/2/2023 7:30:00 PM 11.49 52.682 0.183 7.21 885.9 0.01
5/2/2023 7:45:00 PM 11.49 52.682 0.182 7.21 877.5 0.01
5/2/2023 8:00:00 PM 11.49 52.682 0.18 7.2 868.7 0.02
5/2/2023 8:15:00 PM 11.49 52.682 0.182 7.19 861.5 0.01
5/2/2023 8:30:00 PM 11.48 52.664 0.184 7.2 853.9 0.01
5/2/2023 8:45:00 PM 11.48 52.664 0.182 7.21 843.8 0.02
5/2/2023 9:00:00 PM 11.48 52.664 0.181 7.21 863.3 0.01
5/2/2023 9:15:00 PM 11.47 52.646 0.184 7.22 936.5 0.01
5/2/2023 9:30:00 PM 11.47 52.646 0.181 7.21 826.9 0.01
5/2/2023 9:45:00 PM 11.46 52.628 0.18 7.2 918.8 0.01
5/2/2023 10:00:00 PM 11.45 52.61 0.186 7.19 819.4 0.01
5/2/2023 10:15:00 PM 11.45 52.61 0.192 7.2 812.5 0.02
5/2/2023 10:30:00 PM 11.44 52.592 0.192 7.2 804.2 0.01
5/2/2023 10:45:00 PM 11.43 52.574 0.192 7.21 799.3 0.01
5/2/2023 11:00:00 PM 11.42 52.556 0.192 7.22 796.5 0.01
5/2/2023 11:15:00 PM 11.41 52.538 0.191 7.21 797.2 0.01
5/2/2023 11:30:00 PM 11.4 52.52 0.175 7.2 794.9 0.01
5/2/2023 11:45:00 PM 11.39 52.502 0.183 7.2 783.5 0.02
5/3/2023 12:00:00 AM 11.38 52.484 0.186 7.22 767.7 0.01
5/3/2023 12:15:00 AM 11.37 52.466 0.185 7.22 759.3 0.01
5/3/2023 12:30:00 AM 11.36 52.448 0.188 7.22 748.3 0.02
5/3/2023 12:45:00 AM 11.34 52.412 0.189 7.24 737.3 0.01
5/3/2023 1:00:00 AM 11.33 52.394 0.191 7.23 733.1 0.01
5/3/2023 1:15:00 AM 11.32 52.376 0.188 7.24 724.7 0.02
5/3/2023 1:30:00 AM 11.31 52.358 0.191 7.25 720.5 0.02
5/3/2023 1:45:00 AM 11.29 52.322 0.187 7.25 730.1 0.02
5/3/2023 2:00:00 AM 11.28 52.304 0.188 7.25 710.4 0.01
5/3/2023 2:15:00 AM 11.27 52.286 0.188 7.26 703.9 0.01
5/3/2023 2:30:00 AM 11.26 52.268 0.193 7.25 698.4 0.01
5/3/2023 2:45:00 AM 11.24 52.232 0.19 7.27 692.6 0.01
5/3/2023 3:00:00 AM 11.23 52.214 0.189 7.27 678.2 0.02
5/3/2023 3:15:00 AM 11.22 52.196 0.187 7.28 674.7 0.01
5/3/2023 3:30:00 AM 11.21 52.178 0.192 7.28 669.5 0.02
5/3/2023 3:45:00 AM 11.19 52.142 0.191 7.26 702.3 0.02
5/3/2023 4:00:00 AM 11.18 52.124 0.19 7.27 668.9 0.01
5/3/2023 4:15:00 AM 11.16 52.088 0.189 7.27 684.8 0.01
5/3/2023 4:30:00 AM 11.15 52.07 0.189 7.26 653.4 0.01
5/3/2023 4:45:00 AM 11.14 52.052 0.186 7.27 648.9 0.02
5/3/2023 5:00:00 AM 11.12 52.016 0.188 7.28 647.2 0.02
5/3/2023 5:15:00 AM 11.11 51.998 0.191 7.28 658.3 0.01
5/3/2023 5:30:00 AM 11.09 51.962 0.185 7.28 640.5 0.01
5/3/2023 5:45:00 AM 11.08 51.944 0.192 7.28 637.7 0.01
5/3/2023 6:00:00 AM 11.07 51.926 0.188 7.28 627.8 0.02
5/3/2023 6:15:00 AM 11.06 51.908 0.19 7.29 625.8 0.02
5/3/2023 6:30:00 AM 11.04 51.872 0.191 7.28 622.7 0.01
5/3/2023 6:45:00 AM 11.03 51.854 0.19 7.29 620.5 0.02
5/3/2023 7:00:00 AM 11.01 51.818 0.196 7.29 614.4 0.02
5/3/2023 7:15:00 AM 10.99 51.782 0.192 7.27 610.8 0.02
5/3/2023 7:30:00 AM 10.98 51.764 0.195 7.28 613 0.01
5/3/2023 7:45:00 AM 10.96 51.728 0.194 7.28 608.9 0.01
5/3/2023 8:00:00 AM 10.95 51.71 0.197 7.28 644.6 0.02
5/3/2023 8:15:00 AM 10.93 51.674 0.201 7.28 638.7 0.01
5/3/2023 8:30:00 AM 10.92 51.656 0.2 7.29 660 0.01
5/3/2023 8:45:00 AM 10.9 51.62 0.2 7.3 640.3 0.02
5/3/2023 9:00:00 AM 10.89 51.602 0.203 7.3 632 0.02
5/3/2023 9:15:00 AM 10.89 51.602 0.205 7.3 626.5 0.02
5/3/2023 9:30:00 AM 10.88 51.584 0.204 7.29 619.1 0.02
5/3/2023 9:45:00 AM 10.87 51.566 0.205 7.28 617.3 0.01
5/3/2023 10:00:00 AM 10.86 51.548 0.206 7.29 609.8 0.02
5/3/2023 10:15:00 AM 10.85 51.53 0.205 7.31 607.2 0.02
5/3/2023 10:30:00 AM 10.86 51.548 0.208 7.29 601.1 0.02
5/3/2023 10:45:00 AM 10.86 51.548 0.206 7.29 601.1 0.02
5/3/2023 11:00:00 AM 10.85 51.53 0.206 7.3 597.1 0.02
5/3/2023 11:15:00 AM 10.85 51.53 0.207 7.3 595.5 0.02
5/3/2023 11:30:00 AM 10.85 51.53 0.209 7.3 595.1 0.01
5/3/2023 11:45:00 AM 10.85 51.53 0.211 7.3 592.7 0.01
5/3/2023 12:00:00 PM 10.85 51.53 0.215 7.3 591 0.02
5/3/2023 12:15:00 PM 10.85 51.53 0.217 7.3 594.8 0.02
5/3/2023 12:30:00 PM 10.85 51.53 0.218 7.3 587.7 0.01
5/3/2023 12:45:00 PM 10.85 51.53 0.219 7.3 586.8 0.01
5/3/2023 1:00:00 PM 10.85 51.53 0.222 7.3 592.8 0.01
5/3/2023 1:15:00 PM 10.86 51.548 0.219 7.31 591.8 0.02
5/3/2023 1:30:00 PM 10.87 51.566 0.216 7.31 583.4 0.01
5/3/2023 1:45:00 PM 10.89 51.602 0.216 7.3 580.3 0.01
5/3/2023 2:00:00 PM 10.9 51.62 0.219 7.32 578.8 0.02
5/3/2023 2:15:00 PM 10.91 51.638 0.216 7.32 577.3 0.01
5/3/2023 2:30:00 PM 10.93 51.674 0.217 7.31 575.3 0.02
5/3/2023 2:45:00 PM 10.95 51.71 0.217 7.31 573.8 0.01
5/3/2023 3:00:00 PM 10.97 51.746 0.217 7.31 570.9 0.02
5/3/2023 3:15:00 PM 11 51.8 0.218 7.3 568.6 0.02
5/3/2023 3:30:00 PM 11.02 51.836 0.219 7.29 567.7 0.01
5/3/2023 3:45:00 PM 11.04 51.872 0.222 7.29 566.9 0.01
5/3/2023 4:00:00 PM 11.06 51.908 0.221 7.29 562.6 0.01
5/3/2023 4:15:00 PM 11.07 51.926 0.223 7.3 564.1 0.01
5/3/2023 4:30:00 PM 11.09 51.962 0.224 7.3 566.8 0.02
5/3/2023 4:45:00 PM 11.1 51.98 0.223 7.3 564.1 0.02
5/3/2023 5:00:00 PM 11.11 51.998 0.223 7.3 563.4 0.01
5/3/2023 5:15:00 PM 11.13 52.034 0.224 7.3 562.3 0.01
5/3/2023 5:30:00 PM 11.14 52.052 0.224 7.3 562 0.02
5/3/2023 5:45:00 PM 11.16 52.088 0.224 7.31 558.1 0.01
5/3/2023 6:00:00 PM 11.17 52.106 0.223 7.31 555.2 0.01
5/3/2023 6:15:00 PM 11.19 52.142 0.222 7.31 556.3 0.01
5/3/2023 6:30:00 PM 11.2 52.16 0.223 7.3 557.3 0.01
5/3/2023 6:45:00 PM 11.22 52.196 0.223 7.3 552.3 0.01
5/3/2023 7:00:00 PM 11.23 52.214 0.225 7.3 543.1 0.01
5/3/2023 7:15:00 PM 11.24 52.232 0.225 7.29 541.4 0.01
5/3/2023 7:30:00 PM 11.25 52.25 0.222 7.29 537.5 0.01
5/3/2023 7:45:00 PM 11.26 52.268 0.224 7.28 538.6 0.02
5/3/2023 8:00:00 PM 11.26 52.268 0.226 7.27 546.2 0.01
5/3/2023 8:15:00 PM 11.27 52.286 0.223 7.27 541.4 0.01
5/3/2023 8:30:00 PM 11.27 52.286 0.223 7.27 535.8 0.01
5/3/2023 8:45:00 PM 11.26 52.268 0.223 7.27 537 0.01
5/3/2023 9:00:00 PM 11.26 52.268 0.221 7.27 526.5 0.01
5/3/2023 9:15:00 PM 11.26 52.268 0.219 7.28 527.6 0.02
5/3/2023 9:30:00 PM 11.25 52.25 0.218 7.29 528.8 0.01
5/3/2023 9:45:00 PM 11.25 52.25 0.217 7.33 558.9 0.02
5/3/2023 10:00:00 PM 11.24 52.232 0.216 7.29 583 0.01
5/3/2023 10:15:00 PM 11.22 52.196 0.215 7.3 564 0.01
5/3/2023 10:30:00 PM 11.21 52.178 0.214 7.31 553.1 0.02
5/3/2023 10:45:00 PM 11.19 52.142 0.212 7.31 546.8 0.01
5/3/2023 11:00:00 PM 11.18 52.124 0.21 7.32 579.6 0.01
5/3/2023 11:15:00 PM 11.16 52.088 0.208 7.34 561 0.01
5/3/2023 11:30:00 PM 11.15 52.07 0.206 7.34 542.2 0.02
5/3/2023 11:45:00 PM 11.13 52.034 0.202 7.34 569.7 0.02
5/4/2023 12:00:00 AM 11.11 51.998 0.199 7.35 595.4 0.02
5/4/2023 12:15:00 AM 11.1 51.98 0.198 7.33 640.6 0.01
5/4/2023 12:30:00 AM 11.08 51.944 0.196 7.32 607.7 0.02
5/4/2023 12:45:00 AM 11.06 51.908 0.196 7.33 596.6 0.01
5/4/2023 1:00:00 AM 11.04 51.872 0.197 7.31 597.2 0.02
5/4/2023 1:15:00 AM 11.03 51.854 0.198 7.31 593.3 0.02
5/4/2023 1:30:00 AM 11.01 51.818 0.196 7.31 592.6 0.02
5/4/2023 1:45:00 AM 10.99 51.782 0.197 7.3 583.7 0.02
5/4/2023 2:00:00 AM 10.96 51.728 0.196 7.3 570.6 0.01
5/4/2023 2:15:00 AM 10.93 51.674 0.196 7.31 557.5 0.01
5/4/2023 2:30:00 AM 10.91 51.638 0.193 7.32 556 0.02
5/4/2023 2:45:00 AM 10.88 51.584 0.192 7.31 546.5 0.02
5/4/2023 3:00:00 AM 10.87 51.566 0.192 7.3 541.2 0.01
5/4/2023 3:15:00 AM 10.85 51.53 0.191 7.31 557.4 0.02
5/4/2023 3:30:00 AM 10.82 51.476 0.19 7.32 529.1 0.02
5/4/2023 3:45:00 AM 10.8 51.44 0.189 7.33 541.6 0.02
5/4/2023 4:00:00 AM 10.78 51.404 0.187 7.3 536.7 0.02
5/4/2023 4:15:00 AM 10.76 51.368 0.185 7.28 534.3 0.01
5/4/2023 4:30:00 AM 10.74 51.332 0.186 7.25 515.9 0.02
5/4/2023 4:45:00 AM 10.71 51.278 0.185 7.21 508.3 0.02
5/4/2023 5:00:00 AM 10.69 51.242 0.184 7.23 508.5 0.02
5/4/2023 5:15:00 AM 10.67 51.206 0.183 7.24 507.7 0.02
5/4/2023 5:30:00 AM 10.64 51.152 0.182 7.2 508.8 0.02
5/4/2023 5:45:00 AM 10.6 51.08 0.181 7.25 506.4 0.02
5/4/2023 6:00:00 AM 10.58 51.044 0.179 7.25 505.8 0.02
5/4/2023 6:15:00 AM 10.55 50.99 0.178 7.21 506.2 0.02
5/4/2023 6:30:00 AM 10.52 50.936 0.176 7.25 505.2 0.02
5/4/2023 6:45:00 AM 10.5 50.9 0.175 7.25 505.8 0.02
5/4/2023 7:00:00 AM 10.47 50.846 0.175 7.24 508.3 0.02
5/4/2023 7:15:00 AM 10.45 50.81 0.174 7.22 507.3 0.02
5/4/2023 7:30:00 AM 10.44 50.792 0.172 7.22 508.4 0.02
5/4/2023 7:45:00 AM 10.41 50.738 0.169 7.23 506.3 0.02
5/4/2023 8:00:00 AM 10.4 50.72 0.17 7.23 506.4 0.02
5/4/2023 8:15:00 AM 10.37 50.666 0.172 7.21 508.3 0.02
5/4/2023 8:30:00 AM 10.37 50.666 0.171 7.2 506.7 0.02
5/4/2023 8:45:00 AM 10.35 50.63 0.171 7.22 506.1 0.02
5/4/2023 9:00:00 AM 10.34 50.612 0.169 7.2 510 0.02
5/4/2023 9:15:00 AM 10.34 50.612 0.169 7.2 506.2 0.02
5/4/2023 9:30:00 AM 10.35 50.63 0.17 7.19 505.9 0.02
5/4/2023 9:45:00 AM 10.37 50.666 0.17 7.19 507.6 0.02
5/4/2023 10:00:00 AM 10.39 50.702 0.171 7.19 506.1 0.01
5/4/2023 10:15:00 AM 10.41 50.738 0.171 7.19 507.4 0.02
5/4/2023 10:30:00 AM 10.44 50.792 0.171 7.21 507.4 0.02
5/4/2023 10:45:00 AM 10.45 50.81 0.172 7.21 509.7 0.02
5/4/2023 11:00:00 AM 10.47 50.846 0.173 7.18 509.9 0.02
5/4/2023 11:15:00 AM 10.49 50.882 0.172 7.19 511.9 0.01
5/4/2023 11:30:00 AM 10.51 50.918 0.172 7.18 510.8 0.02
5/4/2023 11:45:00 AM 10.54 50.972 0.172 7.18 510.9 0.02
5/4/2023 12:00:00 PM 10.58 51.044 0.172 7.21 511.3 0.02
5/4/2023 12:15:00 PM 10.62 51.116 0.171 7.2 512.2 0.02
5/4/2023 12:30:00 PM 10.67 51.206 0.171 7.17 502.8 0.02
5/4/2023 12:45:00 PM 10.7 51.26 0.172 7.17 486.9 0.01
5/4/2023 1:00:00 PM 10.73 51.314 0.173 7.18 480.8 0.01
5/4/2023 1:15:00 PM 10.76 51.368 0.172 7.18 470 0.01
5/4/2023 1:30:00 PM 10.78 51.404 0.171 7.19 467.6 0.01
5/4/2023 1:45:00 PM 10.8 51.44 0.17 7.21 467.9 0.01
5/4/2023 2:00:00 PM 10.82 51.476 0.17 7.22 469.4 0.01
5/4/2023 2:15:00 PM 10.84 51.512 0.171 7.22 470.7 0.01
5/4/2023 2:30:00 PM 10.86 51.548 0.172 7.2 465.8 0.01
5/4/2023 2:45:00 PM 10.89 51.602 0.172 7.2 464.9 0.02
5/4/2023 3:00:00 PM 10.91 51.638 0.172 7.22 465.4 0.01
5/4/2023 3:15:00 PM 10.94 51.692 0.171 7.21 465.4 0.01
5/4/2023 3:30:00 PM 10.98 51.764 0.17 7.19 466.4 0.01
5/4/2023 3:45:00 PM 11.02 51.836 0.17 7.19 466.5 0.01
5/4/2023 4:00:00 PM 11.06 51.908 0.171 7.21 472.6 0.01
5/4/2023 4:15:00 PM 11.12 52.016 0.171 7.22 474.3 0.01
5/4/2023 4:30:00 PM 11.17 52.106 0.18 7.21 471.5 0.01
5/4/2023 4:45:00 PM 11.21 52.178 0.183 7.21 476.5 0.01
5/4/2023 5:00:00 PM 11.25 52.25 0.186 7.2 474.4 0.01
5/4/2023 5:15:00 PM 11.3 52.34 0.188 7.21 476.7 0.01
5/4/2023 5:30:00 PM 11.33 52.394 0.189 7.18 475.1 0.01
5/4/2023 5:45:00 PM 11.36 52.448 0.19 7.3 475.1 0.01
5/4/2023 6:00:00 PM 11.41 52.538 0.191 7.2 477.9 0.01
5/4/2023 6:15:00 PM 11.43 52.574 0.193 7.22 478 0.01
5/4/2023 6:30:00 PM 11.49 52.682 0.194 7.21 479.4 0.01
5/4/2023 6:45:00 PM 11.51 52.718 0.195 7.23 480.9 0.01
5/4/2023 7:00:00 PM 11.53 52.754 0.195 7.22 479.4 0.01
5/4/2023 7:15:00 PM 11.52 52.736 0.198 7.21 479.8 0.01
5/4/2023 7:30:00 PM 11.53 52.754 0.199 7.19 481.2 0.01
5/4/2023 7:45:00 PM 11.54 52.772 0.199 7.17 480.9 0.01
5/4/2023 8:00:00 PM 11.56 52.808 0.2 7.16 480.9 0.01
5/4/2023 8:15:00 PM 11.57 52.826 0.201 7.17 481.9 0.01
5/4/2023 8:30:00 PM 11.58 52.844 0.202 7.14 485.5 0.01
5/4/2023 8:45:00 PM 11.59 52.862 0.201 7.17 485.2 0.01
5/4/2023 9:00:00 PM 11.61 52.898 0.202 7.17 506.2 0.01
5/4/2023 9:15:00 PM 11.62 52.916 0.203 7.18 485.9 0.01
5/4/2023 9:30:00 PM 11.63 52.934 0.203 7.2 486.8 0.01
5/4/2023 9:45:00 PM 11.65 52.97 0.204 7.18 487.3 0.01
5/4/2023 10:00:00 PM 11.66 52.988 0.206 7.17 489.1 0.01
5/4/2023 10:15:00 PM 11.67 53.006 0.206 7.18 490 0.01
5/4/2023 10:30:00 PM 11.68 53.024 0.206 7.17 490.3 0.01
5/4/2023 10:45:00 PM 11.7 53.06 0.208 7.17 490 0.01
5/4/2023 11:00:00 PM 11.7 53.06 0.209 7.17 490.7 0.01
5/4/2023 11:15:00 PM 11.71 53.078 0.211 7.18 490.6 0.01
5/4/2023 11:30:00 PM 11.71 53.078 0.213 7.17 506 0.01
5/4/2023 11:45:00 PM 11.71 53.078 0.216 7.19 492.1 0.01
5/5/2023 12:00:00 AM 11.72 53.096 0.216 7.2 510.8 0.01
5/5/2023 12:15:00 AM 11.72 53.096 0.216 7.19 498.5 0.02
5/5/2023 12:30:00 AM 11.72 53.096 0.219 7.2 497 0.01
5/5/2023 12:45:00 AM 11.72 53.096 0.221 7.21 493.1 0.02
5/5/2023 1:00:00 AM 11.72 53.096 0.223 7.22 493.2 0.01
5/5/2023 1:15:00 AM 11.72 53.096 0.224 7.22 492.2 0.01
5/5/2023 1:30:00 AM 11.72 53.096 0.226 7.22 497.1 0.01
5/5/2023 1:45:00 AM 11.72 53.096 0.225 7.24 494.9 0.01
5/5/2023 2:00:00 AM 11.72 53.096 0.227 7.23 499.2 0.01
5/5/2023 2:15:00 AM 11.72 53.096 0.226 7.24 495.6 0.01
5/5/2023 2:30:00 AM 11.71 53.078 0.227 7.23 278.4 0.01
5/5/2023 2:45:00 AM 11.71 53.078 0.227 7.24 278.7 0.01
5/5/2023 3:00:00 AM 11.71 53.078 0.222 7.24 277.5 0.02
5/5/2023 3:15:00 AM 11.7 53.06 0.232 7.24 277.6 0.01
5/5/2023 3:30:00 AM 11.7 53.06 0.233 7.23 276.8 0.01
5/5/2023 3:45:00 AM 11.7 53.06 0.233 7.23 277.6 0.01
5/5/2023 4:00:00 AM 11.69 53.042 0.234 7.23 280.9 0.01
5/5/2023 4:15:00 AM 11.68 53.024 0.231 7.23 278 0.02
5/5/2023 4:30:00 AM 11.67 53.006 0.23 7.22 279 0.01
5/5/2023 4:45:00 AM 11.66 52.988 0.23 7.23 278.3 0.01
5/5/2023 5:00:00 AM 11.65 52.97 0.238 7.23 277 0.01
5/5/2023 5:15:00 AM 11.64 52.952 0.24 7.22 276.8 0.01
5/5/2023 5:30:00 AM 11.63 52.934 0.244 7.23 278.5 0.01
5/5/2023 5:45:00 AM 11.61 52.898 0.246 7.23 279.9 0.01
5/5/2023 6:00:00 AM 11.6 52.88 0.248 7.23 278.4 0.01
5/5/2023 6:15:00 AM 11.58 52.844 0.25 7.23 278.5 0.01
5/5/2023 6:30:00 AM 11.56 52.808 0.258 7.24 283.2 0.01
5/5/2023 6:45:00 AM 11.55 52.79 0.259 7.24 278 0.01
5/5/2023 7:00:00 AM 11.53 52.754 0.26 7.24 278.5 0.01
5/5/2023 7:15:00 AM 11.52 52.736 0.261 7.23 278 0.01
5/5/2023 7:30:00 AM 11.5 52.7 0.26 7.24 277.6 0.02
5/5/2023 7:45:00 AM 11.49 52.682 0.262 7.24 277.9 0.01
5/5/2023 8:00:00 AM 11.47 52.646 0.262 7.24 277.2 0.01
5/5/2023 8:15:00 AM 11.46 52.628 0.262 7.24 276.6 0.01
5/5/2023 8:30:00 AM 11.44 52.592 0.264 7.24 259.3 0.01
5/5/2023 8:45:00 AM 11.44 52.592 0.261 7.25 261.9 0.02
5/5/2023 9:00:00 AM 11.43 52.574 0.262 7.24 260.1 0.01
5/5/2023 9:15:00 AM 11.43 52.574 0.261 7.23 263.1 0.01
5/5/2023 9:30:00 AM 11.44 52.592 0.264 7.22 260.1 0.01
5/5/2023 9:45:00 AM 11.46 52.628 0.269 7.22 260.6 0.01
5/5/2023 10:00:00 AM 11.49 52.682 0.268 7.23 258.4 0.01
5/5/2023 10:15:00 AM 11.52 52.736 0.266 7.23 257.5 0.01
5/5/2023 10:30:00 AM 11.55 52.79 0.27 7.23 258.8 0.01
5/5/2023 10:45:00 AM 11.59 52.862 0.269 7.22 256.5 0.01
5/5/2023 11:00:00 AM 11.64 52.952 0.272 7.23 257.2 0.01
5/5/2023 11:15:00 AM 11.68 53.024 0.271 7.23 271.8 0.01
5/5/2023 11:30:00 AM 11.73 53.114 0.265 7.24 275.2 0.01
5/5/2023 11:45:00 AM 11.77 53.186 0.265 7.24 261.2 0.01
5/5/2023 12:00:00 PM 11.81 53.258 0.264 7.24 255.2 0.01
5/5/2023 12:15:00 PM 11.85 53.33 0.258 7.23 252 0.01
5/5/2023 12:30:00 PM 11.89 53.402 0.254 7.24 253.4 0.01
5/5/2023 12:45:00 PM 11.94 53.492 0.254 7.24 250.9 0.01
5/5/2023 1:00:00 PM 11.99 53.582 0.256 7.24 231.4 0.01
5/5/2023 1:15:00 PM 12.04 53.672 0.252 7.23 231.1 0.01
5/5/2023 1:30:00 PM 12.1 53.78 0.258 7.24 232 0.01
5/5/2023 1:45:00 PM 12.14 53.852 0.258 7.24 232.7 0.01
5/5/2023 2:00:00 PM 12.19 53.942 0.26 7.24 238 0.01
5/5/2023 2:15:00 PM 12.22 53.996 0.263 7.25 238.6 0.01
5/5/2023 2:30:00 PM 12.25 54.05 0.266 7.24 233.8 0.01
5/5/2023 2:45:00 PM 12.29 54.122 0.267 7.23 235.3 0.01
5/5/2023 3:00:00 PM 12.33 54.194 0.269 7.23 233.6 0.01
5/5/2023 3:15:00 PM 12.37 54.266 0.27 7.22 233.9 0.01
5/5/2023 3:30:00 PM 12.41 54.338 0.272 7.22 234.1 0.01
5/5/2023 3:45:00 PM 12.45 54.41 0.273 7.22 235.9 0.01
5/5/2023 4:00:00 PM 12.49 54.482 0.273 7.22 234.6 0.01
5/5/2023 4:15:00 PM 12.52 54.536 0.263 7.25 236.1 0.01
5/5/2023 4:30:00 PM 12.56 54.608 0.271 7.25 236.8 0.01
5/5/2023 4:45:00 PM 12.61 54.698 0.272 7.25 236.6 0.01
5/5/2023 5:00:00 PM 12.65 54.77 0.274 7.25 241.2 0.01
5/5/2023 5:15:00 PM 12.7 54.86 0.275 7.25 244.6 0.01
5/5/2023 5:30:00 PM 12.74 54.932 0.277 7.24 247 0.01
5/5/2023 5:45:00 PM 12.78 55.004 0.281 7.23 242.9 0.01
5/5/2023 6:00:00 PM 12.82 55.076 0.282 7.23 249.7 0.01
5/5/2023 6:15:00 PM 12.86 55.148 0.282 7.22 252.2 0.01
5/5/2023 6:30:00 PM 12.9 55.22 0.281 7.22 257.7 0.01
5/5/2023 6:45:00 PM 12.94 55.292 0.282 7.23 256.6 0.01
5/5/2023 7:00:00 PM 12.97 55.346 0.283 7.23 256 0.01
5/5/2023 7:15:00 PM 13 55.4 0.281 7.23 255.7 0.01
5/5/2023 7:30:00 PM 13.03 55.454 0.28 7.23 258.8 0.01
5/5/2023 7:45:00 PM 13.05 55.49 0.282 7.23 260.5 0.01
5/5/2023 8:00:00 PM 13.06 55.508 0.28 7.24 263.2 0.01
5/5/2023 8:15:00 PM 13.08 55.544 0.278 7.24 259.9 0.01
5/5/2023 8:30:00 PM 13.09 55.562 0.279 7.25 265.7 0.01
5/5/2023 8:45:00 PM 13.09 55.562 0.276 7.24 261 0.01
5/5/2023 9:00:00 PM 13.09 55.562 0.278 7.24 262.1 0.01
5/5/2023 9:15:00 PM 13.09 55.562 0.28 7.25 262.7 0.01
5/5/2023 9:30:00 PM 13.08 55.544 0.279 7.25 265.7 0.01
5/5/2023 9:45:00 PM 13.08 55.544 0.283 7.25 274 0.01
5/5/2023 10:00:00 PM 13.07 55.526 0.282 7.25 306.1 0.01
5/5/2023 10:15:00 PM 13.06 55.508 0.286 7.25 311.7 0.01
5/5/2023 10:30:00 PM 13.05 55.49 0.287 7.26 319.2 0.01
5/5/2023 10:45:00 PM 13.03 55.454 0.289 7.26 327.2 0.01
5/5/2023 11:00:00 PM 13.01 55.418 0.29 7.26 331.7 0.01
5/5/2023 11:15:00 PM 12.99 55.382 0.29 7.27 337.3 0.01
5/5/2023 11:30:00 PM 12.96 55.328 0.291 7.26 343.9 0.01
5/5/2023 11:45:00 PM 12.94 55.292 0.291 7.27 347.3 0.01
5/6/2023 12:00:00 AM 12.91 55.238 0.294 7.27 348.9 0.01
5/6/2023 12:15:00 AM 12.89 55.202 0.293 7.28 374 0.01
5/6/2023 12:30:00 AM 12.87 55.166 0.29 7.28 484.4 0.01
5/6/2023 12:45:00 AM 12.84 55.112 0.295 7.28 388 0.01
5/6/2023 1:00:00 AM 12.81 55.058 0.292 7.28 387.7 0.01
5/6/2023 1:15:00 AM 12.78 55.004 0.29 7.28 375.4 0.01
5/6/2023 1:30:00 AM 12.75 54.95 0.287 7.28 371.6 0.01
5/6/2023 1:45:00 AM 12.73 54.914 0.287 7.29 371.5 0.01
5/6/2023 2:00:00 AM 12.7 54.86 0.287 7.29 370 0.01
5/6/2023 2:15:00 AM 12.67 54.806 0.291 7.29 370.2 0.01
5/6/2023 2:30:00 AM 12.64 54.752 0.289 7.29 366.1 0.01
5/6/2023 2:45:00 AM 12.61 54.698 0.289 7.28 358 0.01
5/6/2023 3:00:00 AM 12.58 54.644 0.291 7.29 357.9 0.01
5/6/2023 3:15:00 AM 12.55 54.59 0.287 7.28 354.2 0.01
5/6/2023 3:30:00 AM 12.52 54.536 0.291 7.27 357.6 0.01
5/6/2023 3:45:00 AM 12.49 54.482 0.29 7.27 345.7 0.01
5/6/2023 4:00:00 AM 12.46 54.428 0.289 7.27 348 0.01
5/6/2023 4:15:00 AM 12.43 54.374 0.291 7.26 356.9 0.01
5/6/2023 4:30:00 AM 12.39 54.302 0.289 7.24 363.6 0.01
5/6/2023 4:45:00 AM 12.36 54.248 0.288 7.24 367.2 0.01
5/6/2023 5:00:00 AM 12.33 54.194 0.287 7.23 354.4 0.01
5/6/2023 5:15:00 AM 12.3 54.14 0.286 7.22 359 0.01
5/6/2023 5:30:00 AM 12.27 54.086 0.285 7.2 363 0.01
5/6/2023 5:45:00 AM 12.23 54.014 0.285 7.2 364.1 0.01
5/6/2023 6:00:00 AM 12.19 53.942 0.281 7.22 424.3 0.02
5/6/2023 6:15:00 AM 12.16 53.888 0.281 7.23 397.6 0.01
5/6/2023 6:30:00 AM 12.12 53.816 0.274 7.25 373.6 0.01
5/6/2023 6:45:00 AM 12.09 53.762 0.279 7.28 377.1 0.02
5/6/2023 7:00:00 AM 12.06 53.708 0.276 7.27 381 0.01
5/6/2023 7:15:00 AM 12.02 53.636 0.276 7.27 382.3 0.01
5/6/2023 7:30:00 AM 11.99 53.582 0.269 7.27 388.2 0.01
5/6/2023 7:45:00 AM 11.97 53.546 0.272 7.27 388.6 0.01
5/6/2023 8:00:00 AM 11.94 53.492 0.274 7.27 390.2 0.01
5/6/2023 8:15:00 AM 11.91 53.438 0.276 7.27 397.9 0.01
5/6/2023 8:30:00 AM 11.89 53.402 0.275 7.27 405.7 0.01
5/6/2023 8:45:00 AM 11.87 53.366 0.263 7.28 408.9 0.01
5/6/2023 9:00:00 AM 11.85 53.33 0.267 7.28 407.5 0.02
5/6/2023 9:15:00 AM 11.84 53.312 0.262 7.26 408.9 0.01
5/6/2023 9:30:00 AM 11.84 53.312 0.266 7.28 417.4 0.01
5/6/2023 9:45:00 AM 11.86 53.348 0.269 7.28 407.7 0.01
5/6/2023 10:00:00 AM 11.88 53.384 0.27 7.28 408 0.01
5/6/2023 10:15:00 AM 11.92 53.456 0.276 7.28 413.3 0.01
5/6/2023 10:30:00 AM 11.96 53.528 0.272 7.3 415 0.01
5/6/2023 10:45:00 AM 12.01 53.618 0.277 7.28 413.2 0.01
5/6/2023 11:00:00 AM 12.06 53.708 0.279 7.27 413.8 0.01
5/6/2023 11:15:00 AM 12.12 53.816 0.281 7.28 411.2 0.01
5/6/2023 11:30:00 AM 12.18 53.924 0.277 7.27 414.4 0.01
5/6/2023 11:45:00 AM 12.24 54.032 0.276 7.27 416.9 0.01
5/6/2023 12:00:00 PM 12.3 54.14 0.274 7.27 424.3 0.01
5/6/2023 12:15:00 PM 12.37 54.266 0.27 7.26 425.4 0.01
5/6/2023 12:30:00 PM 12.43 54.374 0.27 7.27 427.8 0.01
5/6/2023 12:45:00 PM 12.49 54.482 0.269 7.27 429.4 0.01
5/6/2023 1:00:00 PM 12.56 54.608 0.265 7.27 433.2 0.01
5/6/2023 1:15:00 PM 12.62 54.716 0.261 7.27 438 0.01
5/6/2023 1:30:00 PM 12.69 54.842 0.259 7.27 437.4 0.01
5/6/2023 1:45:00 PM 12.78 55.004 0.263 7.26 437.7 0.01
5/6/2023 2:00:00 PM 12.86 55.148 0.262 7.26 441.2 0.01
5/6/2023 2:15:00 PM 12.93 55.274 0.263 7.26 447 0.01
5/6/2023 2:30:00 PM 13.01 55.418 0.268 7.24 450.1 0.01
5/6/2023 2:45:00 PM 13.08 55.544 0.271 7.23 450.6 0.01
5/6/2023 3:00:00 PM 13.17 55.706 0.273 7.21 457.4 0.01
5/6/2023 3:15:00 PM 13.25 55.85 0.271 7.21 460 0.01
5/6/2023 3:30:00 PM 13.33 55.994 0.262 7.21 462.7 0.01
5/6/2023 3:45:00 PM 13.41 56.138 0.263 7.22 486 0.01
5/6/2023 4:00:00 PM 13.48 56.264 0.256 7.22 493.9 0.01
5/6/2023 4:15:00 PM 13.56 56.408 0.256 7.22 497.6 0.01
5/6/2023 4:30:00 PM 13.64 56.552 0.265 7.22 501.1 0.01
5/6/2023 4:45:00 PM 13.71 56.678 0.266 7.21 506.6 0.01
5/6/2023 5:00:00 PM 13.79 56.822 0.268 7.22 486.5 0.01
5/6/2023 5:15:00 PM 13.86 56.948 0.267 7.21 574.8 0.01
5/6/2023 5:30:00 PM 13.92 57.056 0.242 7.21 524.6 0.01
5/6/2023 5:45:00 PM 13.98 57.164 0.243 7.21 499.3 0.01
5/6/2023 6:00:00 PM 14.04 57.272 0.238 7.2 491.5 0.01
5/6/2023 6:15:00 PM 14.09 57.362 0.242 7.2 496.4 0.01
5/6/2023 6:30:00 PM 14.14 57.452 0.264 7.21 498.7 0.01
5/6/2023 6:45:00 PM 14.18 57.524 0.248 7.2 501.1 0.01
5/6/2023 7:00:00 PM 14.22 57.596 0.256 7.21 529.4 0.01
5/6/2023 7:15:00 PM 14.26 57.668 0.264 7.21 560.3 0.01
5/6/2023 7:30:00 PM 14.3 57.74 0.255 7.21 563.6 0.01
5/6/2023 7:45:00 PM 14.28 57.704 0.272 7.21 547.2 0.01
5/6/2023 8:00:00 PM 14.31 57.758 0.277 7.2 522.8 0.01
5/6/2023 8:15:00 PM 14.35 57.83 0.273 7.19 553.2 0.01
5/6/2023 8:30:00 PM 14.37 57.866 0.266 7.19 526.1 0.01
5/6/2023 8:45:00 PM 14.37 57.866 0.248 7.19 522.2 0.01
5/6/2023 9:00:00 PM 14.37 57.866 0.246 7.19 537.3 0.01
5/6/2023 9:15:00 PM 14.37 57.866 0.267 7.18 551.3 0.01
5/6/2023 9:30:00 PM 14.37 57.866 0.27 7.18 583.1 0.01
5/6/2023 9:45:00 PM 14.37 57.866 0.272 7.18 556.2 0.01
5/6/2023 10:00:00 PM 14.36 57.848 0.254 7.18 544.6 0.01
5/6/2023 10:15:00 PM 14.35 57.83 0.272 7.18 547.8 0.01
5/6/2023 10:30:00 PM 14.34 57.812 0.268 7.17 553.3 0.01
5/6/2023 10:45:00 PM 14.32 57.776 0.259 7.17 554.2 0.01
5/6/2023 11:00:00 PM 14.32 57.776 0.265 7.17 556.9 0.01
5/6/2023 11:15:00 PM 14.28 57.704 0.268 7.16 575 0.01
5/6/2023 11:30:00 PM 14.26 57.668 0.265 7.15 573 0.01
5/6/2023 11:45:00 PM 14.24 57.632 0.259 7.13 634.2 0.01
5/7/2023 12:00:00 AM 14.21 57.578 0.268 7.13 1118 0.01
5/7/2023 12:15:00 AM 14.19 57.542 0.269 7.13 1203 0.01
5/7/2023 12:30:00 AM 14.17 57.506 0.275 7.13 1183 0.01
5/7/2023 12:45:00 AM 14.14 57.452 0.271 7.13 1175 0.01
5/7/2023 1:00:00 AM 14.11 57.398 0.273 7.12 1187 0.01
5/7/2023 1:15:00 AM 14.07 57.326 0.285 7.13 1185 0.01
5/7/2023 1:30:00 AM 14.04 57.272 0.282 7.14 1178 0.01
5/7/2023 1:45:00 AM 14.01 57.218 0.286 7.12 1183 0.01
5/7/2023 2:00:00 AM 13.98 57.164 0.295 7.12 1235 0.01
5/7/2023 2:15:00 AM 13.94 57.092 0.288 7.12 1226 0.02
5/7/2023 2:30:00 AM 13.91 57.038 0.283 7.12 1242 0.01
5/7/2023 2:45:00 AM 13.87 56.966 0.296 7.13 1265 0.01
5/7/2023 3:00:00 AM 13.83 56.894 0.298 7.12 1250 0.01
5/7/2023 3:15:00 AM 13.78 56.804 0.3 7.12 1257 0.01
5/7/2023 3:30:00 AM 13.75 56.75 0.289 7.13 1255 0.01
5/7/2023 3:45:00 AM 13.71 56.678 0.292 7.12 1292 0.01
5/7/2023 4:00:00 AM 13.68 56.624 0.293 7.12 1290 0.01
5/7/2023 4:15:00 AM 13.65 56.57 0.295 7.12 1286 0.01
5/7/2023 4:30:00 AM 13.61 56.498 0.279 7.13 1281 0.01
5/7/2023 4:45:00 AM 13.58 56.444 0.288 7.13 1321 0.01
5/7/2023 5:00:00 AM 13.54 56.372 0.278 7.12 1314 0.01
5/7/2023 5:15:00 AM 13.51 56.318 0.255 7.13 1290 0.01
5/7/2023 5:30:00 AM 13.47 56.246 0.263 7.13 1289 0.01
5/7/2023 5:45:00 AM 13.44 56.192 0.248 7.13 1261 0.01
5/7/2023 6:00:00 AM 13.4 56.12 0.264 7.12 1247 0.01
5/7/2023 6:15:00 AM 13.37 56.066 0.234 7.11 1258 0.01
5/7/2023 6:30:00 AM 13.33 55.994 0.237 7.12 1231 0.01
5/7/2023 6:45:00 AM 13.3 55.94 0.243 7.12 1229 0.01
5/7/2023 7:00:00 AM 13.27 55.886 0.254 7.12 1241 0.01
5/7/2023 7:15:00 AM 13.25 55.85 0.258 7.1 1243 0.01
5/7/2023 7:30:00 AM 13.22 55.796 0.263 7.1 1243 0.01
5/7/2023 7:45:00 AM 13.2 55.76 0.229 7.1 1240 0.01
5/7/2023 8:00:00 AM 13.18 55.724 0.219 7.1 1247 0.01
5/7/2023 8:15:00 AM 13.16 55.688 0.219 7.1 1247 0.01
5/7/2023 8:30:00 AM 13.15 55.67 0.229 7.1 1266 0.01
5/7/2023 8:45:00 AM 13.13 55.634 0.237 7.11 1279 0.01
5/7/2023 9:00:00 AM 13.12 55.616 0.246 7.11 1269 0.01
5/7/2023 9:15:00 AM 13.11 55.598 0.262 7.11 1274 0.01
5/7/2023 9:30:00 AM 13.11 55.598 0.272 7.1 1273 0.01
5/7/2023 9:45:00 AM 13.1 55.58 0.271 7.11 1274 0.01
5/7/2023 10:00:00 AM 13.1 55.58 0.27 7.11 1276 0.01
5/7/2023 10:15:00 AM 13.11 55.598 0.269 7.1 1281 0.01
5/7/2023 10:30:00 AM 13.12 55.616 0.262 7.11 1282 0.01
5/7/2023 10:45:00 AM 13.14 55.652 0.263 7.1 1280 0.01
5/7/2023 11:00:00 AM 13.17 55.706 0.26 7.09 1275 0.01
5/7/2023 11:15:00 AM 13.21 55.778 0.259 7.09 1275 0.01
5/7/2023 11:30:00 AM 13.25 55.85 0.255 7.09 1292 0.01
5/7/2023 11:45:00 AM 13.29 55.922 0.261 7.09 1284 0.01
5/7/2023 12:00:00 PM 13.33 55.994 0.252 7.1 1288 0.03
5/7/2023 12:15:00 PM 13.36 56.048 0.262 7.1 1311 0.02
5/7/2023 12:30:00 PM 13.4 56.12 0.255 7.1 1309 0.01
5/7/2023 12:45:00 PM 13.43 56.174 0.259 7.1 1310 0.02
5/7/2023 1:00:00 PM 13.47 56.246 0.26 7.11 1310 0.02
5/7/2023 1:15:00 PM 13.5 56.3 0.265 7.11 1321 0.02
5/7/2023 1:30:00 PM 13.52 56.336 0.267 7.09 1333 0.02
5/7/2023 1:45:00 PM 13.55 56.39 0.267 7.1 1344 0.01
5/7/2023 2:00:00 PM 13.58 56.444 0.276 7.11 1340 0.02
5/7/2023 2:15:00 PM 13.61 56.498 0.261 7.11 1343 0.03
5/7/2023 2:30:00 PM 13.63 56.534 0.27 7.11 1341 0.02
5/7/2023 2:45:00 PM 13.66 56.588 0.261 7.1 1341 0.02
5/7/2023 3:00:00 PM 13.68 56.624 0.263 7.09 1348 0.02
5/7/2023 3:15:00 PM 13.7 56.66 0.263 7.09 1350 0.03
5/7/2023 3:30:00 PM 13.71 56.678 0.267 7.09 1374 0.02
5/7/2023 3:45:00 PM 13.73 56.714 0.267 7.08 1363 0.01
5/7/2023 4:00:00 PM 13.76 56.768 0.261 7.08 1359 0.02
5/7/2023 4:15:00 PM 13.77 56.786 0.264 7.08 1355 0.02
5/7/2023 4:30:00 PM 13.78 56.804 0.268 7.08 1363 0.02
5/7/2023 4:45:00 PM 13.79 56.822 0.268 7.08 1374 0.01
5/7/2023 5:00:00 PM 13.81 56.858 0.278 7.08 1397 0.02
5/7/2023 5:15:00 PM 13.82 56.876 0.275 7.07 1503 0.01
5/7/2023 5:30:00 PM 13.84 56.912 0.275 7.08 1517 0.01
5/7/2023 5:45:00 PM 13.85 56.93 0.269 7.07 1521 0.01
5/7/2023 6:00:00 PM 13.87 56.966 0.27 7.09 1522 0.02
5/7/2023 6:15:00 PM 13.88 56.984 0.273 7.08 1543 0.01
5/7/2023 6:30:00 PM 13.9 57.02 0.265 7.09 1542 0.01
5/7/2023 6:45:00 PM 13.92 57.056 0.262 7.09 1547 0.02
5/7/2023 7:00:00 PM 13.95 57.11 0.257 7.1 1558 0.01
5/7/2023 7:15:00 PM 13.96 57.128 0.258 7.1 1556 0.02
5/7/2023 7:30:00 PM 13.96 57.128 0.256 7.11 1565 0.02
5/7/2023 7:45:00 PM 14 57.2 0.261 7.11 1554 0.01
5/7/2023 8:00:00 PM 14.01 57.218 0.263 7.11 1542 0.02
5/7/2023 8:15:00 PM 14.01 57.218 0.259 7.11 1548 0.02
5/7/2023 8:30:00 PM 14.02 57.236 0.257 7.12 1569 0.01
5/7/2023 8:45:00 PM 14.01 57.218 0.26 7.12 1565 0.02
5/7/2023 9:00:00 PM 14.04 57.272 0.267 7.12 1532 0.01
5/7/2023 9:15:00 PM 14.05 57.29 0.27 7.11 1512 0.01
5/7/2023 9:30:00 PM 14.02 57.236 0.27 7.11 1498 0.01
5/7/2023 9:45:00 PM 14 57.2 0.274 7.12 1508 0.02
5/7/2023 10:00:00 PM 14 57.2 0.273 7.1 1532 0.03
5/7/2023 10:15:00 PM 13.99 57.182 0.276 7.11 1535 0.01
5/7/2023 10:30:00 PM 13.98 57.164 0.284 7.09 1531 0.02
5/7/2023 10:45:00 PM 13.99 57.182 0.275 7.11 1546 0.01
5/7/2023 11:00:00 PM 13.98 57.164 0.282 7.11 1528 0.02
5/7/2023 11:15:00 PM 13.98 57.164 0.279 7.11 1524 0.01
5/7/2023 11:30:00 PM 13.97 57.146 0.285 7.12 1533 0.01
5/7/2023 11:45:00 PM 13.96 57.128 0.29 7.12 1539 0.01
5/8/2023 12:00:00 AM 13.94 57.092 0.278 7.12 1548 0.01
5/8/2023 12:15:00 AM 13.93 57.074 0.287 7.12 1538 0.01
5/8/2023 12:30:00 AM 13.91 57.038 0.285 7.11 1537 0.01
5/8/2023 12:45:00 AM 13.9 57.02 0.292 7.12 1604 0.01
5/8/2023 1:00:00 AM 13.88 56.984 0.297 7.12 1574 0.02
5/8/2023 1:15:00 AM 13.87 56.966 0.288 7.12 1567 0.01
5/8/2023 1:30:00 AM 13.85 56.93 0.305 7.12 1563 0.01
5/8/2023 1:45:00 AM 13.85 56.93 0.29 7.12 1583 0.01
5/8/2023 2:00:00 AM 13.84 56.912 0.295 7.12 1572 0.01
5/8/2023 2:15:00 AM 13.82 56.876 0.292 7.12 1563 0.01
5/8/2023 2:30:00 AM 13.81 56.858 0.287 7.13 1589 0.01
5/8/2023 2:45:00 AM 13.79 56.822 0.281 7.13 1569 0.01
5/8/2023 3:00:00 AM 13.78 56.804 0.28 7.14 1581 0.01
5/8/2023 3:15:00 AM 13.76 56.768 0.275 7.13 1583 0.01
5/8/2023 3:30:00 AM 13.74 56.732 0.269 7.13 1566 0.01
5/8/2023 3:45:00 AM 13.73 56.714 0.266 7.13 1571 0.01
5/8/2023 4:00:00 AM 13.72 56.696 0.252 7.14 1569 0.01
5/8/2023 4:15:00 AM 13.7 56.66 0.256 7.15 1591 0.01
5/8/2023 4:30:00 AM 13.69 56.642 0.251 7.15 1583 0.01
5/8/2023 4:45:00 AM 13.67 56.606 0.253 7.14 1573 0.01
5/8/2023 5:00:00 AM 13.65 56.57 0.252 7.14 1597 0.01
5/8/2023 5:15:00 AM 13.63 56.534 0.257 7.13 1574 0.01
5/8/2023 5:30:00 AM 13.61 56.498 0.264 7.15 1580 0.01
5/8/2023 5:45:00 AM 13.59 56.462 0.262 7.15 1577 0.01
5/8/2023 6:00:00 AM 13.57 56.426 0.263 7.13 1577 0.01
5/8/2023 6:15:00 AM 13.55 56.39 0.27 7.15 1595 0.01
5/8/2023 6:30:00 AM 13.53 56.354 0.27 7.14 1592 0.01
5/8/2023 6:45:00 AM 13.51 56.318 0.272 7.15 1571 0.01
5/8/2023 7:00:00 AM 13.49 56.282 0.275 7.15 1595 0.01
5/8/2023 7:15:00 AM 13.47 56.246 0.273 7.13 1573 0.01
5/8/2023 7:30:00 AM 13.45 56.21 0.262 7.13 1577 0.01
5/8/2023 7:45:00 AM 13.44 56.192 0.277 7.14 1564 0.01
5/8/2023 8:00:00 AM 13.42 56.156 0.288 7.13 1575 0.01
5/8/2023 8:15:00 AM 13.41 56.138 0.271 7.11 1575 0.01
5/8/2023 8:30:00 AM 13.4 56.12 0.262 7.1 1579 0.01
5/8/2023 8:45:00 AM 13.4 56.12 0.269 7.1 1573 0.01
5/8/2023 9:00:00 AM 13.39 56.102 0.269 7.09 1562 0.01
5/8/2023 9:15:00 AM 13.39 56.102 0.27 7.12 1528 0.01
5/8/2023 9:30:00 AM 13.41 56.138 0.29 7.11 1536 0.01
5/8/2023 9:45:00 AM 13.43 56.174 0.279 7.27 1538 0.01
5/8/2023 10:00:00 AM 13.45 56.21 0.269 7.2 1531 0.01
5/8/2023 10:15:00 AM 13.48 56.264 0.236 7.3 1548 0.01
5/8/2023 10:30:00 AM 13.52 56.336 0.255 7.22 1540 0.01
5/8/2023 10:45:00 AM 13.54 56.372 0.265 7.13 1543 0.01
5/8/2023 11:00:00 AM 13.58 56.444 0.248 7.12 1546 0.01
5/8/2023 11:15:00 AM 13.64 56.552 0.27 7.21 1559 0.01
5/8/2023 11:30:00 AM 13.69 56.642 0.263 7.12 1554 0.01
5/8/2023 11:45:00 AM 13.75 56.75 0.27 7.16 1544 0.01
5/8/2023 12:00:00 PM 13.82 56.876 0.254 7.12 1546 0.01
5/8/2023 12:15:00 PM 13.87 56.966 0.266 7.13 1556 0.01
5/8/2023 12:30:00 PM 13.92 57.056 0.274 7.1 1558 0.01
5/8/2023 12:45:00 PM 13.98 57.164 0.277 7.06 1566 0.01
5/8/2023 1:00:00 PM 14.06 57.308 0.279 7.13 1555 0.01
5/8/2023 1:15:00 PM 14.14 57.452 0.283 7.14 1551 0.01
5/8/2023 1:30:00 PM 14.24 57.632 0.287 7.12 1549 0.01
5/8/2023 1:45:00 PM 14.34 57.812 0.286 7.12 1566 0.01
5/8/2023 2:00:00 PM 14.44 57.992 0.284 7.12 1558 0.01
5/8/2023 2:15:00 PM 14.53 58.154 0.279 7.12 1558 0.01
5/8/2023 2:30:00 PM 14.63 58.334 0.273 7.13 1585 0.01
5/8/2023 2:45:00 PM 14.72 58.496 0.264 7.13 1562 0.01
5/8/2023 3:00:00 PM 14.78 58.604 0.255 7.14 1578 0.01
5/8/2023 3:15:00 PM 14.83 58.694 0.247 7.19 1579 0.01
5/8/2023 3:30:00 PM 14.95 58.91 0.231 7.19 1579 0.01
5/8/2023 3:45:00 PM 15.02 59.036 0.228 7.17 1575 0.01
5/8/2023 4:00:00 PM 15.11 59.198 0.228 7.17 1574 0.01
5/8/2023 4:15:00 PM 15.15 59.27 0.222 7.17 1592 0.01
5/8/2023 4:30:00 PM 15.2 59.36 0.217 7.19 5036 0.01
5/8/2023 4:45:00 PM 15.27 59.486 0.219 7.18 4797 0.01
5/8/2023 5:00:00 PM 15.38 59.684 0.221 7.17 1808 0.01
5/8/2023 5:15:00 PM 15.46 59.828 0.225 7.18 1878 0.01
5/8/2023 5:30:00 PM 15.5 59.9 0.218 7.19 1896 0.01
5/8/2023 5:45:00 PM 15.56 60.008 0.217 7.2 1903 0.01
5/8/2023 6:00:00 PM 15.61 60.098 0.219 7.18 1938 0.01
5/8/2023 6:15:00 PM 15.67 60.206 0.218 7.2 2051 0.01
5/8/2023 6:30:00 PM 15.72 60.296 0.216 7.19 5036 0.01
5/8/2023 6:45:00 PM 15.83 60.494 0.213 7.19 5036 0.01
5/8/2023 7:00:00 PM 15.87 60.566 0.206 7.2 5036 0.01
5/8/2023 7:15:00 PM 15.91 60.638 0.209 7.19 5036 0.01
5/8/2023 7:30:00 PM 15.93 60.674 0.211 7.2 5036 0.01
5/8/2023 7:45:00 PM 16.02 60.836 0.215 7.2 5036 0.01
5/8/2023 8:00:00 PM 16.04 60.872 0.216 7.21 5036 0.01
5/8/2023 8:15:00 PM 16.07 60.926 0.22 7.2 5036 0.01
5/8/2023 8:30:00 PM 16.1 60.98 0.215 7.21 5036 0.01
5/8/2023 8:45:00 PM 16.08 60.944 0.209 7.21 1597 0.01
5/8/2023 9:00:00 PM 16.1 60.98 0.211 7.2 1582 0.01
5/8/2023 9:15:00 PM 16.06 60.908 0.207 7.21 2366 0.01
5/8/2023 9:30:00 PM 16.06 60.908 0.204 7.21 2425 2.85
5/8/2023 9:45:00 PM 16.06 60.908 0.201 7.21 2449 0.15
5/8/2023 10:00:00 PM 16.05 60.89 0.204 7.23 2462 0.01
5/8/2023 10:15:00 PM 15.99 60.782 0.199 7.23 2477 0.01
5/8/2023 10:30:00 PM 16.04 60.872 0.209 7.23 2491 0.01
5/8/2023 10:45:00 PM 16 60.8 0.207 7.24 2505 0.01
5/8/2023 11:00:00 PM 15.99 60.782 0.207 7.25 2559 0.01
5/8/2023 11:15:00 PM 15.97 60.746 0.215 7.25 2583 0.01
5/8/2023 11:30:00 PM 15.92 60.656 0.231 7.24 2593 0.01
5/8/2023 11:45:00 PM 15.92 60.656 0.226 7.24 2598 0.01
5/9/2023 12:00:00 AM 15.9 60.62 0.238 7.23 2604 0.01
5/9/2023 12:15:00 AM 15.88 60.584 0.241 7.23 2613 0.01
5/9/2023 12:30:00 AM 15.82 60.476 0.235 7.22 2617 0.01
5/9/2023 12:45:00 AM 15.78 60.404 0.237 7.22 2630 0.01
5/9/2023 1:00:00 AM 15.77 60.386 0.24 7.22 2651 0.01
5/9/2023 1:15:00 AM 15.73 60.314 0.231 7.22 2650 0.01
5/9/2023 1:30:00 AM 15.7 60.26 0.226 7.23 2659 0.01
5/9/2023 1:45:00 AM 15.67 60.206 0.223 7.23 2658 0.01
5/9/2023 2:00:00 AM 15.66 60.188 0.225 7.24 2665 0.01
5/9/2023 2:15:00 AM 15.64 60.152 0.231 7.24 2666 0.01
5/9/2023 2:30:00 AM 15.63 60.134 0.232 7.24 2671 0.01
5/9/2023 2:45:00 AM 15.6 60.08 0.229 7.24 2676 0.01
5/9/2023 3:00:00 AM 15.57 60.026 0.219 7.25 2678 0.01
5/9/2023 3:15:00 AM 15.55 59.99 0.219 7.26 2690 0.01
5/9/2023 3:30:00 AM 15.51 59.918 0.22 7.26 2714 0.01
5/9/2023 3:45:00 AM 15.49 59.882 0.217 7.27 2740 0.01
5/9/2023 4:00:00 AM 15.46 59.828 0.225 7.27 2772 0.01
5/9/2023 4:15:00 AM 15.44 59.792 0.223 7.27 2773 0.01
5/9/2023 4:30:00 AM 15.41 59.738 0.223 7.26 2781 0.01
5/9/2023 4:45:00 AM 15.38 59.684 0.213 7.27 2782 0.01
5/9/2023 5:00:00 AM 15.35 59.63 0.223 7.28 2793 0.01
5/9/2023 5:15:00 AM 15.31 59.558 0.226 7.27 2807 0.01
5/9/2023 5:30:00 AM 15.27 59.486 0.221 7.27 2809 0.01
5/9/2023 5:45:00 AM 15.25 59.45 0.218 7.27 2826 0.01
5/9/2023 6:00:00 AM 15.21 59.378 0.212 7.26 2835 0.01
5/9/2023 6:15:00 AM 15.19 59.342 0.211 7.27 2998 0.01
5/9/2023 6:30:00 AM 15.15 59.27 0.214 7.27 3045 0.01
5/9/2023 6:45:00 AM 15.13 59.234 0.216 7.28 3051 0.01
5/9/2023 7:00:00 AM 15.11 59.198 0.213 7.28 3047 0.01
5/9/2023 7:15:00 AM 15.09 59.162 0.213 7.29 3034 0.01
5/9/2023 7:30:00 AM 15.07 59.126 0.213 7.28 3037 0.01
5/9/2023 7:45:00 AM 15.06 59.108 0.216 7.29 3060 0.01
5/9/2023 8:00:00 AM 15.04 59.072 0.213 7.3 3044 0.01
5/9/2023 8:15:00 AM 14.99 58.982 0.218 7.28 3015 0.01
5/9/2023 8:30:00 AM 14.98 58.964 0.223 7.29 3013 0.01
5/9/2023 8:45:00 AM 14.98 58.964 0.225 7.29 3022 0.01
5/9/2023 9:00:00 AM 14.95 58.91 0.218 7.3 3026 0.01
5/9/2023 9:15:00 AM 14.92 58.856 0.217 7.3 3021 0.01
5/9/2023 9:30:00 AM 14.9 58.82 0.224 7.3 3046 0.01
5/9/2023 9:45:00 AM 14.88 58.784 0.225 7.29 3034 0.01
5/9/2023 10:00:00 AM 14.86 58.748 0.22 7.28 3005 0.01
5/9/2023 10:15:00 AM 14.85 58.73 0.228 7.28 3014 0.01
5/9/2023 10:30:00 AM 14.84 58.712 0.232 7.28 3004 0.01
5/9/2023 10:45:00 AM 14.82 58.676 0.234 7.28 3013 0.01
5/9/2023 11:00:00 AM 14.82 58.676 0.235 7.28 3022 0.01
5/9/2023 11:15:00 AM 14.81 58.658 0.239 7.27 3032 0.01
5/9/2023 11:30:00 AM 14.8 58.64 0.237 7.28 3035 0.01
5/9/2023 11:45:00 AM 14.78 58.604 0.233 7.28 3039 0.01
5/9/2023 12:00:00 PM 14.78 58.604 0.232 7.28 3042 0.01
5/9/2023 12:15:00 PM 14.77 58.586 0.235 7.28 3044 0.01
5/9/2023 12:30:00 PM 14.76 58.568 0.238 7.28 3054 0.01
5/9/2023 12:45:00 PM 14.76 58.568 0.243 7.28 3054 0.01
5/9/2023 1:00:00 PM 14.77 58.586 0.247 7.28 3055 0.01
5/9/2023 1:15:00 PM 14.77 58.586 0.258 7.28 3055 0.01
5/9/2023 1:30:00 PM 14.79 58.622 0.264 7.27 3069 0.01
5/9/2023 1:45:00 PM 14.81 58.658 0.262 7.27 3075 0.01
5/9/2023 2:00:00 PM 14.84 58.712 0.268 7.27 3104 0.01
5/9/2023 2:15:00 PM 14.86 58.748 0.273 7.27 3094 0.01
5/9/2023 2:30:00 PM 14.9 58.82 0.28 7.26 3105 0.01
5/9/2023 2:45:00 PM 14.94 58.892 0.282 7.26 1803 0.01
5/9/2023 3:00:00 PM 14.99 58.982 0.284 7.25 1808 0.01
5/9/2023 3:15:00 PM 15.04 59.072 0.281 7.26 1807 0.01
5/9/2023 3:30:00 PM 15.09 59.162 0.29 7.25 1823 0.01
5/9/2023 3:45:00 PM 15.14 59.252 0.286 7.25 1783 0.01
5/9/2023 4:00:00 PM 15.19 59.342 0.281 7.25 1752 0.01
5/9/2023 4:15:00 PM 15.25 59.45 0.285 7.26 1742 0.01
5/9/2023 4:30:00 PM 15.3 59.54 0.287 7.26 1738 0.01
5/9/2023 4:45:00 PM 15.35 59.63 0.297 7.26 1740 0.01
5/9/2023 5:00:00 PM 15.39 59.702 0.297 7.26 1742 0.01
5/9/2023 5:15:00 PM 15.44 59.792 0.299 7.27 1751 0.01
5/9/2023 5:30:00 PM 15.48 59.864 0.29 7.26 1744 0.01
5/9/2023 5:45:00 PM 15.52 59.936 0.29 7.27 1741 0.01
5/9/2023 6:00:00 PM 15.56 60.008 0.296 7.27 1733 0.01
5/9/2023 6:15:00 PM 15.59 60.062 0.3 7.27 1728 0.01
5/9/2023 6:30:00 PM 15.62 60.116 0.301 7.27 1722 0.01
5/9/2023 6:45:00 PM 15.64 60.152 0.305 7.27 1773 0.01
5/9/2023 7:00:00 PM 15.67 60.206 0.299 7.28 1715 0.01
5/9/2023 7:15:00 PM 15.68 60.224 0.303 7.28 1707 0.01
5/9/2023 7:30:00 PM 15.69 60.242 0.3 7.28 1712 0.01
5/9/2023 7:45:00 PM 15.7 60.26 0.304 7.28 1710 0.01
5/9/2023 8:00:00 PM 15.71 60.278 0.309 7.28 1706 0.01
5/9/2023 8:15:00 PM 15.7 60.26 0.307 7.29 1704 0.01
5/9/2023 8:30:00 PM 15.7 60.26 0.31 7.3 1701 0.01
5/9/2023 8:45:00 PM 15.69 60.242 0.308 7.29 1710 0.01
5/9/2023 9:00:00 PM 15.69 60.242 0.306 7.29 1698 0.01
5/9/2023 9:15:00 PM 15.68 60.224 0.286 7.29 1692 0.01
5/9/2023 9:30:00 PM 15.67 60.206 0.304 7.3 1686 0.01
5/9/2023 9:45:00 PM 15.65 60.17 0.298 7.3 1708 0.01
5/9/2023 10:00:00 PM 15.64 60.152 0.297 7.3 1718 0.01
5/9/2023 10:15:00 PM 15.62 60.116 0.3 7.31 1682 0.01
5/9/2023 10:30:00 PM 15.6 60.08 0.293 7.31 1681 0.01
5/9/2023 10:45:00 PM 15.58 60.044 0.309 7.31 1681 0.01
5/9/2023 11:00:00 PM 15.56 60.008 0.308 7.32 1681 0.01
5/9/2023 11:15:00 PM 15.54 59.972 0.308 7.31 1677 0.01
5/9/2023 11:30:00 PM 15.52 59.936 0.308 7.31 1678 0.01
5/9/2023 11:45:00 PM 15.5 59.9 0.313 7.31 1671 0.01
5/10/2023 12:00:00 AM 15.48 59.864 0.306 7.31 1677 0.01
5/10/2023 12:15:00 AM 15.45 59.81 0.299 7.31 1671 0.01
5/10/2023 12:30:00 AM 15.44 59.792 0.307 7.32 1673 0.01
5/10/2023 12:45:00 AM 15.42 59.756 0.289 7.32 1673 0.01
5/10/2023 1:00:00 AM 15.38 59.684 0.295 7.33 1677 0.01
5/10/2023 1:15:00 AM 15.35 59.63 0.284 7.33 1679 0.01
5/10/2023 1:30:00 AM 15.31 59.558 0.287 7.34 1686 0.01
5/10/2023 1:45:00 AM 15.27 59.486 0.287 7.34 1710 0.01
5/10/2023 2:00:00 AM 15.23 59.414 0.293 7.33 1697 0.01
5/10/2023 2:15:00 AM 15.2 59.36 0.288 7.33 1701 0.01
5/10/2023 2:30:00 AM 15.15 59.27 0.299 7.35 1700 0.01
5/10/2023 2:45:00 AM 15.12 59.216 0.288 7.34 1702 0.01
5/10/2023 3:00:00 AM 15.07 59.126 0.283 7.34 1714 0.01
5/10/2023 3:15:00 AM 15.03 59.054 0.279 7.35 1730 0.01
5/10/2023 3:30:00 AM 14.99 58.982 0.282 7.35 1755 0.01
5/10/2023 3:45:00 AM 14.95 58.91 0.273 7.35 1768 0.01
5/10/2023 4:00:00 AM 14.9 58.82 0.268 7.36 1776 0.01
5/10/2023 4:15:00 AM 14.85 58.73 0.268 7.36 1792 0.01
5/10/2023 4:30:00 AM 14.81 58.658 0.261 7.36 1800 0.01
5/10/2023 4:45:00 AM 14.76 58.568 0.263 7.35 1815 0.01
5/10/2023 5:00:00 AM 14.71 58.478 0.267 7.36 1826 0.01
5/10/2023 5:15:00 AM 14.66 58.388 0.267 7.37 1833 0.01
5/10/2023 5:30:00 AM 14.61 58.298 0.268 7.37 1843 0.01
5/10/2023 5:45:00 AM 14.56 58.208 0.266 7.36 1843 0.01
5/10/2023 6:00:00 AM 14.52 58.136 0.269 7.37 1849 0.01
5/10/2023 6:15:00 AM 14.46 58.028 0.272 7.37 1850 0.01
5/10/2023 6:30:00 AM 14.41 57.938 0.265 7.37 1852 0.01
5/10/2023 6:45:00 AM 14.36 57.848 0.256 7.38 1853 0.01
5/10/2023 7:00:00 AM 14.31 57.758 0.268 7.37 1858 0.01
5/10/2023 7:15:00 AM 14.26 57.668 0.267 7.37 1866 0.01
5/10/2023 7:30:00 AM 14.21 57.578 0.276 7.37 1870 0.01
5/10/2023 7:45:00 AM 14.17 57.506 0.28 7.37 1877 0.01
5/10/2023 8:00:00 AM 14.13 57.434 0.273 7.37 1876 0.01
5/10/2023 8:15:00 AM 14.1 57.38 0.284 7.37 1877 0.01
5/10/2023 8:30:00 AM 14.06 57.308 0.294 7.38 1881 0.01
5/10/2023 8:45:00 AM 14.03 57.254 0.285 7.37 1875 0.01
5/10/2023 9:00:00 AM 14.01 57.218 0.289 7.36 1876 0.01
5/10/2023 9:15:00 AM 13.99 57.182 0.292 7.36 1873 0.01
5/10/2023 9:30:00 AM 13.98 57.164 0.282 7.35 1877 0.01
5/10/2023 9:45:00 AM 13.98 57.164 0.279 7.35 1873 0.01
5/10/2023 10:00:00 AM 13.99 57.182 0.275 7.35 1873 0.01
5/10/2023 10:15:00 AM 14 57.2 0.276 7.35 1875 0.01
5/10/2023 10:30:00 AM 14.03 57.254 0.278 7.36 1875 0.01
5/10/2023 10:45:00 AM 14.05 57.29 0.287 7.36 1867 0.01
5/10/2023 11:00:00 AM 14.08 57.344 0.287 7.36 1874 0.01
5/10/2023 11:15:00 AM 14.12 57.416 0.282 7.36 1868 0.01
5/10/2023 11:30:00 AM 14.16 57.488 0.278 7.36 1868 0.01
5/10/2023 11:45:00 AM 14.2 57.56 0.282 7.35 1869 0.01
5/10/2023 12:00:00 PM 14.24 57.632 0.21 7.35 1868 0.01
5/10/2023 12:15:00 PM 14.3 57.74 0.273 7.35 1868 0.01
5/10/2023 12:30:00 PM 14.35 57.83 0.237 7.35 1869 0.01
5/10/2023 12:45:00 PM 14.4 57.92 0.218 7.35 1865 0.01
5/10/2023 1:00:00 PM 14.44 57.992 0.271 7.35 1868 0.01
5/10/2023 1:15:00 PM 14.48 58.064 0.267 7.35 1875 0.01
5/10/2023 1:30:00 PM 14.52 58.136 0.274 7.35 1873 0.01
5/10/2023 1:45:00 PM 14.6 58.28 0.207 7.34 1892 0.01
5/10/2023 2:00:00 PM 14.66 58.388 0.263 7.35 1883 0.01
5/10/2023 2:15:00 PM 14.69 58.442 0.223 7.34 1892 0.01
5/10/2023 2:30:00 PM 14.76 58.568 0.263 7.35 1899 0.01
5/10/2023 2:45:00 PM 14.81 58.658 0.205 7.34 1913 0.01
5/10/2023 3:00:00 PM 14.88 58.784 0.27 7.35 1922 0.01
5/10/2023 3:15:00 PM 14.92 58.856 0.271 7.35 1919 0.01
5/10/2023 3:30:00 PM 14.98 58.964 0.273 7.35 1929 0.01
5/10/2023 3:45:00 PM 15.04 59.072 0.273 7.35 1939 0.01
5/10/2023 4:00:00 PM 15.09 59.162 0.27 7.35 1945 0.01
5/10/2023 4:15:00 PM 15.14 59.252 0.267 7.35 1956 0.01
5/10/2023 4:30:00 PM 15.18 59.324 0.267 7.34 1958 0.01
5/10/2023 4:45:00 PM 15.23 59.414 0.273 7.35 1963 0.01
5/10/2023 5:00:00 PM 15.27 59.486 0.278 7.34 1967 0.01
5/10/2023 5:15:00 PM 15.32 59.576 0.276 7.34 1967 0.01
5/10/2023 5:30:00 PM 15.37 59.666 0.277 7.34 1979 0.01
5/10/2023 5:45:00 PM 15.42 59.756 0.275 7.35 1971 0.01
5/10/2023 6:00:00 PM 15.49 59.882 0.273 7.35 2000 0.01
5/10/2023 6:15:00 PM 15.54 59.972 0.271 7.34 1929 0.01
5/10/2023 6:30:00 PM 15.58 60.044 0.269 7.35 2061 0.01
5/10/2023 6:45:00 PM 15.63 60.134 0.27 7.34 2081 0.01
5/10/2023 7:00:00 PM 15.67 60.206 0.266 7.35 2091 0.01
5/10/2023 7:15:00 PM 15.69 60.242 0.258 7.35 2073 0.01
5/10/2023 7:30:00 PM 15.72 60.296 0.255 7.35 2081 0.01
5/10/2023 7:45:00 PM 15.74 60.332 0.252 7.36 2132 0.01
5/10/2023 8:00:00 PM 15.75 60.35 0.252 7.36 2173 0.01
5/10/2023 8:15:00 PM 15.76 60.368 0.254 7.36 2198 0.01
5/10/2023 8:30:00 PM 15.77 60.386 0.25 7.36 1926 0.01
5/10/2023 8:45:00 PM 15.77 60.386 0.253 7.37 2032 0.01
5/10/2023 9:00:00 PM 15.78 60.404 0.25 7.37 2038 0.01
5/10/2023 9:15:00 PM 15.76 60.368 0.253 7.37 2002 0.01
5/10/2023 9:30:00 PM 15.76 60.368 0.257 7.37 2011 0.01
5/10/2023 9:45:00 PM 15.74 60.332 0.264 7.38 1972 0.01
5/10/2023 10:00:00 PM 15.72 60.296 0.261 7.38 1941 0.01
5/10/2023 10:15:00 PM 15.7 60.26 0.265 7.38 1907 0.01
5/10/2023 10:30:00 PM 15.68 60.224 0.273 7.39 1852 0.01
5/10/2023 10:45:00 PM 15.65 60.17 0.276 7.39 1822 0.01
5/10/2023 11:00:00 PM 15.63 60.134 0.287 7.39 1797 0.01
5/10/2023 11:15:00 PM 15.61 60.098 0.286 7.39 1772 0.01
5/10/2023 11:30:00 PM 15.58 60.044 0.274 7.39 1740 0.01
5/10/2023 11:45:00 PM 15.56 60.008 0.286 7.39 1725 0.01
5/11/2023 12:00:00 AM 15.54 59.972 0.289 7.39 1710 0.01
5/11/2023 12:15:00 AM 15.51 59.918 0.289 7.4 1701 0.01
5/11/2023 12:30:00 AM 15.48 59.864 0.289 7.4 1684 0.01
5/11/2023 12:45:00 AM 15.43 59.774 0.292 7.39 1670 0.01
5/11/2023 1:00:00 AM 15.4 59.72 0.294 7.4 1671 0.01
5/11/2023 1:15:00 AM 15.36 59.648 0.291 7.4 1669 0.01
5/11/2023 1:30:00 AM 15.33 59.594 0.286 7.4 1669 0.01
5/11/2023 1:45:00 AM 15.29 59.522 0.287 7.4 1650 0.01
5/11/2023 2:00:00 AM 15.26 59.468 0.294 7.4 1638 0.01
5/11/2023 2:15:00 AM 15.23 59.414 0.297 7.39 1642 0.01
5/11/2023 2:30:00 AM 15.19 59.342 0.294 7.39 1615 0.01
5/11/2023 2:45:00 AM 15.16 59.288 0.292 7.4 1601 0.01
5/11/2023 3:00:00 AM 15.12 59.216 0.29 7.4 1602 0.01
5/11/2023 3:15:00 AM 15.08 59.144 0.292 7.4 1656 0.01
5/11/2023 3:30:00 AM 15.04 59.072 0.29 7.4 1729 0.01
5/11/2023 3:45:00 AM 15 59 0.292 7.4 5036 0.01
5/11/2023 4:00:00 AM 14.96 58.928 0.294 7.4 5036 0.01
5/11/2023 4:15:00 AM 14.92 58.856 0.289 7.41 462.5 0.01
5/11/2023 4:30:00 AM 14.88 58.784 0.287 7.41 476.3 0.01
5/11/2023 4:45:00 AM 14.83 58.694 0.29 7.41 837.1 0.01
5/11/2023 5:00:00 AM 14.79 58.622 0.283 7.41 1001 0.01
5/11/2023 5:15:00 AM 14.75 58.55 0.287 7.41 1148 0.01
5/11/2023 5:30:00 AM 14.7 58.46 0.287 7.4 1131 0.01
5/11/2023 5:45:00 AM 14.65 58.37 0.284 7.41 1013 0.01
5/11/2023 6:00:00 AM 14.61 58.298 0.281 7.4 1015 0.01
5/11/2023 6:15:00 AM 14.57 58.226 0.277 7.41 1017 0.01
5/11/2023 6:30:00 AM 14.52 58.136 0.285 7.41 1009 0.01
5/11/2023 6:45:00 AM 14.48 58.064 0.283 7.4 1017 0.01
5/11/2023 7:00:00 AM 14.43 57.974 0.288 7.41 1020 0.01
5/11/2023 7:15:00 AM 14.38 57.884 0.293 7.4 1017 0.01
5/11/2023 7:30:00 AM 14.34 57.812 0.298 7.41 1019 0.01
5/11/2023 7:45:00 AM 14.3 57.74 0.294 7.4 1018 0.01
5/11/2023 8:00:00 AM 14.26 57.668 0.293 7.41 1019 0.01
5/11/2023 8:15:00 AM 14.23 57.614 0.292 7.41 1019 0.01
5/11/2023 8:30:00 AM 14.2 57.56 0.297 7.42 1018 0.01
5/11/2023 8:45:00 AM 14.17 57.506 0.295 7.41 1017 0.01
5/11/2023 9:00:00 AM 14.14 57.452 0.292 7.41 1017 0.01
5/11/2023 9:15:00 AM 14.13 57.434 0.287 7.4 1016 0.01
5/11/2023 9:30:00 AM 14.12 57.416 0.269 7.4 1007 0.01
5/11/2023 9:45:00 AM 14.12 57.416 0.274 7.4 1007 0.01
5/11/2023 10:00:00 AM 14.13 57.434 0.275 7.4 1005 0.01
5/11/2023 10:15:00 AM 14.15 57.47 0.275 7.4 1008 0.01
5/11/2023 10:30:00 AM 14.17 57.506 0.277 7.4 1013 0.01
5/11/2023 10:45:00 AM 14.2 57.56 0.279 7.4 1017 0.01
5/11/2023 11:00:00 AM 14.24 57.632 0.283 7.4 1023 0.01
5/11/2023 11:15:00 AM 14.29 57.722 0.288 7.4 1023 0.01
5/11/2023 11:30:00 AM 14.34 57.812 0.291 7.4 1031 0.01
5/11/2023 11:45:00 AM 14.39 57.902 0.294 7.41 1033 0.01
5/11/2023 12:00:00 PM 14.44 57.992 0.291 7.4 1033 0.01
5/11/2023 12:15:00 PM 14.5 58.1 0.292 7.39 1040 0.01
5/11/2023 12:30:00 PM 14.56 58.208 0.297 7.39 1046 0.01
5/11/2023 12:45:00 PM 14.63 58.334 0.296 7.39 1060 0.01
5/11/2023 1:00:00 PM 14.69 58.442 0.297 7.4 1080 0.01
5/11/2023 1:15:00 PM 14.76 58.568 0.298 7.39 1073 0.01
5/11/2023 1:30:00 PM 14.82 58.676 0.293 7.41 1077 0.01
5/11/2023 1:45:00 PM 14.88 58.784 0.297 7.41 1075 0.01
5/11/2023 2:00:00 PM 14.95 58.91 0.295 7.41 1077 0.01
5/11/2023 2:15:00 PM 15.02 59.036 0.294 7.4 1085 0.01
5/11/2023 2:30:00 PM 15.08 59.144 0.294 7.41 1120 0.01
5/11/2023 2:45:00 PM 15.15 59.27 0.295 7.41 1124 0.01
5/11/2023 3:00:00 PM 15.23 59.414 0.293 7.4 1129 0.01
5/11/2023 3:15:00 PM 15.3 59.54 0.29 7.41 1134 0.01
5/11/2023 3:30:00 PM 15.38 59.684 0.288 7.4 1139 0.01
5/11/2023 3:45:00 PM 15.45 59.81 0.274 7.41 1142 0.01
5/11/2023 4:00:00 PM 15.5 59.9 0.27 7.4 1152 0.01
5/11/2023 4:15:00 PM 15.55 59.99 0.267 7.4 1196 0.01
5/11/2023 4:30:00 PM 15.62 60.116 0.264 7.41 1232 0.01
5/11/2023 4:45:00 PM 15.69 60.242 0.261 7.41 1247 0.01
5/11/2023 5:00:00 PM 15.75 60.35 0.274 7.4 1265 0.01
5/11/2023 5:15:00 PM 15.84 60.512 0.269 7.4 1276 0.01
5/11/2023 5:30:00 PM 15.91 60.638 0.258 7.41 1314 0.01
5/11/2023 5:45:00 PM 15.96 60.728 0.261 7.4 1299 0.01
5/11/2023 6:00:00 PM 15.98 60.764 0.276 7.42 1311 0.01
5/11/2023 6:15:00 PM 16.01 60.818 0.278 7.41 1322 0.01
5/11/2023 6:30:00 PM 16.04 60.872 0.283 7.41 1334 0.01
5/11/2023 6:45:00 PM 16.08 60.944 0.29 7.4 1333 0.01
5/11/2023 7:00:00 PM 16.12 61.016 0.292 7.4 1400 0.01
5/11/2023 7:15:00 PM 16.15 61.07 0.293 7.4 1420 0.01
5/11/2023 7:30:00 PM 16.17 61.106 0.297 7.4 1422 0.01
5/11/2023 7:45:00 PM 16.2 61.16 0.306 7.41 1431 0.01
5/11/2023 8:00:00 PM 16.21 61.178 0.327 7.4 1434 0.01
5/11/2023 8:15:00 PM 16.21 61.178 0.34 7.4 1464 0.01
5/11/2023 8:30:00 PM 16.22 61.196 0.354 7.39 1498 0.01
5/11/2023 8:45:00 PM 16.23 61.214 0.354 7.4 1508 0.01
5/11/2023 9:00:00 PM 16.24 61.232 0.357 7.4 1515 0.01
5/11/2023 9:15:00 PM 16.25 61.25 0.358 7.38 1527 0.01
5/11/2023 9:30:00 PM 16.25 61.25 0.357 7.39 1520 0.01
5/11/2023 9:45:00 PM 16.23 61.214 0.346 7.4 1512 0.01
5/11/2023 10:00:00 PM 16.23 61.214 0.354 7.41 1511 0.01
5/11/2023 10:15:00 PM 16.23 61.214 0.349 7.4 1510 0.01
5/11/2023 10:30:00 PM 16.25 61.25 0.338 7.4 1512 0.01
5/11/2023 10:45:00 PM 16.25 61.25 0.328 7.41 1515 0.01
5/11/2023 11:00:00 PM 16.24 61.232 0.312 7.41 1513 0.01
5/11/2023 11:15:00 PM 16.23 61.214 0.302 7.41 1522 0.01
5/11/2023 11:30:00 PM 16.21 61.178 0.288 7.41 1541 0.01
5/11/2023 11:45:00 PM 16.19 61.142 0.289 7.41 1537 0.01
5/12/2023 12:00:00 AM 16.17 61.106 0.284 7.41 1395 0.01
5/12/2023 12:15:00 AM 16.15 61.07 0.277 7.42 1399 0.01
5/12/2023 12:30:00 AM 16.13 61.034 0.282 7.43 1065 0.01
5/12/2023 12:45:00 AM 16.11 60.998 0.274 7.42 1074 0.01
5/12/2023 1:00:00 AM 16.08 60.944 0.273 7.42 1080 0.01
5/12/2023 1:15:00 AM 16.05 60.89 0.271 7.43 1082 0.01
5/12/2023 1:30:00 AM 16.03 60.854 0.273 7.43 1142 0.01
5/12/2023 1:45:00 AM 16 60.8 0.271 7.43 1096 0.01
5/12/2023 2:00:00 AM 15.96 60.728 0.278 7.42 1134 0.01
5/12/2023 2:15:00 AM 15.93 60.674 0.276 7.43 1096 0.01
5/12/2023 2:30:00 AM 15.9 60.62 0.282 7.44 1089 0.01
5/12/2023 2:45:00 AM 15.86 60.548 0.28 7.44 1083 0.01
5/12/2023 3:00:00 AM 15.83 60.494 0.275 7.43 1027 0.01
5/12/2023 3:15:00 AM 15.8 60.44 0.272 7.44 1027 0.01
5/12/2023 3:30:00 AM 15.76 60.368 0.267 7.43 1026 0.01
5/12/2023 3:45:00 AM 15.73 60.314 0.259 7.43 1026 0.01
5/12/2023 4:00:00 AM 15.69 60.242 0.253 7.44 1037 0.01
5/12/2023 4:15:00 AM 15.65 60.17 0.26 7.42 1029 0.01
5/12/2023 4:30:00 AM 15.61 60.098 0.258 7.44 1035 0.01
5/12/2023 4:45:00 AM 15.58 60.044 0.258 7.44 1016 0.01
5/12/2023 5:00:00 AM 15.54 59.972 0.255 7.43 1012 0.01
5/12/2023 5:15:00 AM 15.5 59.9 0.256 7.44 1084 0.01
5/12/2023 5:30:00 AM 15.45 59.81 0.265 7.43 1082 0.01
5/12/2023 5:45:00 AM 15.42 59.756 0.262 7.44 1082 0.01
5/12/2023 6:00:00 AM 15.38 59.684 0.258 7.44 1118 0.01
5/12/2023 6:15:00 AM 15.34 59.612 0.26 7.44 1119 0.01
5/12/2023 6:30:00 AM 15.3 59.54 0.256 7.43 1110 0.01
5/12/2023 6:45:00 AM 15.26 59.468 0.255 7.43 1097 0.01
5/12/2023 7:00:00 AM 15.22 59.396 0.257 7.42 1094 0.01
5/12/2023 7:15:00 AM 15.18 59.324 0.268 7.43 1103 0.01
5/12/2023 7:30:00 AM 15.15 59.27 0.275 7.43 1102 0.01
5/12/2023 7:45:00 AM 15.11 59.198 0.264 7.42 1102 0.01
5/12/2023 8:00:00 AM 15.08 59.144 0.273 7.41 1095 0.01
5/12/2023 8:15:00 AM 15.05 59.09 0.28 7.4 1096 0.01
5/12/2023 8:30:00 AM 15.03 59.054 0.289 7.41 1098 0.01
5/12/2023 8:45:00 AM 15.01 59.018 0.291 7.4 1068 0.01
5/12/2023 9:00:00 AM 15 59 0.302 7.4 1071 0.01
5/12/2023 9:15:00 AM 14.99 58.982 0.309 7.39 1047 0.01
5/12/2023 9:30:00 AM 14.99 58.982 0.313 7.39 1053 0.01
5/12/2023 9:45:00 AM 14.99 58.982 0.314 7.39 1053 0.01
5/12/2023 10:00:00 AM 15.01 59.018 0.316 7.39 935.5 0.01
5/12/2023 10:15:00 AM 15.03 59.054 0.317 7.38 937.5 0.01
5/12/2023 10:30:00 AM 15.06 59.108 0.318 7.38 941.2 0.01
5/12/2023 10:45:00 AM 15.09 59.162 0.318 7.38 950.1 0.01
5/12/2023 11:00:00 AM 15.13 59.234 0.306 7.38 935 0.01
5/12/2023 11:15:00 AM 15.18 59.324 0.321 7.38 927.9 0.01
5/12/2023 11:30:00 AM 15.23 59.414 0.327 7.38 946 0.01
5/12/2023 11:45:00 AM 15.28 59.504 0.325 7.38 943.3 0.01
5/12/2023 12:00:00 PM 15.32 59.576 0.322 7.37 949.7 0.01
5/12/2023 12:15:00 PM 15.37 59.666 0.322 7.37 951.5 0.01
5/12/2023 12:30:00 PM 15.42 59.756 0.324 7.37 913.8 0.01
5/12/2023 12:45:00 PM 15.49 59.882 0.307 7.35 918.5 0.01
5/12/2023 1:00:00 PM 15.54 59.972 0.316 7.35 918.6 0.01
5/12/2023 1:15:00 PM 15.61 60.098 0.317 7.35 911.7 0.01
5/12/2023 1:30:00 PM 15.68 60.224 0.318 7.35 911.8 0.01
5/12/2023 1:45:00 PM 15.74 60.332 0.323 7.35 899.7 0.01
5/12/2023 2:00:00 PM 15.81 60.458 0.319 7.35 925.1 0.01
5/12/2023 2:15:00 PM 15.88 60.584 0.321 7.35 922 0.01
5/12/2023 2:30:00 PM 15.96 60.728 0.318 7.35 906.8 0.01
5/12/2023 2:45:00 PM 16.03 60.854 0.315 7.35 901.7 0.01
5/12/2023 3:00:00 PM 16.11 60.998 0.312 7.34 899.5 0.01
5/12/2023 3:15:00 PM 16.19 61.142 0.311 7.35 898.5 0.01
5/12/2023 3:30:00 PM 16.26 61.268 0.311 7.35 894.5 0.01
5/12/2023 3:45:00 PM 16.33 61.394 0.309 7.35 891.8 0.01
5/12/2023 4:00:00 PM 16.4 61.52 0.308 7.35 912.3 0.01
5/12/2023 4:15:00 PM 16.46 61.628 0.307 7.35 888.7 0.01
5/12/2023 4:30:00 PM 16.54 61.772 0.303 7.36 886.6 0.01
5/12/2023 4:45:00 PM 16.59 61.862 0.301 7.35 890.8 0.01
5/12/2023 5:00:00 PM 16.65 61.97 0.3 7.35 876.3 0.01
5/12/2023 5:15:00 PM 16.72 62.096 0.292 7.35 879.9 0.01
5/12/2023 5:30:00 PM 16.77 62.186 0.295 7.35 873.3 0.01
5/12/2023 5:45:00 PM 16.83 62.294 0.294 7.35 870.4 0.01
5/12/2023 6:00:00 PM 16.88 62.384 0.298 7.34 859.7 0.01
5/12/2023 6:15:00 PM 16.94 62.492 0.305 7.35 860.7 0.01
5/12/2023 6:30:00 PM 16.98 62.564 0.312 7.35 857.8 0.01
5/12/2023 6:45:00 PM 17.03 62.654 0.301 7.37 854.4 0.01
5/12/2023 7:00:00 PM 17.08 62.744 0.294 7.35 854.9 0.01
5/12/2023 7:15:00 PM 17.12 62.816 0.289 7.35 850.9 0.01
5/12/2023 7:30:00 PM 17.15 62.87 0.287 7.36 844.9 0.01
5/12/2023 7:45:00 PM 17.16 62.888 0.286 7.34 841.8 0.01
5/12/2023 8:00:00 PM 17.18 62.924 0.282 7.36 843.6 0.01
5/12/2023 8:15:00 PM 17.19 62.942 0.272 7.36 845.7 0.01
5/12/2023 8:30:00 PM 17.18 62.924 0.273 7.36 836.2 0.01
5/12/2023 8:45:00 PM 17.19 62.942 0.28 7.37 836.6 0.01
5/12/2023 9:00:00 PM 17.2 62.96 0.276 7.36 838.1 0.01
5/12/2023 9:15:00 PM 17.21 62.978 0.276 7.36 837 0.01
5/12/2023 9:30:00 PM 17.21 62.978 0.276 7.36 831.6 0.01
5/12/2023 9:45:00 PM 17.2 62.96 0.275 7.36 838.9 0.01
5/12/2023 10:00:00 PM 17.2 62.96 0.275 7.36 832.4 0.01
5/12/2023 10:15:00 PM 17.2 62.96 0.273 7.36 835.7 0.01
5/12/2023 10:30:00 PM 17.2 62.96 0.267 7.37 845.6 0.01
5/12/2023 10:45:00 PM 17.21 62.978 0.258 7.37 842.6 0.01
5/12/2023 11:00:00 PM 17.21 62.978 0.271 7.37 832.7 0.01
5/12/2023 11:15:00 PM 17.21 62.978 0.274 7.37 826.8 0.01
5/12/2023 11:30:00 PM 17.21 62.978 0.273 7.38 831.3 0.01
5/12/2023 11:45:00 PM 17.2 62.96 0.267 7.37 825.8 0.01
5/13/2023 12:00:00 AM 17.2 62.96 0.267 7.37 834.3 0.01
5/13/2023 12:15:00 AM 17.2 62.96 0.265 7.37 837.8 0.01
5/13/2023 12:30:00 AM 17.19 62.942 0.249 7.37 831.3 0.01
5/13/2023 12:45:00 AM 17.19 62.942 0.268 7.38 829.5 0.01
5/13/2023 1:00:00 AM 17.16 62.888 0.27 7.38 756.8 0.01
5/13/2023 1:15:00 AM 17.16 62.888 0.275 7.38 755.1 0.01
5/13/2023 1:30:00 AM 17.16 62.888 0.271 7.37 762.9 0.01
5/13/2023 1:45:00 AM 17.14 62.852 0.268 7.37 769.5 0.01
5/13/2023 2:00:00 AM 17.14 62.852 0.267 7.37 802.1 0.01
5/13/2023 2:15:00 AM 17.12 62.816 0.267 7.37 1340 0.01
5/13/2023 2:30:00 AM 17.09 62.762 0.268 7.36 1265 0.01
5/13/2023 2:45:00 AM 17.07 62.726 0.275 7.36 1243 0.01
5/13/2023 3:00:00 AM 17.05 62.69 0.273 7.35 1206 0.01
5/13/2023 3:15:00 AM 17.03 62.654 0.274 7.35 1196 0.01
5/13/2023 3:30:00 AM 17 62.6 0.276 7.33 1178 0.01
5/13/2023 3:45:00 AM 16.98 62.564 0.275 7.33 1113 0.01
5/13/2023 4:00:00 AM 16.96 62.528 0.278 7.33 1108 0.01
5/13/2023 4:15:00 AM 16.94 62.492 0.277 7.32 1099 0.01
5/13/2023 4:30:00 AM 16.91 62.438 0.257 7.31 1092 0.01
5/13/2023 4:45:00 AM 16.89 62.402 0.262 7.31 1095 0.01
5/13/2023 5:00:00 AM 16.87 62.366 0.252 7.32 1107 0.01
5/13/2023 5:15:00 AM 16.85 62.33 0.259 7.31 1099 0.01
5/13/2023 5:30:00 AM 16.82 62.276 0.265 7.32 1090 0.01
5/13/2023 5:45:00 AM 16.8 62.24 0.263 7.31 177.2 0.01
5/13/2023 6:00:00 AM 16.77 62.186 0.261 7.31 1231 0.01
5/13/2023 6:15:00 AM 16.74 62.132 0.269 7.3 5036 0.01
5/13/2023 6:30:00 AM 16.72 62.096 0.267 7.31 5036 0.01
5/13/2023 6:45:00 AM 16.69 62.042 0.276 7.31 5036 0.01
5/13/2023 7:00:00 AM 16.67 62.006 0.276 7.31 5036 0.01
5/13/2023 7:15:00 AM 16.64 61.952 0.285 7.3 5036 0.01
5/13/2023 7:30:00 AM 16.63 61.934 0.279 7.31 5036 0.01
5/13/2023 7:45:00 AM 16.6 61.88 0.274 7.31 5036 0.01
5/13/2023 8:00:00 AM 16.58 61.844 0.259 7.31 5036 0.01
5/13/2023 8:15:00 AM 16.56 61.808 0.26 7.32 5036 0.01
5/13/2023 8:30:00 AM 16.54 61.772 0.267 7.32 5036 0.01
5/13/2023 8:45:00 AM 16.53 61.754 0.268 7.31 5036 0.01
5/13/2023 9:00:00 AM 16.51 61.718 0.274 7.31 5036 0.01
5/13/2023 9:15:00 AM 16.49 61.682 0.278 7.31 5036 0.01
5/13/2023 9:30:00 AM 16.48 61.664 0.281 7.3 5036 0.01
5/13/2023 9:45:00 AM 16.47 61.646 0.291 7.32 5036 0.01
5/13/2023 10:00:00 AM 16.45 61.61 0.277 7.31 5036 0.01
5/13/2023 10:15:00 AM 16.45 61.61 0.268 7.29 5036 0.01
5/13/2023 10:30:00 AM 16.45 61.61 0.258 7.33 5036 0.01
5/13/2023 10:45:00 AM 16.59 61.862 0.218 7.35 5036 0.01
5/13/2023 11:00:00 AM 16.66 61.988 0.214 7.32 5036 0.01
5/13/2023 11:15:00 AM 16.66 61.988 0.208 7.4 5036 0.01
5/13/2023 11:30:00 AM 16.77 62.186 0.206 7.43 5036 0.01
5/13/2023 11:45:00 AM 16.78 62.204 0.207 7.47 5036 0.01
5/13/2023 12:00:00 PM 16.6 61.88 0.208 7.48 5036 0.01
5/13/2023 12:15:00 PM 16.74 62.132 0.207 7.51 5036 0.01
5/13/2023 12:30:00 PM 16.65 61.97 0.206 7.58 5036 0.01
5/13/2023 12:45:00 PM 16.61 61.898 0.205 7.63 5036 0.01
5/13/2023 1:00:00 PM 16.54 61.772 0.206 7.63 5036 0.01
5/13/2023 1:15:00 PM 16.59 61.862 0.204 7.64 5036 0.01
5/13/2023 1:30:00 PM 16.55 61.79 0.204 7.69 5036 0.01
5/13/2023 1:45:00 PM 16.57 61.826 0.205 7.69 5036 0.01
5/13/2023 2:00:00 PM 16.59 61.862 0.205 7.67 5036 0.01
5/13/2023 2:15:00 PM 16.65 61.97 0.207 7.71 5036 0.01
5/13/2023 2:30:00 PM 16.56 61.808 0.206 7.76 5036 0.01
5/13/2023 2:45:00 PM 16.55 61.79 0.202 7.78 5036 0.01
5/13/2023 3:00:00 PM 16.58 61.844 0.207 7.75 5036 0.01
5/13/2023 3:15:00 PM 16.61 61.898 0.205 7.79 5036 0.01
5/13/2023 3:30:00 PM 16.6 61.88 0.203 7.83 5036 0.01
5/13/2023 3:45:00 PM 16.58 61.844 0.206 7.82 5036 0.01
5/13/2023 4:00:00 PM 16.55 61.79 0.204 7.78 5036 0.01
5/13/2023 4:15:00 PM 16.53 61.754 0.203 7.75 5036 0.01
5/13/2023 4:30:00 PM 16.53 61.754 0.204 7.74 5036 0.01
5/13/2023 4:45:00 PM 16.51 61.718 0.204 7.76 5036 0.01
5/13/2023 5:00:00 PM 16.49 61.682 0.199 7.78 5036 0.01
5/13/2023 5:15:00 PM 16.49 61.682 0.204 7.8 5036 0.01
5/13/2023 5:30:00 PM 16.49 61.682 0.205 7.81 5036 0.01
5/13/2023 5:45:00 PM 16.47 61.646 0.206 7.82 5036 0.01
5/13/2023 6:00:00 PM 16.46 61.628 0.208 7.75 5036 0.01
5/13/2023 6:15:00 PM 16.45 61.61 0.208 7.76 5036 0.01
5/13/2023 6:30:00 PM 16.44 61.592 0.206 7.72 5036 0.01
5/13/2023 6:45:00 PM 16.43 61.574 0.204 7.75 5036 0.01
5/13/2023 7:00:00 PM 16.43 61.574 0.203 7.78 5036 0.01
5/13/2023 7:15:00 PM 16.46 61.628 0.208 7.77 5036 0.01
5/13/2023 7:30:00 PM 16.44 61.592 0.209 7.84 5036 0.01
5/13/2023 7:45:00 PM 16.43 61.574 0.211 7.83 5036 0.01
5/13/2023 8:00:00 PM 16.41 61.538 0.21 7.84 5036 0.01
5/13/2023 8:15:00 PM 16.4 61.52 0.208 7.86 5031 0.01
5/13/2023 8:30:00 PM 16.39 61.502 0.212 7.84 5036 0.01
5/13/2023 8:45:00 PM 16.36 61.448 0.211 7.84 5035 0.01
5/13/2023 9:00:00 PM 16.34 61.412 0.212 7.79 5036 0.01
5/13/2023 9:15:00 PM 16.32 61.376 0.216 7.79 5036 0.01
5/13/2023 9:30:00 PM 16.3 61.34 0.192 7.79 5022 0.01
5/13/2023 9:45:00 PM 16.3 61.34 0.223 7.67 4968 0.01
5/13/2023 10:00:00 PM 16.27 61.286 0.246 7.63 5004 0.01
5/13/2023 10:15:00 PM 16.24 61.232 0.22 7.69 4961 0.01
5/13/2023 10:30:00 PM 16.22 61.196 0.218 7.71 4995 0.01
5/13/2023 10:45:00 PM 16.19 61.142 0.226 7.68 4956 0.01
5/13/2023 11:00:00 PM 16.17 61.106 0.221 7.62 4958 0.01
5/13/2023 11:15:00 PM 16.15 61.07 0.21 7.63 4921 0.01
5/13/2023 11:30:00 PM 16.13 61.034 0.197 7.68 4878 0.01
5/13/2023 11:45:00 PM 16.1 60.98 0.21 7.66 4871 0.01
5/14/2023 12:00:00 AM 16.07 60.926 0.214 7.65 4814 0.01
5/14/2023 12:15:00 AM 16.05 60.89 0.215 7.61 4777 0.01
5/14/2023 12:30:00 AM 16.02 60.836 0.213 7.6 4768 0.01
5/14/2023 12:45:00 AM 16 60.8 0.209 7.59 4758 0.01
5/14/2023 1:00:00 AM 15.96 60.728 0.208 7.64 4731 0.01
5/14/2023 1:15:00 AM 15.93 60.674 0.211 7.63 4712 0.01
5/14/2023 1:30:00 AM 15.9 60.62 0.214 7.63 4712 0.01
5/14/2023 1:45:00 AM 15.87 60.566 0.215 7.64 4664 0.01
5/14/2023 2:00:00 AM 15.83 60.494 0.215 7.65 4643 0.01
5/14/2023 2:15:00 AM 15.8 60.44 0.218 7.64 4654 0.01
5/14/2023 2:30:00 AM 15.77 60.386 0.215 7.64 4633 0.01
5/14/2023 2:45:00 AM 15.73 60.314 0.214 7.65 4654 0.01
5/14/2023 3:00:00 AM 15.7 60.26 0.209 7.65 4681 0.01
5/14/2023 3:15:00 AM 15.66 60.188 0.214 7.64 4639 0.01
5/14/2023 3:30:00 AM 15.63 60.134 0.214 7.63 4642 0.01
5/14/2023 3:45:00 AM 15.59 60.062 0.217 7.64 4637 0.01
5/14/2023 4:00:00 AM 15.56 60.008 0.204 7.63 4593 0.01
5/14/2023 4:15:00 AM 15.52 59.936 0.213 7.64 4613 0.01
5/14/2023 4:30:00 AM 15.48 59.864 0.212 7.62 4635 0.01
5/14/2023 4:45:00 AM 15.45 59.81 0.217 7.61 4669 0.01
5/14/2023 5:00:00 AM 15.41 59.738 0.217 7.62 4648 0.01
5/14/2023 5:15:00 AM 15.37 59.666 0.212 7.62 4652 0.01
5/14/2023 5:30:00 AM 15.34 59.612 0.218 7.62 4606 0.01
5/14/2023 5:45:00 AM 15.3 59.54 0.214 7.59 4608 0.01
5/14/2023 6:00:00 AM 15.27 59.486 0.215 7.58 4578 0.01
5/14/2023 6:15:00 AM 15.23 59.414 0.216 7.6 4537 0.01
5/14/2023 6:30:00 AM 15.19 59.342 0.215 7.61 4540 0.01
5/14/2023 6:45:00 AM 15.15 59.27 0.218 7.62 4540 0.01
5/14/2023 7:00:00 AM 15.11 59.198 0.209 7.62 4480 0.01
5/14/2023 7:15:00 AM 15.07 59.126 0.22 7.56 4491 0.01
5/14/2023 7:30:00 AM 15.04 59.072 0.219 7.58 4506 0.01
5/14/2023 7:45:00 AM 15.01 59.018 0.214 7.6 4481 0.01
5/14/2023 8:00:00 AM 14.98 58.964 0.225 7.51 4491 0.01
5/14/2023 8:15:00 AM 14.96 58.928 0.232 7.38 4423 0.01
5/14/2023 8:30:00 AM 14.94 58.892 0.238 7.35 4443 0.01
5/14/2023 8:45:00 AM 14.92 58.856 0.246 7.31 4429 0.01
5/14/2023 9:00:00 AM 14.91 58.838 0.244 7.31 4419 0.01
5/14/2023 9:15:00 AM 14.91 58.838 0.224 7.45 4357 0.01
5/14/2023 9:30:00 AM 14.92 58.856 0.215 7.54 4320 0.01
5/14/2023 9:45:00 AM 14.93 58.874 0.207 7.62 4307 0.01
5/14/2023 10:00:00 AM 14.95 58.91 0.208 7.68 4303 0.01
5/14/2023 10:15:00 AM 15.17 59.306 0.206 7.66 4288 0.01
5/14/2023 10:30:00 AM 15.14 59.252 0.206 7.73 4314 0.01
5/14/2023 10:45:00 AM 15.19 59.342 0.207 7.77 4289 0.01
5/14/2023 11:00:00 AM 15.21 59.378 0.208 7.79 4317 0.01
5/14/2023 11:15:00 AM 15.25 59.45 0.207 7.84 4275 0.01
5/14/2023 11:30:00 AM 15.3 59.54 0.209 7.89 4224 0.01
5/14/2023 11:45:00 AM 15.47 59.846 0.209 7.83 4195 0.01
5/14/2023 12:00:00 PM 15.48 59.864 0.208 7.9 4210 0.01
5/14/2023 12:15:00 PM 15.47 59.846 0.208 7.95 4165 0.01
5/14/2023 12:30:00 PM 15.51 59.918 0.209 8 4140 0.01
5/14/2023 12:45:00 PM 15.54 59.972 0.21 8.05 4153 0.01
5/14/2023 1:00:00 PM 15.58 60.044 0.209 8.1 4133 0.01
5/14/2023 1:15:00 PM 15.66 60.188 0.208 8.13 4144 0.01
5/14/2023 1:30:00 PM 15.74 60.332 0.209 8.15 4091 0.01
5/14/2023 1:45:00 PM 15.79 60.422 0.214 8.19 4108 0.01
5/14/2023 2:00:00 PM 15.84 60.512 0.215 8.24 4107 0.01
5/14/2023 2:15:00 PM 15.89 60.602 0.212 8.28 4108 0.01
5/14/2023 2:30:00 PM 15.94 60.692 0.217 8.32 4103 0.01
5/14/2023 2:45:00 PM 16 60.8 0.218 8.34 4069 0.01
5/14/2023 3:00:00 PM 16.05 60.89 0.214 8.38 4040 0.01
5/14/2023 3:15:00 PM 16.12 61.016 0.221 8.39 4035 0.01
5/14/2023 3:30:00 PM 16.18 61.124 0.212 8.4 4021 0.01
5/14/2023 3:45:00 PM 16.3 61.34 0.206 8.39 4033 0.01
5/14/2023 4:00:00 PM 16.41 61.538 0.207 8.43 3988 0.01
5/14/2023 4:15:00 PM 16.46 61.628 0.206 8.44 3956 0.01
5/14/2023 4:30:00 PM 16.51 61.718 0.22 8.47 3936 0.01
5/14/2023 4:45:00 PM 16.6 61.88 0.211 8.44 3949 0.01
5/14/2023 5:00:00 PM 16.65 61.97 0.21 8.44 3932 0.01
5/14/2023 5:15:00 PM 16.71 62.078 0.211 8.45 3959 0.01
5/14/2023 5:30:00 PM 16.76 62.168 0.207 8.36 3915 0.01
5/14/2023 5:45:00 PM 16.79 62.222 0.222 8.27 3888 0.01
5/14/2023 6:00:00 PM 16.85 62.33 0.213 8.06 3885 0.01
5/14/2023 6:15:00 PM 16.81 62.258 0.249 7.89 3872 0.01
5/14/2023 6:30:00 PM 16.84 62.312 0.239 7.71 3875 0.01
5/14/2023 6:45:00 PM 16.86 62.348 0.24 7.64 3858 0.01
5/14/2023 7:00:00 PM 16.87 62.366 0.245 7.55 3859 0.01
5/14/2023 7:15:00 PM 16.9 62.42 0.24 7.56 3847 0.01
5/14/2023 7:30:00 PM 16.91 62.438 0.246 7.52 3850 0.01
5/14/2023 7:45:00 PM 16.91 62.438 0.254 7.48 3837 0.01
5/14/2023 8:00:00 PM 16.92 62.456 0.265 7.39 3828 0.01
5/14/2023 8:15:00 PM 16.91 62.438 0.267 7.36 3799 0.01
5/14/2023 8:30:00 PM 16.91 62.438 0.268 7.32 3774 0.01
5/14/2023 8:45:00 PM 16.9 62.42 0.273 7.29 3760 0.01
5/14/2023 9:00:00 PM 16.89 62.402 0.265 7.28 3748 0.01
5/14/2023 9:15:00 PM 16.87 62.366 0.279 7.27 3739 0.01
5/14/2023 9:30:00 PM 16.86 62.348 0.274 7.28 4599 0.01
5/14/2023 9:45:00 PM 16.85 62.33 0.263 7.26 4081 0.01
5/14/2023 10:00:00 PM 16.83 62.294 0.255 7.27 4200 0.01
5/14/2023 10:15:00 PM 16.82 62.276 0.256 7.26 4429 0.09
5/14/2023 10:30:00 PM 16.81 62.258 0.251 7.29 4670 0.19
5/14/2023 10:45:00 PM 16.79 62.222 0.264 7.31 4861 0.03
5/14/2023 11:00:00 PM 16.77 62.186 0.258 7.27 5036 0.02
5/14/2023 11:15:00 PM 16.75 62.15 0.265 7.29 5036 0.01
5/14/2023 11:30:00 PM 16.72 62.096 0.28 7.27 5036 0.03
5/14/2023 11:45:00 PM 16.68 62.024 0.283 7.28 5036 0.11
5/15/2023 12:00:00 AM 16.65 61.97 0.279 7.27 5036 0.02
5/15/2023 12:15:00 AM 16.62 61.916 0.279 7.28 5036 0.03
5/15/2023 12:30:00 AM 16.58 61.844 0.281 7.28 5036 0.17
5/15/2023 12:45:00 AM 16.55 61.79 0.283 7.28 5036 0.01
5/15/2023 1:00:00 AM 16.52 61.736 0.292 7.28 5036 0.01
5/15/2023 1:15:00 AM 16.49 61.682 0.295 7.28 5036 0.01
5/15/2023 1:30:00 AM 16.45 61.61 0.294 7.27 5036 0.01
5/15/2023 1:45:00 AM 16.42 61.556 0.292 7.28 5036 0.01
5/15/2023 2:00:00 AM 16.38 61.484 0.286 7.29 5036 0.01
5/15/2023 2:15:00 AM 16.34 61.412 0.296 7.29 5036 0.01
5/15/2023 2:30:00 AM 16.3 61.34 0.302 7.29 5036 0.01
5/15/2023 2:45:00 AM 16.26 61.268 0.299 7.29 5036 0.01
5/15/2023 3:00:00 AM 16.22 61.196 0.299 7.3 5036 0.01
5/15/2023 3:15:00 AM 16.18 61.124 0.306 7.29 5036 0.01
5/15/2023 3:30:00 AM 16.13 61.034 0.311 7.29 5036 0.01
5/15/2023 3:45:00 AM 16.08 60.944 0.314 7.3 5036 0.01
5/15/2023 4:00:00 AM 16.04 60.872 0.325 7.29 5036 0.01
5/15/2023 4:15:00 AM 15.99 60.782 0.318 7.29 5036 0.01
5/15/2023 4:30:00 AM 15.94 60.692 0.305 7.3 1964 0.01
5/15/2023 4:45:00 AM 15.89 60.602 0.308 7.31 1986 0.01
5/15/2023 5:00:00 AM 15.84 60.512 0.303 7.31 2045 0.01
5/15/2023 5:15:00 AM 15.79 60.422 0.304 7.33 2073 0.01
5/15/2023 5:30:00 AM 15.74 60.332 0.314 7.32 2056 0.01
5/15/2023 5:45:00 AM 15.69 60.242 0.313 7.33 2339 0.01
5/15/2023 6:00:00 AM 15.64 60.152 0.306 7.34 2179 0.01
5/15/2023 6:15:00 AM 15.59 60.062 0.309 7.34 2219 0.01
5/15/2023 6:30:00 AM 15.54 59.972 0.309 7.35 2216 0.01
5/15/2023 6:45:00 AM 15.49 59.882 0.303 7.35 2259 0.01
5/15/2023 7:00:00 AM 15.44 59.792 0.3 7.34 2284 0.01
5/15/2023 7:15:00 AM 15.39 59.702 0.302 7.35 2313 0.01
5/15/2023 7:30:00 AM 15.34 59.612 0.298 7.35 2350 0.01
5/15/2023 7:45:00 AM 15.29 59.522 0.301 7.35 2417 0.01
5/15/2023 8:00:00 AM 15.25 59.45 0.3 7.35 2525 0.01
5/15/2023 8:15:00 AM 15.21 59.378 0.299 7.36 2589 0.01
5/15/2023 8:30:00 AM 15.18 59.324 0.301 7.3 2669 0.01
5/15/2023 8:45:00 AM 15.15 59.27 0.303 7.26 2638 0.01
5/15/2023 9:00:00 AM 15.13 59.234 0.304 7.25 2606 0.01
5/15/2023 9:15:00 AM 15.11 59.198 0.299 7.22 2604 0.01
5/15/2023 9:30:00 AM 15.11 59.198 0.299 7.25 2644 0.01
5/15/2023 9:45:00 AM 15.13 59.234 0.301 7.23 2673 0.01
5/15/2023 10:00:00 AM 15.15 59.27 0.292 7.23 2769 0.01
5/15/2023 10:15:00 AM 15.17 59.306 0.295 7.29 2728 0.01
5/15/2023 10:30:00 AM 15.2 59.36 0.287 7.25 2744 0.01
5/15/2023 10:45:00 AM 15.23 59.414 0.289 7.19 2850 0.01
5/15/2023 11:00:00 AM 15.26 59.468 0.289 7.21 2877 0.01
5/15/2023 11:15:00 AM 15.33 59.594 0.294 7.2 2945 0.01
5/15/2023 11:30:00 AM 15.37 59.666 0.297 7.22 2946 0.01
5/15/2023 11:45:00 AM 15.41 59.738 0.297 7.22 3143 0.01
5/15/2023 12:00:00 PM 15.44 59.792 0.294 7.22 3155 0.01
5/15/2023 12:15:00 PM 15.48 59.864 0.295 7.24 3184 0.01
5/15/2023 12:30:00 PM 15.52 59.936 0.276 7.25 3270 0.01
5/15/2023 12:45:00 PM 15.56 60.008 0.308 7.24 3266 0.01
5/15/2023 1:00:00 PM 15.61 60.098 0.309 7.24 3287 0.01
5/15/2023 1:15:00 PM 15.67 60.206 0.296 7.25 3369 0.01
5/15/2023 1:30:00 PM 15.74 60.332 0.297 7.47 3380 0.01
5/15/2023 1:45:00 PM 16.12 61.016 0.298 7.73 4079 0.01
5/15/2023 2:00:00 PM 16.28 61.304 0.26 7.9 4192 0.01
5/15/2023 2:15:00 PM 16.65 61.97 0.26 8.11 4248 0.01
5/15/2023 2:30:00 PM 16.45 61.61 0.249 8.19 4386 0.01
5/15/2023 2:45:00 PM 16.29 61.322 0.244 8.26 4523 0.01
5/15/2023 3:00:00 PM 16.36 61.448 0.243 8.25 4634 0.01
5/15/2023 3:15:00 PM 16.42 61.556 0.248 8.26 4725 0.01
5/15/2023 3:30:00 PM 16.56 61.808 0.257 8.33 4876 0.01
5/15/2023 3:45:00 PM 16.51 61.718 0.228 8.37 4931 0.01
5/15/2023 4:00:00 PM 16.57 61.826 0.254 8.4 4955 0.01
5/15/2023 4:15:00 PM 16.63 61.934 0.268 8.48 5032 0.01
5/15/2023 4:30:00 PM 16.64 61.952 0.271 8.51 5036 0.01
5/15/2023 4:45:00 PM 16.74 62.132 0.27 8.51 5036 0.01
5/15/2023 5:00:00 PM 16.74 62.132 0.282 8.54 5036 0.01
5/15/2023 5:15:00 PM 16.73 62.114 0.284 8.5 5036 0.01
5/15/2023 5:30:00 PM 16.77 62.186 0.284 8.51 5036 0.01
5/15/2023 5:45:00 PM 16.79 62.222 0.294 8.14 5036 0.01
5/15/2023 6:00:00 PM 16.81 62.258 0.294 7.76 5036 0.01
5/15/2023 6:15:00 PM 16.86 62.348 0.291 7.62 5036 0.01
5/15/2023 6:30:00 PM 16.9 62.42 0.292 7.4 5036 0.01
5/15/2023 6:45:00 PM 16.89 62.402 0.292 7.29 5036 0.01
5/15/2023 7:00:00 PM 16.94 62.492 0.295 7.31 5036 0.01
5/15/2023 7:15:00 PM 16.93 62.474 0.287 7.28 5036 0.01
5/15/2023 7:30:00 PM 16.95 62.51 0.298 7.26 5036 0.01
5/15/2023 7:45:00 PM 17.01 62.618 0.291 7.25 5036 0.01
5/15/2023 8:00:00 PM 17.03 62.654 0.282 7.24 5036 0.01
5/15/2023 8:15:00 PM 17.02 62.636 0.292 7.26 5036 0.01
5/15/2023 8:30:00 PM 17.03 62.654 0.287 7.26 5036 0.01
5/15/2023 8:45:00 PM 17.03 62.654 0.283 7.27 5036 0.01
5/15/2023 9:00:00 PM 17.01 62.618 0.282 7.27 5036 0.01
5/15/2023 9:15:00 PM 16.99 62.582 0.28 7.29 5036 0.01
5/15/2023 9:30:00 PM 16.96 62.528 0.286 7.3 5036 0.01
5/15/2023 9:45:00 PM 16.91 62.438 0.284 7.29 5036 0.01
5/15/2023 10:00:00 PM 16.88 62.384 0.285 7.29 5036 0.01
5/15/2023 10:15:00 PM 16.86 62.348 0.281 7.31 5036 0.01
5/15/2023 10:30:00 PM 16.83 62.294 0.28 7.31 5036 0.01
5/15/2023 10:45:00 PM 16.81 62.258 0.279 7.32 5036 0.01
5/15/2023 11:00:00 PM 16.78 62.204 0.279 7.31 5036 0.01
5/15/2023 11:15:00 PM 16.76 62.168 0.279 7.32 5036 0.01
5/15/2023 11:30:00 PM 16.73 62.114 0.276 7.33 5036 0.01
5/15/2023 11:45:00 PM 16.71 62.078 0.278 7.34 5036 0.01
5/16/2023 12:00:00 AM 16.69 62.042 0.286 7.34 5036 0.01
5/16/2023 12:15:00 AM 16.67 62.006 0.292 7.31 5036 0.01
5/16/2023 12:30:00 AM 16.65 61.97 0.282 7.35 5036 0.01
5/16/2023 12:45:00 AM 16.63 61.934 0.276 7.32 5036 0.01
5/16/2023 1:00:00 AM 16.6 61.88 0.282 7.27 5036 0.01
5/16/2023 1:15:00 AM 16.57 61.826 0.288 7.36 5036 0.01
5/16/2023 1:30:00 AM 16.54 61.772 0.287 7.27 5036 0.01
5/16/2023 1:45:00 AM 16.51 61.718 0.289 7.29 5036 0.01
5/16/2023 2:00:00 AM 16.47 61.646 0.295 7.3 5036 0.01
5/16/2023 2:15:00 AM 16.43 61.574 0.295 7.26 5036 0.01
5/16/2023 2:30:00 AM 16.4 61.52 0.305 7.23 5036 0.01
5/16/2023 2:45:00 AM 16.36 61.448 0.306 7.18 5036 0.01
5/16/2023 3:00:00 AM 16.32 61.376 0.303 7.17 5036 0.01
5/16/2023 3:15:00 AM 16.29 61.322 0.306 7.19 5036 0.01
5/16/2023 3:30:00 AM 16.24 61.232 0.306 7.18 5036 0.01
5/16/2023 3:45:00 AM 16.2 61.16 0.305 7.18 5036 0.01
5/16/2023 4:00:00 AM 16.16 61.088 0.307 7.18 5036 0.01
5/16/2023 4:15:00 AM 16.11 60.998 0.312 7.2 5036 0.01
5/16/2023 4:30:00 AM 16.06 60.908 0.309 7.2 5036 0.01
5/16/2023 4:45:00 AM 16.02 60.836 0.305 7.21 5036 0.01
5/16/2023 5:00:00 AM 15.97 60.746 0.308 7.23 5036 0.01
5/16/2023 5:15:00 AM 15.92 60.656 0.299 7.2 5036 0.01
5/16/2023 5:30:00 AM 15.87 60.566 0.291 7.2 5036 0.01
5/16/2023 5:45:00 AM 15.82 60.476 0.302 7.23 5036 0.01
5/16/2023 6:00:00 AM 15.77 60.386 0.305 7.21 5036 0.01
5/16/2023 6:15:00 AM 15.72 60.296 0.311 7.21 5036 0.01
5/16/2023 6:30:00 AM 15.67 60.206 0.316 7.2 5036 0.01
5/16/2023 6:45:00 AM 15.61 60.098 0.306 7.26 5036 0.01
5/16/2023 7:00:00 AM 15.56 60.008 0.283 7.35 5036 0.01
5/16/2023 7:15:00 AM 15.51 59.918 0.297 7.33 5036 0.01
5/16/2023 7:30:00 AM 15.47 59.846 0.304 7.29 5036 0.01
5/16/2023 7:45:00 AM 15.43 59.774 0.31 7.24 5036 0.01
5/16/2023 8:00:00 AM 15.39 59.702 0.314 7.22 5036 0.01
5/16/2023 8:15:00 AM 15.37 59.666 0.311 7.31 5036 0.01
5/16/2023 8:30:00 AM 15.34 59.612 0.301 7.27 5036 0.01
5/16/2023 8:45:00 AM 15.31 59.558 0.306 7.26 5036 0.01
5/16/2023 9:00:00 AM 15.3 59.54 0.3 7.26 5036 0.01
5/16/2023 9:15:00 AM 15.3 59.54 0.302 7.35 5036 0.01
5/16/2023 9:30:00 AM 15.3 59.54 0.301 7.39 5036 0.01
5/16/2023 9:45:00 AM 15.33 59.594 0.3 7.32 5036 0.01
5/16/2023 10:00:00 AM 15.36 59.648 0.296 7.36 5036 0.01
5/16/2023 10:15:00 AM 15.39 59.702 0.296 7.28 5036 0.01
5/16/2023 10:30:00 AM 15.42 59.756 0.292 7.28 5036 0.01
5/16/2023 10:45:00 AM 15.45 59.81 0.286 7.17 5036 0.01
5/16/2023 11:00:00 AM 15.49 59.882 0.299 7.15 5036 0.01
5/16/2023 11:15:00 AM 15.53 59.954 0.304 7.13 5036 0.01
5/16/2023 11:30:00 AM 15.58 60.044 0.3 7.15 5036 0.01
5/16/2023 11:45:00 AM 15.63 60.134 0.307 7.12 5036 0.01
5/16/2023 12:00:00 PM 15.68 60.224 0.296 7.14 5036 0.01
5/16/2023 12:15:00 PM 15.72 60.296 0.31 7.16 5036 0.01
5/16/2023 12:30:00 PM 15.78 60.404 0.318 7.13 5036 0.01
5/16/2023 12:45:00 PM 15.83 60.494 0.317 7.2 5036 0.01
5/16/2023 1:00:00 PM 15.88 60.584 0.31 7.2 5036 0.01
5/16/2023 1:15:00 PM 15.93 60.674 0.312 7.18 5036 0.01
5/16/2023 1:30:00 PM 16 60.8 0.318 7.17 5036 0.01
5/16/2023 1:45:00 PM 16.05 60.89 0.309 7.17 5036 0.01
5/16/2023 2:00:00 PM 16.1 60.98 0.301 7.16 5036 0.01
5/16/2023 2:15:00 PM 16.16 61.088 0.314 7.18 5036 0.01
5/16/2023 2:30:00 PM 16.22 61.196 0.311 7.21 5036 0.01
5/16/2023 2:45:00 PM 16.27 61.286 0.319 7.21 5036 0.01
5/16/2023 3:00:00 PM 16.33 61.394 0.332 7.22 5036 0.01
5/16/2023 3:15:00 PM 16.38 61.484 0.33 7.28 5036 0.01
5/16/2023 3:30:00 PM 16.42 61.556 0.323 7.31 5036 0.01
5/16/2023 3:45:00 PM 16.47 61.646 0.322 7.27 5036 0.01
5/16/2023 4:00:00 PM 16.51 61.718 0.314 7.31 5036 0.01
5/16/2023 4:15:00 PM 16.54 61.772 0.311 7.26 5036 0.01
5/16/2023 4:30:00 PM 16.58 61.844 0.318 7.2 5036 0.01
5/16/2023 4:45:00 PM 16.62 61.916 0.332 7.19 5036 0.01
5/16/2023 5:00:00 PM 16.65 61.97 0.32 7.18 5036 0.01
5/16/2023 5:15:00 PM 16.68 62.024 0.34 7.17 5036 0.01
5/16/2023 5:30:00 PM 16.71 62.078 0.326 7.18 5036 0.01
5/16/2023 5:45:00 PM 16.74 62.132 0.327 7.19 5036 0.01
5/16/2023 6:00:00 PM 16.76 62.168 0.319 7.19 5036 0.01
5/16/2023 6:15:00 PM 16.78 62.204 0.311 7.21 5036 0.01
5/16/2023 6:30:00 PM 16.8 62.24 0.31 7.25 5036 0.01
5/16/2023 6:45:00 PM 16.82 62.276 0.3 7.27 5036 0.01
5/16/2023 7:00:00 PM 16.84 62.312 0.312 7.26 5036 0.01
5/16/2023 7:15:00 PM 16.84 62.312 0.327 7.24 5036 0.01
5/16/2023 7:30:00 PM 16.84 62.312 0.337 7.24 5036 0.01
5/16/2023 7:45:00 PM 16.86 62.348 0.353 7.24 5036 0.01
5/16/2023 8:00:00 PM 16.87 62.366 0.345 7.24 5036 0.01
5/16/2023 8:15:00 PM 16.88 62.384 0.339 7.23 5036 0.01
5/16/2023 8:30:00 PM 16.88 62.384 0.341 7.24 5036 0.01
5/16/2023 8:45:00 PM 16.88 62.384 0.343 7.23 5036 0.01
5/16/2023 9:00:00 PM 16.88 62.384 0.342 7.26 5036 0.01
5/16/2023 9:15:00 PM 16.88 62.384 0.34 7.29 5036 0.01
5/16/2023 9:30:00 PM 16.87 62.366 0.336 7.3 5036 0.01
5/16/2023 9:45:00 PM 16.87 62.366 0.327 7.31 5036 0.01
5/16/2023 10:00:00 PM 16.87 62.366 0.345 7.32 5036 0.01
5/16/2023 10:15:00 PM 16.87 62.366 0.35 7.31 5036 0.01
5/16/2023 10:30:00 PM 16.86 62.348 0.349 7.32 5036 0.01
5/16/2023 10:45:00 PM 16.85 62.33 0.347 7.32 5036 0.01
5/16/2023 11:00:00 PM 16.84 62.312 0.352 7.32 5036 0.01
5/16/2023 11:15:00 PM 16.83 62.294 0.343 7.32 5036 0.01
5/16/2023 11:30:00 PM 16.81 62.258 0.348 7.32 5036 0.01
5/16/2023 11:45:00 PM 16.79 62.222 0.334 7.32 5036 0.01
5/17/2023 12:00:00 AM 16.77 62.186 0.334 7.33 5036 0.01
5/17/2023 12:15:00 AM 16.75 62.15 0.333 7.33 5036 0.01
5/17/2023 12:30:00 AM 16.73 62.114 0.335 7.33 5036 0.01
5/17/2023 12:45:00 AM 16.71 62.078 0.338 7.33 5036 0.01
5/17/2023 1:00:00 AM 16.69 62.042 0.324 7.33 5036 0.01
5/17/2023 1:15:00 AM 16.67 62.006 0.318 7.34 5036 0.01
5/17/2023 1:30:00 AM 16.63 61.934 0.324 7.34 5036 0.01
5/17/2023 1:45:00 AM 16.61 61.898 0.321 7.35 5036 0.01
5/17/2023 2:00:00 AM 16.59 61.862 0.33 7.35 5036 0.01
5/17/2023 2:15:00 AM 16.56 61.808 0.333 7.35 5036 0.01
5/17/2023 2:30:00 AM 16.53 61.754 0.344 7.36 5036 0.01
5/17/2023 2:45:00 AM 16.51 61.718 0.341 7.36 5036 0.01
5/17/2023 3:00:00 AM 16.48 61.664 0.34 7.37 5036 0.01
5/17/2023 3:15:00 AM 16.46 61.628 0.328 7.37 5036 0.01
5/17/2023 3:30:00 AM 16.43 61.574 0.321 7.37 5036 0.01
5/17/2023 3:45:00 AM 16.4 61.52 0.321 7.37 5036 0.01
5/17/2023 4:00:00 AM 16.36 61.448 0.324 7.37 5036 0.01
5/17/2023 4:15:00 AM 16.33 61.394 0.327 7.36 5036 0.01
5/17/2023 4:30:00 AM 16.3 61.34 0.318 7.36 5036 0.01
5/17/2023 4:45:00 AM 16.26 61.268 0.302 7.36 5036 0.01
5/17/2023 5:00:00 AM 16.23 61.214 0.305 7.37 5036 0.01
5/17/2023 5:15:00 AM 16.19 61.142 0.314 7.37 5036 0.01
5/17/2023 5:30:00 AM 16.16 61.088 0.308 7.37 5036 0.01
5/17/2023 5:45:00 AM 16.12 61.016 0.312 7.37 5036 0.01
5/17/2023 6:00:00 AM 16.08 60.944 0.317 7.37 5036 0.01
5/17/2023 6:15:00 AM 16.04 60.872 0.302 7.38 5036 0.01
5/17/2023 6:30:00 AM 16 60.8 0.306 7.38 5036 0.01
5/17/2023 6:45:00 AM 15.97 60.746 0.302 7.38 5036 0.01
5/17/2023 7:00:00 AM 15.94 60.692 0.314 7.38 5036 0.01
5/17/2023 7:15:00 AM 15.9 60.62 0.302 7.38 5036 0.01
5/17/2023 7:30:00 AM 15.86 60.548 0.275 7.38 5036 0.01
5/17/2023 7:45:00 AM 15.82 60.476 0.283 7.38 5036 0.01
5/17/2023 8:00:00 AM 15.79 60.422 0.292 7.38 5036 0.01
5/17/2023 8:15:00 AM 15.76 60.368 0.313 7.38 5036 0.01
5/17/2023 8:30:00 AM 15.72 60.296 0.295 7.39 5036 0.01
5/17/2023 8:45:00 AM 15.7 60.26 0.304 7.39 5036 0.01
5/17/2023 9:00:00 AM 15.69 60.242 0.304 7.38 5036 0.01
5/17/2023 9:15:00 AM 15.67 60.206 0.303 7.37 5036 0.01
5/17/2023 9:30:00 AM 15.68 60.224 0.299 7.36 5036 0.01
5/17/2023 9:45:00 AM 15.7 60.26 0.309 7.36 5036 0.01
5/17/2023 10:00:00 AM 15.67 60.206 0.322 7.35 5036 0.01
5/17/2023 10:15:00 AM 15.68 60.224 0.334 7.33 5036 0.01
5/17/2023 10:30:00 AM 15.7 60.26 0.327 7.35 5036 0.01
5/17/2023 10:45:00 AM 15.74 60.332 0.327 7.35 5036 0.01
5/17/2023 11:00:00 AM 15.78 60.404 0.332 7.36 5036 0.01
5/17/2023 11:15:00 AM 15.81 60.458 0.33 7.33 5036 0.01
5/17/2023 11:30:00 AM 15.85 60.53 0.337 7.32 5036 0.01
5/17/2023 11:45:00 AM 15.9 60.62 0.341 7.31 5036 0.01
5/17/2023 12:00:00 PM 15.97 60.746 0.329 7.32 5036 0.01
5/17/2023 12:15:00 PM 16.01 60.818 0.319 7.32 5036 0.01
5/17/2023 12:30:00 PM 16.06 60.908 0.318 7.3 5035 0.01
5/17/2023 12:45:00 PM 16.1 60.98 0.318 7.31 5023 0.01
5/17/2023 1:00:00 PM 16.14 61.052 0.307 7.32 4950 0.01
5/17/2023 1:15:00 PM 16.2 61.16 0.323 7.33 4760 0.01
5/17/2023 1:30:00 PM 16.25 61.25 0.333 7.33 4584 0.01
5/17/2023 1:45:00 PM 16.32 61.376 0.32 7.35 4319 0.01
5/17/2023 2:00:00 PM 16.38 61.484 0.329 7.35 4288 0.01
5/17/2023 2:15:00 PM 16.44 61.592 0.332 7.32 4212 0.01
5/17/2023 2:30:00 PM 16.49 61.682 0.311 7.3 4035 0.01
5/17/2023 2:45:00 PM 16.54 61.772 0.321 7.27 3968 0.01
5/17/2023 3:00:00 PM 16.59 61.862 0.316 7.28 3869 0.01
5/17/2023 3:15:00 PM 16.63 61.934 0.316 7.28 3808 0.01
5/17/2023 3:30:00 PM 16.68 62.024 0.315 7.28 3760 0.01
5/17/2023 3:45:00 PM 16.73 62.114 0.313 7.27 3703 0.01
5/17/2023 4:00:00 PM 16.77 62.186 0.306 7.37 3656 0.01
5/17/2023 4:15:00 PM 16.82 62.276 0.307 7.46 3611 0.01
5/17/2023 4:30:00 PM 16.87 62.366 0.317 7.36 3524 0.01
5/17/2023 4:45:00 PM 16.91 62.438 0.32 7.29 3524 0.01
5/17/2023 5:00:00 PM 16.97 62.546 0.321 7.28 3394 0.01
5/17/2023 5:15:00 PM 17 62.6 0.326 7.26 3254 0.01
5/17/2023 5:30:00 PM 17.04 62.672 0.321 7.26 3099 0.01
5/17/2023 5:45:00 PM 17.06 62.708 0.318 7.28 3017 0.01
5/17/2023 6:00:00 PM 17.1 62.78 0.324 7.29 2936 0.01
5/17/2023 6:15:00 PM 17.12 62.816 0.324 7.29 2871 0.01
5/17/2023 6:30:00 PM 17.15 62.87 0.33 7.29 2818 0.01
5/17/2023 6:45:00 PM 17.16 62.888 0.322 7.28 2767 0.01
5/17/2023 7:00:00 PM 17.17 62.906 0.322 7.28 2710 0.01
5/17/2023 7:15:00 PM 17.18 62.924 0.328 7.28 2646 0.01
5/17/2023 7:30:00 PM 17.18 62.924 0.329 7.29 2614 0.01
5/17/2023 7:45:00 PM 17.18 62.924 0.326 7.3 2561 0.01
5/17/2023 8:00:00 PM 17.17 62.906 0.33 7.3 2542 0.01
5/17/2023 8:15:00 PM 17.16 62.888 0.324 7.3 2499 0.01
5/17/2023 8:30:00 PM 17.15 62.87 0.316 7.31 2475 0.01
5/17/2023 8:45:00 PM 17.13 62.834 0.323 7.32 2449 0.01
5/17/2023 9:00:00 PM 17.1 62.78 0.315 7.32 2429 0.01
5/17/2023 9:15:00 PM 17.07 62.726 0.329 7.33 2401 0.01
5/17/2023 9:30:00 PM 17.03 62.654 0.322 7.33 2389 0.01
5/17/2023 9:45:00 PM 17 62.6 0.324 7.34 2336 0.01
5/17/2023 10:00:00 PM 16.96 62.528 0.314 7.33 2342 0.01
5/17/2023 10:15:00 PM 16.92 62.456 0.312 7.35 2313 0.01
5/17/2023 10:30:00 PM 16.88 62.384 0.319 7.35 2309 0.01
5/17/2023 10:45:00 PM 16.83 62.294 0.34 7.35 2309 0.01
5/17/2023 11:00:00 PM 16.8 62.24 0.328 7.35 2268 0.01
5/17/2023 11:15:00 PM 16.75 62.15 0.342 7.35 2231 0.01
5/17/2023 11:30:00 PM 16.71 62.078 0.353 7.36 2208 0.01
5/17/2023 11:45:00 PM 16.67 62.006 0.361 7.36 2176 0.01
5/18/2023 12:00:00 AM 16.62 61.916 0.359 7.36 2157 0.01
5/18/2023 12:15:00 AM 16.58 61.844 0.36 7.37 2135 0.01
5/18/2023 12:30:00 AM 16.54 61.772 0.363 7.37 2097 0.01
5/18/2023 12:45:00 AM 16.5 61.7 0.368 7.38 2074 0.01
5/18/2023 1:00:00 AM 16.45 61.61 0.35 7.37 1936 0.01
5/18/2023 1:15:00 AM 16.4 61.52 0.343 7.38 1921 0.01
5/18/2023 1:30:00 AM 16.36 61.448 0.336 7.38 1858 0.01
5/18/2023 1:45:00 AM 16.31 61.358 0.33 7.38 1838 0.01
5/18/2023 2:00:00 AM 16.27 61.286 0.336 7.39 1806 0.01
5/18/2023 2:15:00 AM 16.21 61.178 0.326 7.39 1782 0.01
5/18/2023 2:30:00 AM 16.16 61.088 0.322 7.39 1775 0.01
5/18/2023 2:45:00 AM 16.11 60.998 0.336 7.39 1727 0.01
5/18/2023 3:00:00 AM 16.05 60.89 0.334 7.39 1709 0.01
5/18/2023 3:15:00 AM 16 60.8 0.321 7.4 1689 0.01
5/18/2023 3:30:00 AM 15.94 60.692 0.321 7.4 1667 0.01
5/18/2023 3:45:00 AM 15.88 60.584 0.319 7.4 1663 0.01
5/18/2023 4:00:00 AM 15.82 60.476 0.324 7.39 1638 0.01
5/18/2023 4:15:00 AM 15.76 60.368 0.314 7.4 1604 0.01
5/18/2023 4:30:00 AM 15.69 60.242 0.31 7.4 1588 0.01
5/18/2023 4:45:00 AM 15.63 60.134 0.301 7.4 1562 0.01
5/18/2023 5:00:00 AM 15.56 60.008 0.299 7.39 1534 0.01
5/18/2023 5:15:00 AM 15.5 59.9 0.305 7.39 1521 0.01
5/18/2023 5:30:00 AM 15.43 59.774 0.298 7.39 1492 0.01
5/18/2023 5:45:00 AM 15.36 59.648 0.302 7.4 1479 0.01
5/18/2023 6:00:00 AM 15.29 59.522 0.298 7.39 1473 0.01
5/18/2023 6:15:00 AM 15.22 59.396 0.299 7.39 1466 0.01
5/18/2023 6:30:00 AM 15.16 59.288 0.305 7.38 1458 0.01
5/18/2023 6:45:00 AM 15.09 59.162 0.301 7.38 1447 0.01
5/18/2023 7:00:00 AM 15.03 59.054 0.294 7.38 1434 0.01
5/18/2023 7:15:00 AM 14.96 58.928 0.289 7.39 1423 0.01
5/18/2023 7:30:00 AM 14.89 58.802 0.286 7.39 1471 0.01
5/18/2023 7:45:00 AM 14.83 58.694 0.304 7.38 1445 0.01
5/18/2023 8:00:00 AM 14.77 58.586 0.295 7.38 1420 0.01
5/18/2023 8:15:00 AM 14.73 58.514 0.294 7.38 1399 0.01
5/18/2023 8:30:00 AM 14.69 58.442 0.301 7.39 1381 0.01
5/18/2023 8:45:00 AM 14.65 58.37 0.291 7.39 1368 0.01
5/18/2023 9:00:00 AM 14.61 58.298 0.293 7.38 1333 0.01
5/18/2023 9:15:00 AM 14.58 58.244 0.302 7.39 1308 0.01
5/18/2023 9:30:00 AM 14.57 58.226 0.298 7.39 1291 0.01
5/18/2023 9:45:00 AM 14.57 58.226 0.298 7.39 1275 0.01
5/18/2023 10:00:00 AM 14.58 58.244 0.32 7.39 1271 0.01
5/18/2023 10:15:00 AM 14.59 58.262 0.327 7.39 1243 0.01
5/18/2023 10:30:00 AM 14.61 58.298 0.325 7.38 1225 0.01
5/18/2023 10:45:00 AM 14.63 58.334 0.332 7.39 1210 0.01
5/18/2023 11:00:00 AM 14.66 58.388 0.322 7.38 1205 0.01
5/18/2023 11:15:00 AM 14.69 58.442 0.313 7.41 1182 0.01
5/18/2023 11:30:00 AM 14.74 58.532 0.313 7.57 1158 0.01
5/18/2023 11:45:00 AM 14.78 58.604 0.309 7.66 1131 0.01
5/18/2023 12:00:00 PM 14.82 58.676 0.295 7.83 1132 0.01
5/18/2023 12:15:00 PM 14.87 58.766 0.294 8.05 1113 0.01
5/18/2023 12:30:00 PM 14.93 58.874 0.301 8.11 1066 0.01
5/18/2023 12:45:00 PM 14.96 58.928 0.29 8.18 1056 0.01
5/18/2023 1:00:00 PM 15.04 59.072 0.273 8.32 1103 0.01
5/18/2023 1:15:00 PM 15.08 59.144 0.284 8.31 1095 0.01
5/18/2023 1:30:00 PM 15.14 59.252 0.269 8.3 1055 0.01
5/18/2023 1:45:00 PM 15.17 59.306 0.28 8.36 1063 0.01
5/18/2023 2:00:00 PM 15.21 59.378 0.281 8.42 1074 0.01
5/18/2023 2:15:00 PM 15.23 59.414 0.281 8.49 1056 0.01
5/18/2023 2:30:00 PM 15.26 59.468 0.283 8.52 1047 0.01
5/18/2023 2:45:00 PM 15.3 59.54 0.287 8.52 1042 0.01
5/18/2023 3:00:00 PM 15.35 59.63 0.281 8.54 1026 0.01
5/18/2023 3:15:00 PM 15.44 59.792 0.292 8.63 1019 0.01
5/18/2023 3:30:00 PM 15.48 59.864 0.271 8.61 1002 0.03
5/18/2023 3:45:00 PM 15.54 59.972 0.297 8.66 1000 0.1
5/18/2023 4:00:00 PM 15.58 60.044 0.305 8.7 996.1 0.04
5/18/2023 4:15:00 PM 15.62 60.116 0.299 8.7 990.7 0.06
5/18/2023 4:30:00 PM 15.66 60.188 0.275 8.7 984.4 0.22
5/18/2023 4:45:00 PM 15.71 60.278 0.291 8.71 992.3 0.2
5/18/2023 5:00:00 PM 15.75 60.35 0.277 8.7 982.6 0.22
5/18/2023 5:15:00 PM 15.8 60.44 0.258 8.71 978.1 0.23
5/18/2023 5:30:00 PM 15.85 60.53 0.282 8.72 977.4 0.29
5/18/2023 5:45:00 PM 15.89 60.602 0.29 8.75 977.4 0.22
5/18/2023 6:00:00 PM 15.92 60.656 0.283 8.71 972.7 0.24
5/18/2023 6:15:00 PM 15.97 60.746 0.286 8.74 970.5 0.44
5/18/2023 6:30:00 PM 16 60.8 0.288 8.75 962.4 0.39
5/18/2023 6:45:00 PM 16.02 60.836 0.28 8.72 967.1 0.23
5/18/2023 7:00:00 PM 16.05 60.89 0.268 8.74 959.2 0.23
5/18/2023 7:15:00 PM 16.09 60.962 0.25 8.71 963.6 0.07
5/18/2023 7:30:00 PM 16.1 60.98 0.282 8.69 962 0.01
5/18/2023 7:45:00 PM 16.11 60.998 0.285 8.63 960.6 0.18
5/18/2023 8:00:00 PM 16.12 61.016 0.244 8.64 958.1 0.38
5/18/2023 8:15:00 PM 16.12 61.016 0.274 8.61 957.8 0.45
5/18/2023 8:30:00 PM 16.1 60.98 0.301 8.44 954.1 0.42
5/18/2023 8:45:00 PM 16.08 60.944 0.277 8.23 959.8 0.3
5/18/2023 9:00:00 PM 16.07 60.926 0.307 8.05 951.7 0.34
5/18/2023 9:15:00 PM 16.1 60.98 0.281 8.28 953 0.12
5/18/2023 9:30:00 PM 16.08 60.944 0.293 8.29 982.5 0.18
5/18/2023 9:45:00 PM 16.04 60.872 0.286 8.2 1025 0.11
5/18/2023 10:00:00 PM 16 60.8 0.294 8.24 1109 0.01
5/18/2023 10:15:00 PM 15.98 60.764 0.295 8.15 1122 0.01
5/18/2023 10:30:00 PM 15.96 60.728 0.287 8.2 1253 0.01
5/18/2023 10:45:00 PM 15.94 60.692 0.304 8.17 1319 0.01
5/18/2023 11:00:00 PM 15.91 60.638 0.257 8.14 1369 0.01
5/18/2023 11:15:00 PM 15.89 60.602 0.284 8.04 1405 0.01
5/18/2023 11:30:00 PM 15.87 60.566 0.268 7.87 1396 0.01
5/18/2023 11:45:00 PM 15.84 60.512 0.277 7.85 1498 0.01
5/19/2023 12:00:00 AM 15.82 60.476 0.271 7.82 1517 0.01
5/19/2023 12:15:00 AM 15.79 60.422 0.285 7.73 1509 0.01
5/19/2023 12:30:00 AM 15.76 60.368 0.3 7.62 1520 0.01
5/19/2023 12:45:00 AM 15.74 60.332 0.296 7.6 1566 0.01
5/19/2023 1:00:00 AM 15.72 60.296 0.292 7.62 1725 0.01
5/19/2023 1:15:00 AM 15.77 60.386 0.311 7.66 2271 0.01
5/19/2023 1:30:00 AM 15.73 60.314 0.255 7.69 2430 0.01
5/19/2023 1:45:00 AM 15.71 60.278 0.219 7.68 2476 0.01
5/19/2023 2:00:00 AM 15.67 60.206 0.218 7.71 2475 0.01
5/19/2023 2:15:00 AM 15.63 60.134 0.219 7.69 2578 0.01
5/19/2023 2:30:00 AM 15.57 60.026 0.218 7.72 2899 0.01
5/19/2023 2:45:00 AM 15.51 59.918 0.219 7.72 2946 0.01
5/19/2023 3:00:00 AM 15.47 59.846 0.222 7.7 2950 0.01
5/19/2023 3:15:00 AM 15.43 59.774 0.227 7.71 2995 0.01
5/19/2023 3:30:00 AM 15.35 59.63 0.221 7.71 3031 0.01
5/19/2023 3:45:00 AM 15.33 59.594 0.224 7.68 2979 0.01
5/19/2023 4:00:00 AM 15.28 59.504 0.226 7.67 3147 0.01
5/19/2023 4:15:00 AM 15.2 59.36 0.222 7.65 3122 0.01
5/19/2023 4:30:00 AM 15.18 59.324 0.231 7.68 3218 0.01
5/19/2023 4:45:00 AM 15.13 59.234 0.235 7.67 3266 0.01
5/19/2023 5:00:00 AM 15.06 59.108 0.224 7.69 3276 0.01
5/19/2023 5:15:00 AM 15.04 59.072 0.233 7.64 3334 0.01
5/19/2023 5:30:00 AM 14.98 58.964 0.235 7.66 3302 0.01
5/19/2023 5:45:00 AM 14.96 58.928 0.243 7.67 3369 0.01
5/19/2023 6:00:00 AM 14.76 58.568 0.225 7.63 3376 0.01
5/19/2023 6:15:00 AM 14.85 58.73 0.236 7.6 3539 0.01
5/19/2023 6:30:00 AM 14.74 58.532 0.225 7.61 3630 0.01
5/19/2023 6:45:00 AM 14.78 58.604 0.246 7.59 3740 0.01
5/19/2023 7:00:00 AM 14.59 58.262 0.224 7.59 3563 0.01
5/19/2023 7:15:00 AM 14.5 58.1 0.223 7.62 3470 0.01
5/19/2023 7:30:00 AM 14.49 58.082 0.223 7.63 3158 0.01
5/19/2023 7:45:00 AM 14.51 58.118 0.221 7.65 3122 0.01
5/19/2023 8:00:00 AM 14.44 57.992 0.221 7.65 3062 0.01
5/19/2023 8:15:00 AM 14.44 57.992 0.221 7.68 3004 0.01
5/19/2023 8:30:00 AM 14.45 58.01 0.226 7.7 2940 0.01
5/19/2023 8:45:00 AM 14.45 58.01 0.223 7.72 2915 0.01
5/19/2023 9:00:00 AM 14.46 58.028 0.223 7.75 2840 0.01
5/19/2023 9:15:00 AM 14.49 58.082 0.227 7.78 2859 0.01
5/19/2023 9:30:00 AM 14.49 58.082 0.228 7.84 2771 0.01
5/19/2023 9:45:00 AM 14.58 58.244 0.224 7.85 2673 0.01
5/19/2023 10:00:00 AM 14.62 58.316 0.225 7.89 2701 0.01
5/19/2023 10:15:00 AM 14.66 58.388 0.223 7.94 2663 0.01
5/19/2023 10:30:00 AM 14.7 58.46 0.224 7.98 2684 0.01
5/19/2023 10:45:00 AM 14.75 58.55 0.222 8.06 2639 0.01
5/19/2023 11:00:00 AM 14.83 58.694 0.221 8.09 2628 0.01
5/19/2023 11:15:00 AM 14.88 58.784 0.22 8.15 2563 0.01
5/19/2023 11:30:00 AM 14.93 58.874 0.221 8.22 2556 0.01
5/19/2023 11:45:00 AM 14.98 58.964 0.22 8.26 2558 0.01
5/19/2023 12:00:00 PM 15.14 59.252 0.222 8.33 2516 0.01
5/19/2023 12:15:00 PM 15 59 0.223 8.37 2491 0.01
5/19/2023 12:30:00 PM 15.14 59.252 0.223 8.41 2468 0.01
5/19/2023 12:45:00 PM 15.06 59.108 0.222 8.49 2444 0.01
5/19/2023 1:00:00 PM 15.34 59.612 0.22 8.55 2398 0.01
5/19/2023 1:15:00 PM 15.68 60.224 0.219 8.61 2385 0.01
5/19/2023 1:30:00 PM 15.47 59.846 0.219 8.67 2347 0.01
5/19/2023 1:45:00 PM 15.33 59.594 0.22 8.72 2290 0.01
5/19/2023 2:00:00 PM 15.5 59.9 0.218 8.73 2260 0.01
5/19/2023 2:15:00 PM 15.44 59.792 0.218 8.82 2245 0.01
5/19/2023 2:30:00 PM 15.45 59.81 0.219 8.85 2216 0.01
5/19/2023 2:45:00 PM 15.8 60.44 0.219 8.85 2181 0.01
5/19/2023 3:00:00 PM 15.76 60.368 0.218 8.92 2157 0.01
5/19/2023 3:15:00 PM 15.94 60.692 0.219 8.94 2163 0.01
5/19/2023 3:30:00 PM 16.1 60.98 0.219 8.97 2164 0.01
5/19/2023 3:45:00 PM 16.67 62.006 0.215 8.96 2156 0.01
5/19/2023 4:00:00 PM 16.25 61.25 0.217 9.01 2156 0.01
5/19/2023 4:15:00 PM 16.52 61.736 0.217 9.02 2152 0.01
5/19/2023 4:30:00 PM 16.39 61.502 0.216 9.01 2153 0.01
5/19/2023 4:45:00 PM 16.7 62.06 0.22 9.02 2147 0.01
5/19/2023 5:00:00 PM 16.96 62.528 0.214 9.03 2270 0.01
5/19/2023 5:15:00 PM 16.45 61.61 0.216 9.03 2260 0.01
5/19/2023 5:30:00 PM 16.59 61.862 0.217 9.02 2248 0.01
5/19/2023 5:45:00 PM 16.77 62.186 0.217 9.02 2246 0.01
5/19/2023 6:00:00 PM 16.57 61.826 0.216 9.05 2265 0.01
5/19/2023 6:15:00 PM 16.63 61.934 0.219 8.99 2278 0.01
5/19/2023 6:30:00 PM 16.57 61.826 0.218 9.01 2231 0.01
5/19/2023 6:45:00 PM 16.47 61.646 0.218 9.01 1724 0.01
5/19/2023 7:00:00 PM 16.75 62.15 0.229 8.98 870.7 0.01
5/19/2023 7:15:00 PM 16.72 62.096 0.216 8.98 843.8 0.01
5/19/2023 7:30:00 PM 16.46 61.628 0.221 8.93 826.7 0.01
5/19/2023 7:45:00 PM 16.6 61.88 0.217 8.92 845.3 0.01
5/19/2023 8:00:00 PM 16.46 61.628 0.219 8.88 894.7 0.01
5/19/2023 8:15:00 PM 16.57 61.826 0.227 8.81 2816 0.01
5/19/2023 8:30:00 PM 16.48 61.664 0.221 8.82 3058 0.01
5/19/2023 8:45:00 PM 16.49 61.682 0.224 8.72 3176 0.01
5/19/2023 9:00:00 PM 16.53 61.754 0.224 8.7 3190 0.01
5/19/2023 9:15:00 PM 16.43 61.574 0.224 8.7 3189 0.01
5/19/2023 9:30:00 PM 16.34 61.412 0.225 8.65 3217 0.01
5/19/2023 9:45:00 PM 16.27 61.286 0.226 8.61 3216 0.01
5/19/2023 10:00:00 PM 16.33 61.394 0.232 8.55 3216 0.01
5/19/2023 10:15:00 PM 16.25 61.25 0.228 8.5 3288 0.01
5/19/2023 10:30:00 PM 16.23 61.214 0.227 8.47 3293 0.01
5/19/2023 10:45:00 PM 16.26 61.268 0.225 8.42 3288 0.01
5/19/2023 11:00:00 PM 16.3 61.34 0.229 8.34 3239 0.01
5/19/2023 11:15:00 PM 16.25 61.25 0.227 8.24 3263 0.01
5/19/2023 11:30:00 PM 16.18 61.124 0.226 8.2 3318 0.01
5/19/2023 11:45:00 PM 16.28 61.304 0.228 8.12 3364 0.01
5/20/2023 12:00:00 AM 16.14 61.052 0.229 8.05 3407 0.01
5/20/2023 12:15:00 AM 16.24 61.232 0.232 7.99 3303 0.01
5/20/2023 12:30:00 AM 16.1 60.98 0.232 7.97 582.9 0.01
5/20/2023 12:45:00 AM 16.25 61.25 0.231 7.9 1017 0.01
5/20/2023 1:00:00 AM 16.08 60.944 0.231 7.88 3548 0.01
5/20/2023 1:15:00 AM 16.01 60.818 0.232 7.86 5036 0.01
5/20/2023 1:30:00 AM 16 60.8 0.232 7.81 5036 0.01
5/20/2023 1:45:00 AM 15.95 60.71 0.232 7.77 5025 0.01
5/20/2023 2:00:00 AM 15.95 60.71 0.232 7.74 4938 0.01
5/20/2023 2:15:00 AM 15.9 60.62 0.231 7.77 4831 0.01
5/20/2023 2:30:00 AM 15.97 60.746 0.231 7.73 3533 0.01
5/20/2023 2:45:00 AM 15.98 60.764 0.228 7.74 3444 0.01
5/20/2023 3:00:00 AM 15.98 60.764 0.23 7.72 3380 0.01
5/20/2023 3:15:00 AM 15.96 60.728 0.229 7.73 3305 0.01
5/20/2023 3:30:00 AM 15.92 60.656 0.23 7.74 3229 0.01
5/20/2023 3:45:00 AM 15.81 60.458 0.232 7.72 3143 0.01
5/20/2023 4:00:00 AM 15.75 60.35 0.23 7.71 3057 0.01
5/20/2023 4:15:00 AM 15.76 60.368 0.23 7.69 2916 0.01
5/20/2023 4:30:00 AM 15.71 60.278 0.228 7.69 2777 0.01
5/20/2023 4:45:00 AM 15.63 60.134 0.228 7.69 2673 0.01
5/20/2023 5:00:00 AM 15.59 60.062 0.228 7.68 2581 0.01
5/20/2023 5:15:00 AM 15.52 59.936 0.229 7.67 2473 0.01
5/20/2023 5:30:00 AM 15.5 59.9 0.228 7.65 2385 0.01
5/20/2023 5:45:00 AM 15.47 59.846 0.228 7.65 2286 0.01
5/20/2023 6:00:00 AM 15.42 59.756 0.227 7.64 2226 0.01
5/20/2023 6:15:00 AM 15.4 59.72 0.229 7.63 2182 0.01
5/20/2023 6:30:00 AM 15.38 59.684 0.242 7.63 2115 0.01
5/20/2023 6:45:00 AM 15.37 59.666 0.228 7.63 2095 0.01
5/20/2023 7:00:00 AM 15.35 59.63 0.236 7.63 2086 0.01
5/20/2023 7:15:00 AM 15.34 59.612 0.227 7.62 2035 0.01
5/20/2023 7:30:00 AM 15.32 59.576 0.227 7.62 2005 0.01
5/20/2023 7:45:00 AM 15.27 59.486 0.228 7.64 1988 0.01
5/20/2023 8:00:00 AM 15.26 59.468 0.228 7.64 2079 0.01
5/20/2023 8:15:00 AM 15.29 59.522 0.228 7.67 2118 0.01
5/20/2023 8:30:00 AM 15.26 59.468 0.226 7.7 2138 0.01
5/20/2023 8:45:00 AM 15.25 59.45 0.226 7.75 2233 0.01
5/20/2023 9:00:00 AM 15.29 59.522 0.227 7.74 2290 0.01
5/20/2023 9:15:00 AM 15.36 59.648 0.23 7.78 2410 0.01
5/20/2023 9:30:00 AM 15.28 59.504 0.23 7.79 2492 0.01
5/20/2023 9:45:00 AM 15.3 59.54 0.23 7.81 2576 0.01
5/20/2023 10:00:00 AM 15.41 59.738 0.228 7.86 2654 0.01
5/20/2023 10:15:00 AM 15.45 59.81 0.227 7.94 2728 0.01
5/20/2023 10:30:00 AM 15.53 59.954 0.226 8.04 2831 0.01
5/20/2023 10:45:00 AM 15.63 60.134 0.226 8.13 2917 0.01
5/20/2023 11:00:00 AM 15.7 60.26 0.231 8.2 3020 0.01
5/20/2023 11:15:00 AM 15.8 60.44 0.225 8.32 3186 0.01
5/20/2023 11:30:00 AM 15.82 60.476 0.224 8.36 3405 0.01
5/20/2023 11:45:00 AM 15.78 60.404 0.224 8.39 3547 0.01
5/20/2023 12:00:00 PM 16.2 61.16 0.222 8.5 3748 0.01
5/20/2023 12:15:00 PM 16.13 61.034 0.224 8.58 3850 0.01
5/20/2023 12:30:00 PM 16.08 60.944 0.224 8.65 3980 0.01
5/20/2023 12:45:00 PM 16.29 61.322 0.224 8.7 4135 0.01
5/20/2023 1:00:00 PM 16.31 61.358 0.224 8.8 4225 0.01
5/20/2023 1:15:00 PM 16.2 61.16 0.223 8.83 1378 0.01
5/20/2023 1:30:00 PM 16.32 61.376 0.211 8.84 1359 0.01
5/20/2023 1:45:00 PM 16.39 61.502 0.227 8.92 1355 0.01
5/20/2023 2:00:00 PM 16.49 61.682 0.222 8.93 1330 0.01
5/20/2023 2:15:00 PM 16.86 62.348 0.22 8.98 1303 0.01
5/20/2023 2:30:00 PM 16.78 62.204 0.22 9 1227 0.01
5/20/2023 2:45:00 PM 16.78 62.204 0.22 9.02 1181 0.01
5/20/2023 3:00:00 PM 16.77 62.186 0.219 9.04 1220 0.01
5/20/2023 3:15:00 PM 16.91 62.438 0.205 9.06 1211 0.01
5/20/2023 3:30:00 PM 16.9 62.42 0.226 9.03 1200 0.01
5/20/2023 3:45:00 PM 16.92 62.456 0.221 9.09 1213 0.01
5/20/2023 4:00:00 PM 16.93 62.474 0.221 9.11 1225 0.01
5/20/2023 4:15:00 PM 16.94 62.492 0.221 9.12 1196 0.01
5/20/2023 4:30:00 PM 17.77 63.986 0.22 9.09 1292 0.01
5/20/2023 4:45:00 PM 17.36 63.248 0.219 9.14 1333 0.01
5/20/2023 5:00:00 PM 17.5 63.5 0.218 9.16 1418 0.01
5/20/2023 5:15:00 PM 17.38 63.284 0.219 9.16 1526 0.01
5/20/2023 5:30:00 PM 17.38 63.284 0.219 9.14 1623 0.01
5/20/2023 5:45:00 PM 17.4 63.32 0.222 9.1 1743 0.01
5/20/2023 6:00:00 PM 17.76 63.968 0.222 9.04 1840 0.01
5/20/2023 6:15:00 PM 17.52 63.536 0.22 9.08 2344 0.01
5/20/2023 6:30:00 PM 17.53 63.554 0.221 9.08 2616 0.01
5/20/2023 6:45:00 PM 17.69 63.842 0.223 9.02 2784 0.01
5/20/2023 7:00:00 PM 17.66 63.788 0.221 8.98 2953 0.01
5/20/2023 7:15:00 PM 17.63 63.734 0.224 8.96 2452 0.01
5/20/2023 7:30:00 PM 17.48 63.464 0.222 8.95 1838 0.01
5/20/2023 7:45:00 PM 17.5 63.5 0.222 8.9 1483 0.01
5/20/2023 8:00:00 PM 17.44 63.392 0.222 8.9 1294 0.01
5/20/2023 8:15:00 PM 17.4 63.32 0.221 8.87 1074 0.01
5/20/2023 8:30:00 PM 17.37 63.266 0.222 8.82 1025 0.01
5/20/2023 8:45:00 PM 17.36 63.248 0.224 8.78 1056 0.01
5/20/2023 9:00:00 PM 17.36 63.248 0.225 8.71 1112 0.01
5/20/2023 9:15:00 PM 17.49 63.482 0.227 8.54 1151 0.01
5/20/2023 9:30:00 PM 17.52 63.536 0.233 8.42 1181 0.01
5/20/2023 9:45:00 PM 17.37 63.266 0.227 8.4 1166 0.01
5/20/2023 10:00:00 PM 17.28 63.104 0.228 8.33 1149 0.01
5/20/2023 10:15:00 PM 17.41 63.338 0.228 8.22 1125 0.01
5/20/2023 10:30:00 PM 17.36 63.248 0.228 8.19 1116 0.01
5/20/2023 10:45:00 PM 17.27 63.086 0.226 8.14 1091 0.01
5/20/2023 11:00:00 PM 17.36 63.248 0.227 8.05 1078 0.01
5/20/2023 11:15:00 PM 17.23 63.014 0.229 8.05 1058 0.01
5/20/2023 11:30:00 PM 17.33 63.194 0.227 7.95 1008 0.01
5/20/2023 11:45:00 PM 17.18 62.924 0.227 7.94 983.3 0.01
5/21/2023 12:00:00 AM 17.19 62.942 0.229 7.88 951.9 0.01
5/21/2023 12:15:00 AM 17.17 62.906 0.23 7.86 918.9 0.01
5/21/2023 12:30:00 AM 17.14 62.852 0.231 7.84 884.2 0.01
5/21/2023 12:45:00 AM 17.11 62.798 0.23 7.82 869 0.01
5/21/2023 1:00:00 AM 17.07 62.726 0.228 7.8 862.6 0.01
5/21/2023 1:15:00 AM 17.3 63.14 0.233 7.78 858.9 0.01
5/21/2023 1:30:00 AM 17.26 63.068 0.236 7.72 848.7 0.01
5/21/2023 1:45:00 AM 17.05 62.69 0.227 7.73 855.5 0.01
5/21/2023 2:00:00 AM 17.06 62.708 0.227 7.69 834.9 0.01
5/21/2023 2:15:00 AM 16.95 62.51 0.229 7.7 823.6 0.01
5/21/2023 2:30:00 AM 16.99 62.582 0.232 7.68 817.9 0.01
5/21/2023 2:45:00 AM 16.97 62.546 0.23 7.64 812.1 0.02
5/21/2023 3:00:00 AM 16.93 62.474 0.227 7.63 807.5 0.01
5/21/2023 3:15:00 AM 16.84 62.312 0.229 7.62 804.6 0.01
5/21/2023 3:30:00 AM 16.89 62.402 0.228 7.6 796.9 0.01
5/21/2023 3:45:00 AM 16.74 62.132 0.232 7.62 792.2 0.01
5/21/2023 4:00:00 AM 16.8 62.24 0.23 7.61 779.2 0.01
5/21/2023 4:15:00 AM 16.66 61.988 0.231 7.61 776.8 0.01
5/21/2023 4:30:00 AM 16.65 61.97 0.236 7.59 775.7 0.01
5/21/2023 4:45:00 AM 16.62 61.916 0.224 7.6 761.2 0.01
5/21/2023 5:00:00 AM 16.51 61.718 0.232 7.61 756.6 0.01
5/21/2023 5:15:00 AM 16.47 61.646 0.238 7.57 754.5 0.01
5/21/2023 5:30:00 AM 16.4 61.52 0.242 7.6 750.3 0.01
5/21/2023 5:45:00 AM 16.34 61.412 0.252 7.57 744 0.01
5/21/2023 6:00:00 AM 16.29 61.322 0.241 7.57 769.8 0.01
5/21/2023 6:15:00 AM 16.24 61.232 0.234 7.56 758.8 0.03
5/21/2023 6:30:00 AM 16.18 61.124 0.229 7.54 748.2 0.02
5/21/2023 6:45:00 AM 16.14 61.052 0.242 7.57 752.7 0.01
5/21/2023 7:00:00 AM 16.1 60.98 0.231 7.58 739.7 0.06
5/21/2023 7:15:00 AM 16.04 60.872 0.233 7.61 735.7 0.03
5/21/2023 7:30:00 AM 16.01 60.818 0.247 7.62 731.7 0.01
5/21/2023 7:45:00 AM 15.98 60.764 0.225 7.6 719.8 0.01
5/21/2023 8:00:00 AM 15.98 60.764 0.222 7.64 711.5 0.01
5/21/2023 8:15:00 AM 15.95 60.71 0.223 7.63 708.5 0.01
5/21/2023 8:30:00 AM 15.96 60.728 0.23 7.65 694.6 0.01
5/21/2023 8:45:00 AM 15.96 60.728 0.224 7.66 719.7 0.01
5/21/2023 9:00:00 AM 16 60.8 0.23 7.68 699.5 0.01
5/21/2023 9:15:00 AM 15.97 60.746 0.226 7.71 659.6 0.01
5/21/2023 9:30:00 AM 16.02 60.836 0.232 7.71 693.9 0.01
5/21/2023 9:45:00 AM 16.03 60.854 0.227 7.79 683.1 0.01
5/21/2023 10:00:00 AM 16.05 60.89 0.226 7.84 675.3 0.01
5/21/2023 10:15:00 AM 16.13 61.034 0.227 7.93 665.8 0.01
5/21/2023 10:30:00 AM 16.16 61.088 0.225 7.99 667.1 0.01
5/21/2023 10:45:00 AM 16.22 61.196 0.214 8.07 654.9 0.01
5/21/2023 11:00:00 AM 16.24 61.232 0.227 8.16 650.9 0.01
5/21/2023 11:15:00 AM 16.32 61.376 0.23 8.21 646.3 0.01
5/21/2023 11:30:00 AM 16.51 61.718 0.228 8.27 642.1 0.01
5/21/2023 11:45:00 AM 16.61 61.898 0.219 8.36 635.4 0.01
5/21/2023 12:00:00 PM 16.51 61.718 0.225 8.43 632 0.01
5/21/2023 12:15:00 PM 16.53 61.754 0.226 8.48 625.7 0.01
5/21/2023 12:30:00 PM 16.52 61.736 0.223 8.53 618.3 0.01
5/21/2023 12:45:00 PM 16.57 61.826 0.223 8.58 611 0.01
5/21/2023 1:00:00 PM 16.64 61.952 0.223 8.65 601.7 0.01
5/21/2023 1:15:00 PM 16.7 62.06 0.222 8.71 604.7 0.01
5/21/2023 1:30:00 PM 16.72 62.096 0.22 8.77 701.2 0.01
5/21/2023 1:45:00 PM 16.76 62.168 0.22 8.81 702.4 0.01
5/21/2023 2:00:00 PM 16.83 62.294 0.22 8.85 694.9 0.01
5/21/2023 2:15:00 PM 16.93 62.474 0.222 8.83 683.4 0.01
5/21/2023 2:30:00 PM 16.97 62.546 0.219 8.86 669.1 0.01
5/21/2023 2:45:00 PM 17.01 62.618 0.219 8.89 664.6 0
5/21/2023 3:00:00 PM 17.08 62.744 0.22 8.89 673.5 0.01
5/21/2023 3:15:00 PM 17.22 62.996 0.228 8.82 869.1 0.01
5/21/2023 3:30:00 PM 17.24 63.032 0.214 8.92 854.6 0.01
5/21/2023 3:45:00 PM 17.33 63.194 0.22 9.02 847.2 0.01
5/21/2023 4:00:00 PM 17.38 63.284 0.22 9.05 490.3 0.01
5/21/2023 4:15:00 PM 17.54 63.572 0.224 8.99 262.2 0.01
5/21/2023 4:30:00 PM 17.87 64.166 0.222 8.99 258 0.01
5/21/2023 4:45:00 PM 17.78 64.004 0.22 9.02 258 0.01
5/21/2023 5:00:00 PM 17.87 64.166 0.218 9.06 258.5 0.01
5/21/2023 5:15:00 PM 17.85 64.13 0.223 9.05 256.6 0.01
5/21/2023 5:30:00 PM 17.82 64.076 0.224 9.06 259.5 0.01
5/21/2023 5:45:00 PM 17.86 64.148 0.221 9.07 257 0.03
5/21/2023 6:00:00 PM 17.86 64.148 0.22 9.03 261.7 0.02
5/21/2023 6:15:00 PM 17.91 64.238 0.227 9.02 262.2 0.01
5/21/2023 6:30:00 PM 18.25 64.85 0.221 8.95 260.7 0.01
5/21/2023 6:45:00 PM 18.88 65.984 0.217 8.94 264.3 0.02
5/21/2023 7:00:00 PM 19.02 66.236 0.217 8.98 260.2 0.02
5/21/2023 7:15:00 PM 18.42 65.156 0.218 8.99 257.7 0.02
5/21/2023 7:30:00 PM 18.4 65.12 0.216 8.92 205.3 0.03
5/21/2023 7:45:00 PM 18.26 64.868 0.222 8.91 205.1 0.05
5/21/2023 8:00:00 PM 18.35 65.03 0.22 8.87 199.2 0.01
5/21/2023 8:15:00 PM 18.29 64.922 0.219 8.92 196.7 0.02
5/21/2023 8:30:00 PM 18.45 65.21 0.219 8.88 195.4 0.03
5/21/2023 8:45:00 PM 18.36 65.048 0.223 8.83 196.4 0.01
5/21/2023 9:00:00 PM 18.27 64.886 0.233 8.72 196.8 0.01
5/21/2023 9:15:00 PM 18.33 64.994 0.224 8.7 193.6 0.01
5/21/2023 9:30:00 PM 18.14 64.652 0.232 8.64 193.1 0.01
5/21/2023 9:45:00 PM 18.11 64.598 0.233 8.55 189.9 0.01
5/21/2023 10:00:00 PM 17.98 64.364 0.229 8.52 194.7 0.01
5/21/2023 10:15:00 PM 17.94 64.292 0.231 8.43 188.7 0.01
5/21/2023 10:30:00 PM 18.09 64.562 0.241 8.38 3254 0.01
5/21/2023 10:45:00 PM 18.07 64.526 0.226 8.32 2197 0.01
5/21/2023 11:00:00 PM 18.02 64.436 0.224 8.26 3200 0.01
5/21/2023 11:15:00 PM 17.84 64.112 0.225 8.16 4031 0.01
5/21/2023 11:30:00 PM 17.75 63.95 0.23 8.08 4850 0.01
5/21/2023 11:45:00 PM 17.73 63.914 0.228 8.03 5036 0.01
5/22/2023 12:00:00 AM 17.64 63.752 0.245 7.98 5036 0.01
5/22/2023 12:15:00 AM 17.6 63.68 0.231 7.9 5036 0.01
5/22/2023 12:30:00 AM 17.5 63.5 0.262 7.86 5036 0.01
5/22/2023 12:45:00 AM 17.44 63.392 0.244 7.83 5036 0.01
5/22/2023 1:00:00 AM 17.41 63.338 0.29 7.77 5036 0.01
5/22/2023 1:15:00 AM 17.37 63.266 0.28 7.71 5036 0.01
5/22/2023 1:30:00 AM 17.31 63.158 0.25 7.71 5036 0.01
5/22/2023 1:45:00 AM 17.26 63.068 0.277 7.69 5036 0.01
5/22/2023 2:00:00 AM 17.23 63.014 0.279 7.66 5036 0.01
5/22/2023 2:15:00 AM 17.18 62.924 0.259 7.67 5036 0.01
5/22/2023 2:30:00 AM 17.15 62.87 0.269 7.64 5036 0.01
5/22/2023 2:45:00 AM 17.11 62.798 0.239 7.6 5036 0.01
5/22/2023 3:00:00 AM 17.08 62.744 0.279 7.62 5036 0.01
5/22/2023 3:15:00 AM 17.04 62.672 0.278 7.6 5036 0.01
5/22/2023 3:30:00 AM 16.99 62.582 0.297 7.56 5036 0.01
5/22/2023 3:45:00 AM 16.94 62.492 0.273 7.56 5036 0.01
5/22/2023 4:00:00 AM 16.9 62.42 0.287 7.59 5036 0.01
5/22/2023 4:15:00 AM 16.85 62.33 0.281 7.56 5036 0.01
5/22/2023 4:30:00 AM 16.8 62.24 0.271 7.58 5036 0.01
5/22/2023 4:45:00 AM 16.76 62.168 0.295 7.56 5036 0.01
5/22/2023 5:00:00 AM 16.71 62.078 0.319 7.43 5036 0.01
5/22/2023 5:15:00 AM 16.65 61.97 0.29 7.48 5036 0.01
5/22/2023 5:30:00 AM 16.6 61.88 0.312 7.46 5036 0.01
5/22/2023 5:45:00 AM 16.55 61.79 0.268 7.49 5036 0.01
5/22/2023 6:00:00 AM 16.5 61.7 0.281 7.52 5036 0.01
5/22/2023 6:15:00 AM 16.45 61.61 0.349 7.5 5036 0.01
5/22/2023 6:30:00 AM 16.4 61.52 0.29 7.42 5036 0.01
5/22/2023 6:45:00 AM 16.35 61.43 0.25 7.5 5036 0.01
5/22/2023 7:00:00 AM 16.29 61.322 0.232 7.54 5036 0.01
5/22/2023 7:15:00 AM 16.24 61.232 0.281 7.55 5036 0.01
5/22/2023 7:30:00 AM 16.17 61.106 0.242 7.54 5036 0.01
5/22/2023 7:45:00 AM 16.14 61.052 0.248 7.56 5036 0.01
5/22/2023 8:00:00 AM 16.12 61.016 0.253 7.55 5036 0.01
5/22/2023 8:15:00 AM 16.1 60.98 0.243 7.59 5036 0.01
5/22/2023 8:30:00 AM 16.07 60.926 0.232 7.62 5036 0.01
5/22/2023 8:45:00 AM 16.08 60.944 0.246 7.6 5036 0.01
5/22/2023 9:00:00 AM 16.13 61.034 0.227 7.63 5036 0.01
5/22/2023 9:15:00 AM 16.14 61.052 0.23 7.7 5036 0.01
5/22/2023 9:30:00 AM 16.24 61.232 0.223 7.7 5036 0.01
5/22/2023 9:45:00 AM 16.31 61.358 0.231 7.77 5036 0.01
5/22/2023 10:00:00 AM 16.39 61.502 0.228 7.8 5036 0.01
5/22/2023 10:15:00 AM 16.44 61.592 0.228 7.87 5036 0.01
5/22/2023 10:30:00 AM 16.62 61.916 0.228 7.94 5036 0.01
5/22/2023 10:45:00 AM 16.64 61.952 0.227 7.99 5036 0.01
5/22/2023 11:00:00 AM 16.65 61.97 0.232 8.07 5036 0.01
5/22/2023 11:15:00 AM 16.9 62.42 0.24 8.14 5036 0.01
5/22/2023 11:30:00 AM 16.9 62.42 0.224 8.24 5036 0.01
5/22/2023 11:45:00 AM 16.74 62.132 0.223 8.32 5036 0.01
5/22/2023 12:00:00 PM 16.79 62.222 0.223 8.42 5036 0.01
5/22/2023 12:15:00 PM 16.93 62.474 0.222 8.49 5036 0.01
5/22/2023 12:30:00 PM 17.1 62.78 0.227 8.53 1875 0.01
5/22/2023 12:45:00 PM 17.14 62.852 0.227 8.58 2240 0.01
5/22/2023 1:00:00 PM 17.28 63.104 0.221 8.7 2740 0.01
5/22/2023 1:15:00 PM 17.37 63.266 0.223 8.74 2804 0.01
5/22/2023 1:30:00 PM 17.59 63.662 0.213 8.78 2848 0.01
5/22/2023 1:45:00 PM 17.89 64.202 0.221 8.77 2919 0.01
5/22/2023 2:00:00 PM 17.82 64.076 0.224 8.81 3043 0.01
5/22/2023 2:15:00 PM 17.53 63.554 0.22 8.9 3616 0.01
5/22/2023 2:30:00 PM 17.41 63.338 0.22 8.93 3779 0.01
5/22/2023 2:45:00 PM 17.55 63.59 0.229 8.88 3997 0.01
5/22/2023 3:00:00 PM 17.51 63.518 0.22 8.95 4029 0.01
5/22/2023 3:15:00 PM 18.14 64.652 0.219 8.97 5036 0.01
5/22/2023 3:30:00 PM 17.79 64.022 0.221 8.98 5036 0.01
5/22/2023 3:45:00 PM 17.95 64.31 0.223 9 5036 0.01
5/22/2023 4:00:00 PM 17.9 64.22 0.221 9.03 5036 0.01
5/22/2023 4:15:00 PM 18.19 64.742 0.227 9.02 5036 0.01
5/22/2023 4:30:00 PM 18.07 64.526 0.223 8.98 5036 0.01
5/22/2023 4:45:00 PM 18.32 64.976 0.22 9.01 5036 0.01
5/22/2023 5:00:00 PM 18.19 64.742 0.22 9.04 5036 0.01
5/22/2023 5:15:00 PM 18.19 64.742 0.232 9.02 5036 0.01
5/22/2023 5:30:00 PM 18.16 64.688 0.227 9.01 5036 0.01
5/22/2023 5:45:00 PM 17.99 64.382 0.221 9.06 5036 0.01
5/22/2023 6:00:00 PM 18.14 64.652 0.23 8.98 5036 0.01
5/22/2023 6:15:00 PM 18.08 64.544 0.225 8.97 5036 0.01
5/22/2023 6:30:00 PM 18.05 64.49 0.223 8.97 5036 0.01
5/22/2023 6:45:00 PM 17.99 64.382 0.225 8.98 5036 0.01
5/22/2023 7:00:00 PM 17.97 64.346 0.23 9.01 5036 0.01
5/22/2023 7:15:00 PM 18.03 64.454 0.229 8.92 5036 0.01
5/22/2023 7:30:00 PM 17.95 64.31 0.226 8.97 5036 0.01
5/22/2023 7:45:00 PM 17.91 64.238 0.226 8.93 5036 0.01
5/22/2023 8:00:00 PM 17.87 64.166 0.229 8.9 5036 0.01
5/22/2023 8:15:00 PM 17.89 64.202 0.242 8.85 5036 0.01
5/22/2023 8:30:00 PM 17.9 64.22 0.278 8.77 5036 0.01
5/22/2023 8:45:00 PM 17.84 64.112 0.24 8.74 5036 0.01
5/22/2023 9:00:00 PM 17.84 64.112 0.266 8.56 5036 0.01
5/22/2023 9:15:00 PM 17.82 64.076 0.259 8.58 5036 0.01
5/22/2023 9:30:00 PM 17.76 63.968 0.267 8.55 5036 0.01
5/22/2023 9:45:00 PM 17.71 63.878 0.278 8.5 5036 0.01
5/22/2023 10:00:00 PM 17.69 63.842 0.274 8.5 5036 0.01
5/22/2023 10:15:00 PM 17.64 63.752 0.272 8.42 5036 0.01
5/22/2023 10:30:00 PM 17.61 63.698 0.25 8.31 5036 0.01
5/22/2023 10:45:00 PM 17.72 63.896 0.288 8.14 5036 0.01
5/22/2023 11:00:00 PM 17.8 64.04 0.302 8.06 5036 0.01
5/22/2023 11:15:00 PM 18.02 64.436 0.239 8.02 5036 0.01
5/22/2023 11:30:00 PM 17.86 64.148 0.236 8.01 5036 0.01
5/22/2023 11:45:00 PM 17.75 63.95 0.237 7.96 5036 0.01
5/23/2023 12:00:00 AM 17.6 63.68 0.239 7.96 5036 0.01
5/23/2023 12:15:00 AM 17.55 63.59 0.248 7.87 5036 0.01
5/23/2023 12:30:00 AM 17.53 63.554 0.241 7.78 5036 0.01
5/23/2023 12:45:00 AM 17.52 63.536 0.253 7.69 5036 0.01
5/23/2023 1:00:00 AM 17.5 63.5 0.268 7.72 5036 0.01
5/23/2023 1:15:00 AM 17.43 63.374 0.244 7.67 5036 0.01
5/23/2023 1:30:00 AM 17.54 63.572 0.243 7.7 5036 0.01
5/23/2023 1:45:00 AM 17.54 63.572 0.253 7.69 5036 0.01
5/23/2023 2:00:00 AM 17.42 63.356 0.251 7.7 5036 0.01
5/23/2023 2:15:00 AM 17.35 63.23 0.253 7.68 2987 0.01
5/23/2023 2:30:00 AM 17.45 63.41 0.242 7.67 278.6 0.01
5/23/2023 2:45:00 AM 17.53 63.554 0.233 7.65 3054 0.01
5/23/2023 3:00:00 AM 17.44 63.392 0.231 7.64 2990 0.01
5/23/2023 3:15:00 AM 17.31 63.158 0.24 7.61 2711 0.01
5/23/2023 3:30:00 AM 17.29 63.122 0.231 7.59 2701 0.01
5/23/2023 3:45:00 AM 17.22 62.996 0.225 7.57 2693 0.01
5/23/2023 4:00:00 AM 17.21 62.978 0.216 7.58 2644 0.01
5/23/2023 4:15:00 AM 17.11 62.798 0.237 7.59 2625 0.01
5/23/2023 4:30:00 AM 17.07 62.726 0.232 7.6 2642 0.01
5/23/2023 4:45:00 AM 17 62.6 0.234 7.59 2689 0.01
5/23/2023 5:00:00 AM 16.96 62.528 0.236 7.59 2673 0.01
5/23/2023 5:15:00 AM 16.89 62.402 0.232 7.59 2708 0.01
5/23/2023 5:30:00 AM 16.83 62.294 0.238 7.59 2716 0.01
5/23/2023 5:45:00 AM 16.79 62.222 0.239 7.57 2749 0.01
5/23/2023 6:00:00 AM 16.77 62.186 0.232 7.57 2677 0.01
5/23/2023 6:15:00 AM 16.7 62.06 0.234 7.59 2713 0.01
5/23/2023 6:30:00 AM 16.68 62.024 0.239 7.56 2669 0.01
5/23/2023 6:45:00 AM 16.62 61.916 0.236 7.58 2678 0.01
5/23/2023 7:00:00 AM 16.58 61.844 0.237 7.57 2655 0.01
5/23/2023 7:15:00 AM 16.54 61.772 0.238 7.56 2645 0.01
5/23/2023 7:30:00 AM 16.53 61.754 0.239 7.56 2628 0.01
5/23/2023 7:45:00 AM 16.48 61.664 0.237 7.56 2630 0.01
5/23/2023 8:00:00 AM 16.47 61.646 0.24 7.58 2656 0.01
5/23/2023 8:15:00 AM 16.48 61.664 0.236 7.56 2664 0.01
5/23/2023 8:30:00 AM 16.46 61.628 0.24 7.61 2620 0.01
5/23/2023 8:45:00 AM 16.41 61.538 0.237 7.63 2650 0.01
5/23/2023 9:00:00 AM 16.4 61.52 0.236 7.66 2672 0.01
5/23/2023 9:15:00 AM 16.41 61.538 0.237 7.67 2641 0.01
5/23/2023 9:30:00 AM 16.44 61.592 0.237 7.7 2651 0.01
5/23/2023 9:45:00 AM 16.45 61.61 0.238 7.76 2605 0.01
5/23/2023 10:00:00 AM 16.44 61.592 0.238 7.82 2619 0.01
5/23/2023 10:15:00 AM 16.44 61.592 0.24 7.84 2637 0.01
5/23/2023 10:30:00 AM 16.49 61.682 0.241 7.88 2606 0.01
5/23/2023 10:45:00 AM 16.52 61.736 0.236 7.87 2577 0.01
5/23/2023 11:00:00 AM 16.55 61.79 0.237 8.04 2562 0.01
5/23/2023 11:15:00 AM 16.62 61.916 0.234 8.13 2530 0.01
5/23/2023 11:30:00 AM 16.66 61.988 0.234 8.24 2528 0.01
5/23/2023 11:45:00 AM 16.69 62.042 0.234 8.31 2511 0.01
5/23/2023 12:00:00 PM 16.7 62.06 0.234 8.3 2475 0.01
5/23/2023 12:15:00 PM 16.72 62.096 0.232 8.4 2437 0.01
5/23/2023 12:30:00 PM 16.75 62.15 0.232 8.46 1569 0.01
5/23/2023 12:45:00 PM 16.79 62.222 0.233 8.48 1546 0.01
5/23/2023 1:00:00 PM 16.84 62.312 0.232 8.55 1520 0.01
5/23/2023 1:15:00 PM 16.96 62.528 0.235 8.66 1507 0.01
5/23/2023 1:30:00 PM 17.03 62.654 0.229 8.73 1492 0.01
5/23/2023 1:45:00 PM 17.11 62.798 0.227 8.79 1476 0.01
5/23/2023 2:00:00 PM 17.17 62.906 0.227 8.85 1462 0.01
5/23/2023 2:15:00 PM 17.2 62.96 0.23 8.75 1438 0.01
5/23/2023 2:30:00 PM 17.36 63.248 0.23 8.88 1429 0.01
5/23/2023 2:45:00 PM 17.4 63.32 0.226 8.93 1774 0.01
5/23/2023 3:00:00 PM 17.56 63.608 0.234 8.9 1709 0.01
5/23/2023 3:15:00 PM 17.62 63.716 0.227 8.97 1682 0.01
5/23/2023 3:30:00 PM 17.62 63.716 0.225 9.03 1661 0.01
5/23/2023 3:45:00 PM 18.13 64.634 0.231 8.97 1649 0.01
5/23/2023 4:00:00 PM 18.23 64.814 0.224 9.04 1640 0.01
5/23/2023 4:15:00 PM 18.5 65.3 0.223 9.02 1628 0.01
5/23/2023 4:30:00 PM 18.27 64.886 0.225 9.06 1689 0.01
5/23/2023 4:45:00 PM 18.22 64.796 0.228 9.05 1672 0.01
5/23/2023 5:00:00 PM 18.33 64.994 0.224 9.11 1656 0.01
5/23/2023 5:15:00 PM 18.34 65.012 0.223 9.11 1627 0.01
5/23/2023 5:30:00 PM 18.22 64.796 0.223 9.07 1619 0.01
5/23/2023 5:45:00 PM 18.41 65.138 0.223 9.07 1602 0.01
5/23/2023 6:00:00 PM 18.4 65.12 0.223 9.09 1591 0.01
5/23/2023 6:15:00 PM 18.39 65.102 0.223 9.1 1593 0.01
5/23/2023 6:30:00 PM 18.44 65.192 0.227 9.04 1586 0.01
5/23/2023 6:45:00 PM 18.43 65.174 0.227 9.06 1576 0.01
5/23/2023 7:00:00 PM 18.37 65.066 0.228 9.03 1570 0.01
5/23/2023 7:15:00 PM 18.3 64.94 0.227 9.03 1565 0.01
5/23/2023 7:30:00 PM 18.57 65.426 0.227 8.98 1556 0.01
5/23/2023 7:45:00 PM 18.53 65.354 0.224 9 1552 0.01
5/23/2023 8:00:00 PM 18.4 65.12 0.225 9 1563 0.02
5/23/2023 8:15:00 PM 18.3 64.94 0.226 8.98 1545 0.1
5/23/2023 8:30:00 PM 18.24 64.832 0.226 8.94 1545 0.03
5/23/2023 8:45:00 PM 18.19 64.742 0.227 8.87 1546 0.22
5/23/2023 9:00:00 PM 18.19 64.742 0.228 8.78 1544 0.04
5/23/2023 9:15:00 PM 18.28 64.904 0.233 8.7 1543 0.01
5/23/2023 9:30:00 PM 18.19 64.742 0.236 8.63 1562 0.02
5/23/2023 9:45:00 PM 18.1 64.58 0.24 8.58 1555 0.01
5/23/2023 10:00:00 PM 18.03 64.454 0.241 8.53 1554 0.01
5/23/2023 10:15:00 PM 18 64.4 0.249 8.48 1554 0.02
5/23/2023 10:30:00 PM 17.95 64.31 0.243 8.38 1554 0.01
5/23/2023 10:45:00 PM 17.93 64.274 0.244 8.31 1562 0.03
5/23/2023 11:00:00 PM 17.87 64.166 0.264 8.24 1568 0.01
5/23/2023 11:15:00 PM 17.85 64.13 0.243 8.22 1578 0.13
5/23/2023 11:30:00 PM 17.83 64.094 0.251 8.17 1555 0.07
5/23/2023 11:45:00 PM 17.79 64.022 0.252 8.05 1556 0.01
5/24/2023 12:00:00 AM 17.76 63.968 0.262 8 1562 0.39
5/24/2023 12:15:00 AM 17.72 63.896 0.27 7.98 1561 0.3
5/24/2023 12:30:00 AM 17.69 63.842 0.289 7.88 1563 0.04
5/24/2023 12:45:00 AM 17.69 63.842 0.244 7.85 1565 0.05
5/24/2023 1:00:00 AM 17.73 63.914 0.24 7.84 1586 0.02
5/24/2023 1:15:00 AM 17.67 63.806 0.244 7.83 1579 0.03
5/24/2023 1:30:00 AM 17.59 63.662 0.246 7.83 1595 0.04
5/24/2023 1:45:00 AM 17.54 63.572 0.245 7.79 1575 0.03
5/24/2023 2:00:00 AM 17.5 63.5 0.254 7.77 1584 0.01
5/24/2023 2:15:00 AM 17.46 63.428 0.245 7.75 1586 0.01
5/24/2023 2:30:00 AM 17.44 63.392 0.238 7.73 1591 0.01
5/24/2023 2:45:00 AM 17.4 63.32 0.246 7.69 1626 0.01
5/24/2023 3:00:00 AM 17.36 63.248 0.249 7.69 1627 0.01
5/24/2023 3:15:00 AM 17.31 63.158 0.254 7.68 1628 0.01
5/24/2023 3:30:00 AM 17.27 63.086 0.255 7.63 1628 0.01
5/24/2023 3:45:00 AM 17.24 63.032 0.263 7.62 1626 0.01
5/24/2023 4:00:00 AM 17.2 62.96 0.252 7.61 1626 0.01
5/24/2023 4:15:00 AM 17.16 62.888 0.252 7.62 1637 0.01
5/24/2023 4:30:00 AM 17.12 62.816 0.26 7.61 1632 0.01
5/24/2023 4:45:00 AM 17.08 62.744 0.259 7.56 1639 0.01
5/24/2023 5:00:00 AM 17.03 62.654 0.259 7.54 1643 0.01
5/24/2023 5:15:00 AM 16.99 62.582 0.26 7.51 1651 0.01
5/24/2023 5:30:00 AM 16.94 62.492 0.262 7.52 1636 0.01
5/24/2023 5:45:00 AM 16.9 62.42 0.262 7.48 1683 0.01
5/24/2023 6:00:00 AM 16.85 62.33 0.266 7.49 1831 0.01
5/24/2023 6:15:00 AM 16.79 62.222 0.266 7.46 2377 0.01
5/24/2023 6:30:00 AM 16.73 62.114 0.249 7.49 3523 0.01
5/24/2023 6:45:00 AM 16.68 62.024 0.261 7.51 4398 0.01
5/24/2023 7:00:00 AM 16.64 61.952 0.264 7.49 4556 0.01
5/24/2023 7:15:00 AM 16.6 61.88 0.269 7.46 4946 0.01
5/24/2023 7:30:00 AM 16.55 61.79 0.266 7.47 5036 0.01
5/24/2023 7:45:00 AM 16.51 61.718 0.272 7.43 5036 0.01
5/24/2023 8:00:00 AM 16.47 61.646 0.242 7.41 5036 0.01
5/24/2023 8:15:00 AM 16.43 61.574 0.246 7.54 5036 0.01
5/24/2023 8:30:00 AM 16.42 61.556 0.239 7.58 5036 0.01
5/24/2023 8:45:00 AM 16.45 61.61 0.217 7.59 5036 0.01
5/24/2023 9:00:00 AM 16.48 61.664 0.249 7.63 5036 0.01
5/24/2023 9:15:00 AM 16.56 61.808 0.231 7.65 5036 0.01
5/24/2023 9:30:00 AM 16.56 61.808 0.241 7.69 5036 0.01
5/24/2023 9:45:00 AM 16.65 61.97 0.22 7.75 5036 0.01
5/24/2023 10:00:00 AM 16.82 62.276 0.24 7.8 5036 0.01
5/24/2023 10:15:00 AM 16.81 62.258 0.241 7.83 5036 0.01
5/24/2023 10:30:00 AM 16.97 62.546 0.238 7.9 5036 0.01
5/24/2023 10:45:00 AM 17.22 62.996 0.237 7.97 5036 0.01
5/24/2023 11:00:00 AM 17.41 63.338 0.223 8.06 5036 0.01
5/24/2023 11:15:00 AM 17.47 63.446 0.23 8.13 5036 0.05
5/24/2023 11:30:00 AM 17.32 63.176 0.234 8.24 5036 0.01
5/24/2023 11:45:00 AM 17.51 63.518 0.24 8.29 5036 0.02
5/24/2023 12:00:00 PM 17.41 63.338 0.235 8.35 5036 0.01
5/24/2023 12:15:00 PM 17.21 62.978 0.233 8.4 5036 0.01
5/24/2023 12:30:00 PM 17.31 63.158 0.227 8.46 5036 0.01
5/24/2023 12:45:00 PM 17.36 63.248 0.235 8.53 5036 0.01
5/24/2023 1:00:00 PM 17.34 63.212 0.229 8.56 5036 0.01
5/24/2023 1:15:00 PM 17.37 63.266 0.231 8.65 5036 0.01
5/24/2023 1:30:00 PM 17.88 64.184 0.243 8.63 5036 0.01
5/24/2023 1:45:00 PM 18.02 64.436 0.234 8.7 5036 0.01
5/24/2023 2:00:00 PM 18.1 64.58 0.234 8.78 5036 0.01
5/24/2023 2:15:00 PM 18.27 64.886 0.231 8.81 5036 0.01
5/24/2023 2:30:00 PM 18.1 64.58 0.231 8.85 5036 0.04
5/24/2023 2:45:00 PM 18.42 65.156 0.231 8.87 5036 0.01
5/24/2023 3:00:00 PM 18.18 64.724 0.231 8.9 5036 0.01
5/24/2023 3:15:00 PM 18.29 64.922 0.231 8.93 5036 0.01
5/24/2023 3:30:00 PM 18.38 65.084 0.233 8.92 5036 0.01
5/24/2023 3:45:00 PM 18.29 64.922 0.23 8.98 5036 0.01
5/24/2023 4:00:00 PM 18.2 64.76 0.236 8.96 5036 0.01
5/24/2023 4:15:00 PM 18.3 64.94 0.23 9.03 5036 0.01
5/24/2023 4:30:00 PM 18.2 64.76 0.231 9.04 5036 0.01
5/24/2023 4:45:00 PM 18.22 64.796 0.232 9.04 5036 0.01
5/24/2023 5:00:00 PM 18.22 64.796 0.229 9.05 5036 0
5/24/2023 5:15:00 PM 18.23 64.814 0.231 9.05 5036 0.01
5/24/2023 5:30:00 PM 18.29 64.922 0.232 9.06 5036 0.01
5/24/2023 5:45:00 PM 18.33 64.994 0.231 9.07 5036 0.01
5/24/2023 6:00:00 PM 18.31 64.958 0.231 9.07 5036 0.01
5/24/2023 6:15:00 PM 19.07 66.326 0.231 9.02 5036 0
5/24/2023 6:30:00 PM 19.11 66.398 0.231 9.03 5036 0.01
5/24/2023 6:45:00 PM 18.82 65.876 0.226 9.05 5036 0.01
5/24/2023 7:00:00 PM 18.82 65.876 0.232 9.02 5036 0.01
5/24/2023 7:15:00 PM 18.94 66.092 0.233 8.94 5036 0.01
5/24/2023 7:30:00 PM 18.76 65.768 0.232 8.95 5036 0.01
5/24/2023 7:45:00 PM 18.63 65.534 0.234 8.97 5036 0.01
5/24/2023 8:00:00 PM 18.57 65.426 0.235 8.95 5036 0.01
5/24/2023 8:15:00 PM 18.47 65.246 0.234 8.93 5036 0.01
5/24/2023 8:30:00 PM 18.66 65.588 0.24 8.88 5036 0.01
5/24/2023 8:45:00 PM 18.55 65.39 0.234 8.84 5036 0.01
5/24/2023 9:00:00 PM 18.46 65.228 0.235 8.81 5036 0.01
5/24/2023 9:15:00 PM 18.45 65.21 0.246 8.73 5036 0.01
5/24/2023 9:30:00 PM 18.35 65.03 0.242 8.65 5036 0.01
5/24/2023 9:45:00 PM 18.3 64.94 0.26 8.58 5036 0.01
5/24/2023 10:00:00 PM 18.25 64.85 0.29 8.45 5036 0.01
5/24/2023 10:15:00 PM 18.19 64.742 0.269 8.34 5036 0.01
5/24/2023 10:30:00 PM 18.17 64.706 0.277 8.39 5036 0.01
5/24/2023 10:45:00 PM 18.12 64.616 0.271 8.37 5036 0.01
5/24/2023 11:00:00 PM 18.08 64.544 0.276 8.29 5036 0.01
5/24/2023 11:15:00 PM 18.08 64.544 0.275 8.26 5036 0.01
5/24/2023 11:30:00 PM 18.21 64.778 0.257 8.17 5036 0.01
5/24/2023 11:45:00 PM 18.19 64.742 0.25 8.12 5036 0.01
5/25/2023 12:00:00 AM 18.07 64.526 0.25 8.07 5036 0.01
5/25/2023 12:15:00 AM 18.01 64.418 0.25 8.02 5036 0.01
5/25/2023 12:30:00 AM 17.97 64.346 0.249 7.99 5036 0.01
5/25/2023 12:45:00 AM 17.93 64.274 0.279 7.91 5036 0.01
5/25/2023 1:00:00 AM 17.86 64.148 0.265 7.81 5036 0.01
5/25/2023 1:15:00 AM 17.8 64.04 0.255 7.75 5036 0.01
5/25/2023 1:30:00 AM 17.76 63.968 0.249 7.71 5036 0.01
5/25/2023 1:45:00 AM 17.75 63.95 0.265 7.68 5036 0.01
5/25/2023 2:00:00 AM 17.69 63.842 0.269 7.66 5036 0.01
5/25/2023 2:15:00 AM 17.68 63.824 0.245 7.69 5036 0.01
5/25/2023 2:30:00 AM 17.58 63.644 0.267 7.69 5036 0.01
5/25/2023 2:45:00 AM 17.52 63.536 0.26 7.64 5036 0.01
5/25/2023 3:00:00 AM 17.52 63.536 0.269 7.67 5036 0.01
5/25/2023 3:15:00 AM 17.46 63.428 0.27 7.62 5036 0.01
5/25/2023 3:30:00 AM 17.38 63.284 0.275 7.59 5036 0.01
5/25/2023 3:45:00 AM 17.33 63.194 0.275 7.54 5036 0.01
5/25/2023 4:00:00 AM 17.27 63.086 0.274 7.55 5036 0.01
5/25/2023 4:15:00 AM 17.23 63.014 0.263 7.46 5036 0.01
5/25/2023 4:30:00 AM 17.18 62.924 0.289 7.43 5036 0.01
5/25/2023 4:45:00 AM 17.12 62.816 0.289 7.43 5036 0.01
5/25/2023 5:00:00 AM 17.07 62.726 0.27 7.43 5036 0.01
5/25/2023 5:15:00 AM 17.01 62.618 0.282 7.48 5011 0.01
5/25/2023 5:30:00 AM 16.95 62.51 0.28 7.4 5028 0.01
5/25/2023 5:45:00 AM 16.89 62.402 0.279 7.39 5031 0.01
5/25/2023 6:00:00 AM 16.84 62.312 0.292 7.4 4873 0.01
5/25/2023 6:15:00 AM 16.78 62.204 0.296 7.43 4895 0.01
5/25/2023 6:30:00 AM 16.71 62.078 0.281 7.4 4785 0.01
5/25/2023 6:45:00 AM 16.65 61.97 0.297 7.44 4705 0.01
5/25/2023 7:00:00 AM 16.59 61.862 0.299 7.4 4625 0.01
5/25/2023 7:15:00 AM 16.52 61.736 0.291 7.39 4519 0.01
5/25/2023 7:30:00 AM 16.46 61.628 0.297 7.43 4392 0.01
5/25/2023 7:45:00 AM 16.41 61.538 0.281 7.46 4243 0.01
5/25/2023 8:00:00 AM 16.36 61.448 0.277 7.44 4205 0.01
5/25/2023 8:15:00 AM 16.33 61.394 0.284 7.46 3976 0.01
5/25/2023 8:30:00 AM 16.29 61.322 0.283 7.51 3807 0.01
5/25/2023 8:45:00 AM 16.26 61.268 0.272 7.47 3650 0.01
5/25/2023 9:00:00 AM 16.24 61.232 0.264 7.56 3793 0.01
5/25/2023 9:15:00 AM 16.21 61.178 0.239 7.66 3236 0.01
5/25/2023 9:30:00 AM 16.22 61.196 0.255 7.69 3112 0.01
5/25/2023 9:45:00 AM 16.25 61.25 0.255 7.7 2828 0.01
5/25/2023 10:00:00 AM 16.28 61.304 0.256 7.67 2782 0.01
5/25/2023 10:15:00 AM 16.33 61.394 0.255 7.72 2788 0.01
5/25/2023 10:30:00 AM 16.38 61.484 0.251 7.77 2598 0.01
5/25/2023 10:45:00 AM 16.42 61.556 0.263 7.82 2668 0.01
5/25/2023 11:00:00 AM 16.46 61.628 0.27 7.82 2683 0.01
5/25/2023 11:15:00 AM 16.5 61.7 0.253 7.88 2533 0.01
5/25/2023 11:30:00 AM 16.54 61.772 0.283 7.97 2538 0.01
5/25/2023 11:45:00 AM 16.59 61.862 0.265 7.96 2659 0.01
5/25/2023 12:00:00 PM 16.86 62.348 0.238 8.06 2506 0.01
5/25/2023 12:15:00 PM 16.95 62.51 0.238 8.21 2168 0.01
5/25/2023 12:30:00 PM 17.08 62.744 0.236 8.31 2156 0.01
5/25/2023 12:45:00 PM 17.04 62.672 0.237 8.4 2167 0.01
5/25/2023 1:00:00 PM 17.22 62.996 0.234 8.48 2179 0.01
5/25/2023 1:15:00 PM 17.3 63.14 0.238 8.49 834.8 0.01
5/25/2023 1:30:00 PM 17.61 63.698 0.222 8.5 495.8 0.01
5/25/2023 1:45:00 PM 17.77 63.986 0.244 8.51 3726 0.01
5/25/2023 2:00:00 PM 17.79 64.022 0.233 8.56 4949 0.01
5/25/2023 2:15:00 PM 17.71 63.878 0.236 8.61 4650 0.01
5/25/2023 2:30:00 PM 18.01 64.418 0.243 8.61 4349 0.01
5/25/2023 2:45:00 PM 18.07 64.526 0.237 8.65 4134 0.01
5/25/2023 3:00:00 PM 18.03 64.454 0.237 8.71 3955 0.01
5/25/2023 3:15:00 PM 17.86 64.148 0.234 8.72 3823 0.01
5/25/2023 3:30:00 PM 18.11 64.598 0.234 8.76 3648 0.01
5/25/2023 3:45:00 PM 17.86 64.148 0.235 8.76 3541 0.01
5/25/2023 4:00:00 PM 18.13 64.634 0.238 8.79 3482 0.01
5/25/2023 4:15:00 PM 17.78 64.004 0.235 8.82 5036 0.01
5/25/2023 4:30:00 PM 17.79 64.022 0.235 8.84 5036 0
5/25/2023 4:45:00 PM 18.05 64.49 0.235 8.83 5036 0.01
5/25/2023 5:00:00 PM 17.9 64.22 0.237 8.86 5036 0.01
5/25/2023 5:15:00 PM 18.15 64.67 0.235 8.89 5036 0.01
5/25/2023 5:30:00 PM 18.29 64.922 0.236 8.88 5036 0.01
5/25/2023 5:45:00 PM 17.97 64.346 0.234 8.95 5036 0.01
5/25/2023 6:00:00 PM 18.17 64.706 0.234 8.94 5036 0.01
5/25/2023 6:15:00 PM 18.06 64.508 0.228 8.89 5036 0.03
5/25/2023 6:30:00 PM 17.92 64.256 0.232 8.97 5036 0.07
5/25/2023 6:45:00 PM 17.88 64.184 0.233 9 5036 0.05
5/25/2023 7:00:00 PM 17.88 64.184 0.237 8.93 5036 0.12
5/25/2023 7:15:00 PM 17.89 64.202 0.237 8.93 5036 0.12
5/25/2023 7:30:00 PM 18.26 64.868 0.234 8.91 5036 0.09
5/25/2023 7:45:00 PM 18.04 64.472 0.235 8.94 5036 0.08
5/25/2023 8:00:00 PM 18.24 64.832 0.231 8.89 5036 0.14
5/25/2023 8:15:00 PM 17.97 64.346 0.236 8.89 5036 0.27
5/25/2023 8:30:00 PM 17.96 64.328 0.232 8.82 5036 0.35
5/25/2023 8:45:00 PM 17.82 64.076 0.243 8.79 5036 0.23
5/25/2023 9:00:00 PM 17.75 63.95 0.237 8.77 5036 0.04
5/25/2023 9:15:00 PM 17.66 63.788 0.238 8.74 5036 0.64
5/25/2023 9:30:00 PM 17.62 63.716 0.241 8.74 5036 0.47
5/25/2023 9:45:00 PM 17.56 63.608 0.243 8.72 5036 0.5
5/25/2023 10:00:00 PM 17.51 63.518 0.246 8.68 5036 0.12
5/25/2023 10:15:00 PM 17.44 63.392 0.248 8.62 5036 0.3
5/25/2023 10:30:00 PM 17.38 63.284 0.253 8.48 5036 0.19
5/25/2023 10:45:00 PM 17.33 63.194 0.255 8.45 5036 0.12
5/25/2023 11:00:00 PM 17.29 63.122 0.257 8.43 5036 0.04
5/25/2023 11:15:00 PM 17.24 63.032 0.262 8.35 5036 0.32
5/25/2023 11:30:00 PM 17.2 62.96 0.268 8.3 5036 0.05
5/25/2023 11:45:00 PM 17.15 62.87 0.274 8.23 5036 0.23
5/26/2023 12:00:00 AM 17.11 62.798 0.271 8.15 5036 0.3
5/26/2023 12:15:00 AM 17.07 62.726 0.274 8.03 5036 0.02
5/26/2023 12:30:00 AM 17.04 62.672 0.269 7.96 5036 0.07
5/26/2023 12:45:00 AM 17 62.6 0.266 7.93 5036 0.01
5/26/2023 1:00:00 AM 16.95 62.51 0.272 7.88 5036 0.01
5/26/2023 1:15:00 AM 16.9 62.42 0.274 7.84 5036 0.06
5/26/2023 1:30:00 AM 16.86 62.348 0.277 7.77 5036 0.02
5/26/2023 1:45:00 AM 16.82 62.276 0.275 7.72 5036 0.01
5/26/2023 2:00:00 AM 16.78 62.204 0.251 7.63 5036 0.06
5/26/2023 2:15:00 AM 16.74 62.132 0.264 7.71 5036 0.19
5/26/2023 2:30:00 AM 16.69 62.042 0.264 7.68 5036 0.03
5/26/2023 2:45:00 AM 16.65 61.97 0.261 7.72 5036 0.01
5/26/2023 3:00:00 AM 16.6 61.88 0.262 7.64 5036 0.01
5/26/2023 3:15:00 AM 16.55 61.79 0.264 7.63 5036 0.01
5/26/2023 3:30:00 AM 16.51 61.718 0.267 7.63 5036 0.01
5/26/2023 3:45:00 AM 16.47 61.646 0.27 7.67 5036 0.01
5/26/2023 4:00:00 AM 16.41 61.538 0.282 7.68 5036 0.01
5/26/2023 4:15:00 AM 16.23 61.214 0.244 7.65 5036 0.01
5/26/2023 4:30:00 AM 16.2 61.16 0.255 7.67 5036 0.01
5/26/2023 4:45:00 AM 16.14 61.052 0.268 7.68 5036 0.01
5/26/2023 5:00:00 AM 16.11 60.998 0.266 7.67 5036 0.01
5/26/2023 5:15:00 AM 16.06 60.908 0.27 7.67 5036 0.01
5/26/2023 5:30:00 AM 16 60.8 0.269 7.67 5036 0.01
5/26/2023 5:45:00 AM 15.95 60.71 0.263 7.67 5036 0.01
5/26/2023 6:00:00 AM 15.89 60.602 0.262 7.65 5036 0.01
5/26/2023 6:15:00 AM 15.71 60.278 0.263 7.64 5036 0.01
5/26/2023 6:30:00 AM 15.72 60.296 0.272 7.65 5036 0.01
5/26/2023 6:45:00 AM 15.59 60.062 0.245 7.63 5036 0.01
5/26/2023 7:00:00 AM 15.58 60.044 0.275 7.64 5036 0.01
5/26/2023 7:15:00 AM 15.5 59.9 0.274 7.62 5036 0.01
5/26/2023 7:30:00 AM 15.5 59.9 0.268 7.61 5036 0.01
5/26/2023 7:45:00 AM 15.46 59.828 0.29 7.62 5036 0.01
5/26/2023 8:00:00 AM 15.47 59.846 0.3 7.59 5036 0.01
5/26/2023 8:15:00 AM 15.36 59.648 0.27 7.54 5036 0.01
5/26/2023 8:30:00 AM 15.37 59.666 0.267 7.59 5036 0.01
5/26/2023 8:45:00 AM 15.23 59.414 0.246 7.61 5036 0.01
5/26/2023 9:00:00 AM 15.27 59.486 0.275 7.65 5036 0.01
5/26/2023 9:15:00 AM 15.34 59.612 0.254 7.67 5036 0.01
5/26/2023 9:30:00 AM 15.4 59.72 0.244 7.69 5036 0.01
5/26/2023 9:45:00 AM 15.56 60.008 0.244 7.71 5036 0.01
5/26/2023 10:00:00 AM 15.55 59.99 0.243 7.78 5036 0.01
5/26/2023 10:15:00 AM 15.79 60.422 0.244 7.79 5036 0.01
5/26/2023 10:30:00 AM 15.72 60.296 0.245 7.85 5036 0.01
5/26/2023 10:45:00 AM 15.75 60.35 0.246 7.88 5036 0.01
5/26/2023 11:00:00 AM 15.84 60.512 0.246 7.9 5036 0.01
5/26/2023 11:15:00 AM 15.88 60.584 0.245 7.95 5036 0.01
5/26/2023 11:30:00 AM 16.02 60.836 0.245 7.99 5036 0.01
5/26/2023 11:45:00 AM 16.02 60.836 0.243 8.09 5036 0.01
5/26/2023 12:00:00 PM 16.08 60.944 0.242 8.14 5036 0.01
5/26/2023 12:15:00 PM 16.12 61.016 0.242 8.17 5036 0.01
5/26/2023 12:30:00 PM 16.21 61.178 0.242 8.24 5036 0.01
5/26/2023 12:45:00 PM 16.48 61.664 0.242 8.29 5036 0.01
5/26/2023 1:00:00 PM 16.35 61.43 0.24 8.33 5036 0.01
5/26/2023 1:15:00 PM 16.33 61.394 0.24 8.4 5036 0.01
5/26/2023 1:30:00 PM 16.49 61.682 0.24 8.45 5036 0.01
5/26/2023 1:45:00 PM 16.67 62.006 0.243 8.5 5036 0.01
5/26/2023 2:00:00 PM 16.54 61.772 0.24 8.54 5036 0.01
5/26/2023 2:15:00 PM 16.58 61.844 0.239 8.61 5036 0.01
5/26/2023 2:30:00 PM 17.01 62.618 0.243 8.64 5036 0.01
5/26/2023 2:45:00 PM 16.77 62.186 0.238 8.7 5036 0.01
5/26/2023 3:00:00 PM 16.92 62.456 0.237 8.72 5036 0.01
5/26/2023 3:15:00 PM 16.89 62.402 0.237 8.74 5036 0.01
5/26/2023 3:30:00 PM 17.22 62.996 0.236 8.81 5036 0.01
5/26/2023 3:45:00 PM 17.27 63.086 0.238 8.82 5036 0.01
5/26/2023 4:00:00 PM 17.3 63.14 0.24 8.81 5036 0.01
5/26/2023 4:15:00 PM 17.52 63.536 0.236 8.89 5036 0.01
5/26/2023 4:30:00 PM 18.07 64.526 0.235 8.88 5036 0.01
5/26/2023 4:45:00 PM 18.17 64.706 0.237 8.89 5036 0.01
5/26/2023 5:00:00 PM 17.62 63.716 0.236 8.93 5036 0.01
5/26/2023 5:15:00 PM 17.58 63.644 0.239 8.84 5036 0.01
5/26/2023 5:30:00 PM 17.64 63.752 0.239 8.88 5036 0.01
5/26/2023 5:45:00 PM 18.33 64.994 0.242 8.9 5036 0.01
5/26/2023 6:00:00 PM 18.43 65.174 0.233 8.93 5036 0.01
5/26/2023 6:15:00 PM 18.13 64.634 0.274 8.93 5036 0.01
5/26/2023 6:30:00 PM 18.22 64.796 0.237 8.92 5036 0.01
5/26/2023 6:45:00 PM 18.06 64.508 0.24 8.9 5036 0.01
5/26/2023 7:00:00 PM 18.18 64.724 0.237 8.93 5036 0.01
5/26/2023 7:15:00 PM 17.91 64.238 0.239 8.9 5036 0.01
5/26/2023 7:30:00 PM 18.38 65.084 0.243 8.87 5036 0.01
5/26/2023 7:45:00 PM 17.93 64.274 0.24 8.86 5036 0.01
5/26/2023 8:00:00 PM 18 64.4 0.241 8.84 5036 0.01
5/26/2023 8:15:00 PM 17.8 64.04 0.24 8.88 5036 0.01
5/26/2023 8:30:00 PM 17.76 63.968 0.24 8.82 5036 0.01
5/26/2023 8:45:00 PM 17.74 63.932 0.236 8.81 5036 0.01
5/26/2023 9:00:00 PM 17.71 63.878 0.242 8.75 5036 0.01
5/26/2023 9:15:00 PM 17.62 63.716 0.243 8.8 5036 0.01
5/26/2023 9:30:00 PM 17.87 64.166 0.244 8.71 5036 0.01
5/26/2023 9:45:00 PM 17.62 63.716 0.242 8.71 5036 0.01
5/26/2023 10:00:00 PM 17.77 63.986 0.245 8.62 5036 0.01
5/26/2023 10:15:00 PM 17.52 63.536 0.245 8.62 5036 0.01
5/26/2023 10:30:00 PM 17.52 63.536 0.255 8.56 2112 0.01
5/26/2023 10:45:00 PM 17.39 63.302 0.252 8.51 2346 0.01
5/26/2023 11:00:00 PM 17.32 63.176 0.252 8.45 2443 0.01
5/26/2023 11:15:00 PM 17.28 63.104 0.254 8.4 2526 0.01
5/26/2023 11:30:00 PM 17.31 63.158 0.253 8.31 2610 0.01
5/26/2023 11:45:00 PM 17.22 62.996 0.255 8.26 2666 0.01
5/27/2023 12:00:00 AM 17.33 63.194 0.251 8.18 2738 0.01
5/27/2023 12:15:00 AM 17.14 62.852 0.248 8.16 2800 0.01
5/27/2023 12:30:00 AM 17.09 62.762 0.248 8.07 2634 0.01
5/27/2023 12:45:00 AM 17.11 62.798 0.247 8 2731 0.01
5/27/2023 1:00:00 AM 17.05 62.69 0.257 7.96 2828 0.01
5/27/2023 1:15:00 AM 16.99 62.582 0.254 7.91 2885 0.01
5/27/2023 1:30:00 AM 16.96 62.528 0.263 7.9 2936 0.01
5/27/2023 1:45:00 AM 16.86 62.348 0.252 7.85 2896 0.01
5/27/2023 2:00:00 AM 16.83 62.294 0.245 7.82 2985 0.01
5/27/2023 2:15:00 AM 16.76 62.168 0.248 7.83 3001 0.01
5/27/2023 2:30:00 AM 16.71 62.078 0.247 7.8 2999 0.01
5/27/2023 2:45:00 AM 16.67 62.006 0.248 7.78 3141 0.01
5/27/2023 3:00:00 AM 16.62 61.916 0.254 7.72 3221 0.01
5/27/2023 3:15:00 AM 16.57 61.826 0.264 7.66 3273 0.01
5/27/2023 3:30:00 AM 16.53 61.754 0.255 7.65 3325 0.01
5/27/2023 3:45:00 AM 16.48 61.664 0.259 7.65 3388 0.01
5/27/2023 4:00:00 AM 16.43 61.574 0.288 7.66 3449 0.01
5/27/2023 4:15:00 AM 16.38 61.484 0.255 7.65 3545 0.01
5/27/2023 4:30:00 AM 16.33 61.394 0.262 7.65 3601 0.01
5/27/2023 4:45:00 AM 16.29 61.322 0.266 7.63 3644 0.01
5/27/2023 5:00:00 AM 16.25 61.25 0.269 7.58 3702 0.01
5/27/2023 5:15:00 AM 16.14 61.052 0.265 7.58 3761 0.01
5/27/2023 5:30:00 AM 16.11 60.998 0.262 7.61 3835 0.01
5/27/2023 5:45:00 AM 16.01 60.818 0.251 7.6 3918 0.01
5/27/2023 6:00:00 AM 15.99 60.782 0.262 7.61 3970 0.01
5/27/2023 6:15:00 AM 15.92 60.656 0.267 7.58 4003 0.01
5/27/2023 6:30:00 AM 15.83 60.494 0.253 7.57 4079 0.01
5/27/2023 6:45:00 AM 15.74 60.332 0.26 7.6 4136 0.01
5/27/2023 7:00:00 AM 15.72 60.296 0.252 7.61 4260 0.01
5/27/2023 7:15:00 AM 15.7 60.26 0.251 7.64 4381 0.01
5/27/2023 7:30:00 AM 15.54 59.972 0.247 7.58 4428 0.01
5/27/2023 7:45:00 AM 15.46 59.828 0.244 7.61 4541 0.01
5/27/2023 8:00:00 AM 15.49 59.882 0.252 7.62 4512 0.01
5/27/2023 8:15:00 AM 15.52 59.936 0.25 7.63 4601 0.01
5/27/2023 8:30:00 AM 15.49 59.882 0.255 7.61 4770 0.01
5/27/2023 8:45:00 AM 15.48 59.864 0.251 7.64 4901 0.01
5/27/2023 9:00:00 AM 15.52 59.936 0.249 7.65 5000 0.01
5/27/2023 9:15:00 AM 15.58 60.044 0.233 7.68 5032 0.01
5/27/2023 9:30:00 AM 15.63 60.134 0.242 7.71 5036 0.01
5/27/2023 9:45:00 AM 15.78 60.404 0.245 7.75 5036 0.01
5/27/2023 10:00:00 AM 15.88 60.584 0.237 7.79 5036 0.01
5/27/2023 10:15:00 AM 16.01 60.818 0.246 7.83 5036 0.01
5/27/2023 10:30:00 AM 16.13 61.034 0.244 7.87 5036 0.01
5/27/2023 10:45:00 AM 16.27 61.286 0.244 7.92 5036 0.01
5/27/2023 11:00:00 AM 16.22 61.196 0.245 7.98 5036 0.01
5/27/2023 11:15:00 AM 16.31 61.358 0.245 8.02 5036 0.01
5/27/2023 11:30:00 AM 16.32 61.376 0.244 8.08 5036 0.01
5/27/2023 11:45:00 AM 16.36 61.448 0.243 8.14 5036 0.01
5/27/2023 12:00:00 PM 16.45 61.61 0.242 8.2 5036 0.01
5/27/2023 12:15:00 PM 16.49 61.682 0.229 8.24 5036 0.01
5/27/2023 12:30:00 PM 16.64 61.952 0.241 8.31 5036 0.01
5/27/2023 12:45:00 PM 16.77 62.186 0.241 8.35 5036 0.01
5/27/2023 1:00:00 PM 16.92 62.456 0.22 8.39 5036 0.01
5/27/2023 1:15:00 PM 16.74 62.132 0.217 8.4 5036 0.01
5/27/2023 1:30:00 PM 17 62.6 0.242 8.43 5036 0.01
5/27/2023 1:45:00 PM 17.22 62.996 0.238 8.49 5036 0.01
5/27/2023 2:00:00 PM 17.08 62.744 0.214 8.6 5036 0.01
5/27/2023 2:15:00 PM 17.05 62.69 0.211 8.64 5036 0.01
5/27/2023 2:30:00 PM 17.19 62.942 0.233 8.63 5036 0.01
5/27/2023 2:45:00 PM 17.54 63.572 0.213 8.68 2841 0.01
5/27/2023 3:00:00 PM 17.27 63.086 0.24 8.7 2965 0.01
5/27/2023 3:15:00 PM 17.27 63.086 0.241 8.66 2974 0.01
5/27/2023 3:30:00 PM 17.61 63.698 0.242 8.7 3050 0.01
5/27/2023 3:45:00 PM 17.57 63.626 0.241 8.73 3095 0.01
5/27/2023 4:00:00 PM 17.63 63.734 0.239 8.79 3090 0.01
5/27/2023 4:15:00 PM 17.78 64.004 0.236 8.82 3003 0.01
5/27/2023 4:30:00 PM 17.86 64.148 0.236 8.79 2992 0.01
5/27/2023 4:45:00 PM 17.96 64.328 0.242 8.83 2969 0.01
5/27/2023 5:00:00 PM 18.62 65.516 0.239 8.83 2664 0.01
5/27/2023 5:15:00 PM 18.37 65.066 0.233 8.81 2573 0.01
5/27/2023 5:30:00 PM 18.2 64.76 0.242 8.86 2545 0.01
5/27/2023 5:45:00 PM 18.05 64.49 0.242 8.83 2525 0.01
5/27/2023 6:00:00 PM 17.99 64.382 0.24 8.86 2361 0.01
5/27/2023 6:15:00 PM 18.24 64.832 0.246 8.86 2426 0.01
5/27/2023 6:30:00 PM 18.35 65.03 0.241 8.82 2409 0.01
5/27/2023 6:45:00 PM 18.24 64.832 0.238 8.86 2474 0.01
5/27/2023 7:00:00 PM 18.36 65.048 0.239 8.85 2517 0.01
5/27/2023 7:15:00 PM 18.18 64.724 0.239 8.9 2516 0.01
5/27/2023 7:30:00 PM 18.13 64.634 0.241 8.9 5036 0.01
5/27/2023 7:45:00 PM 18.16 64.688 0.24 8.84 5036 0.01
5/27/2023 8:00:00 PM 18.22 64.796 0.242 8.82 5036 0.01
5/27/2023 8:15:00 PM 18.19 64.742 0.236 8.78 5036 0.01
5/27/2023 8:30:00 PM 18.33 64.994 0.242 8.76 5036 0.01
5/27/2023 8:45:00 PM 18.29 64.922 0.24 8.74 5036 0.01
5/27/2023 9:00:00 PM 18.39 65.102 0.241 8.73 5036 0.01
5/27/2023 9:15:00 PM 18.09 64.562 0.24 8.73 5036 0.01
5/27/2023 9:30:00 PM 18.2 64.76 0.244 8.66 5036 0.01
5/27/2023 9:45:00 PM 18 64.4 0.243 8.63 5036 0.01
5/27/2023 10:00:00 PM 17.9 64.22 0.242 8.62 5036 0.01
5/27/2023 10:15:00 PM 17.92 64.256 0.243 8.53 5036 0.01
5/27/2023 10:30:00 PM 18.07 64.526 0.247 8.52 5036 0.01
5/27/2023 10:45:00 PM 17.84 64.112 0.245 8.43 5036 0.01
5/27/2023 11:00:00 PM 17.8 64.04 0.25 8.35 5036 0.01
5/27/2023 11:15:00 PM 17.73 63.914 0.245 8.34 5036 0.01
5/27/2023 11:30:00 PM 17.87 64.166 0.247 8.27 5036 0.01
5/27/2023 11:45:00 PM 17.78 64.004 0.246 8.24 5036 0.01
5/28/2023 12:00:00 AM 17.83 64.094 0.246 8.19 5036 0.01
5/28/2023 12:15:00 AM 17.72 63.896 0.245 8.14 5036 0.01
5/28/2023 12:30:00 AM 17.7 63.86 0.246 8.08 5036 0.01
5/28/2023 12:45:00 AM 17.64 63.752 0.248 8.02 5036 0.01
5/28/2023 1:00:00 AM 17.52 63.536 0.246 7.97 5036 0.01
5/28/2023 1:15:00 AM 17.42 63.356 0.249 7.88 5036 0.01
5/28/2023 1:30:00 AM 17.39 63.302 0.25 7.82 5036 0.01
5/28/2023 1:45:00 AM 17.33 63.194 0.25 7.81 5036 0.01
5/28/2023 2:00:00 AM 17.27 63.086 0.251 7.78 5036 0.01
5/28/2023 2:15:00 AM 17.23 63.014 0.25 7.77 5036 0.01
5/28/2023 2:30:00 AM 17.19 62.942 0.248 7.72 5036 0.01
5/28/2023 2:45:00 AM 17.18 62.924 0.247 7.71 5036 0.01
5/28/2023 3:00:00 AM 17.11 62.798 0.248 7.71 5036 0.01
5/28/2023 3:15:00 AM 17.08 62.744 0.255 7.64 5036 0.01
5/28/2023 3:30:00 AM 17.03 62.654 0.254 7.6 5036 0.01
5/28/2023 3:45:00 AM 16.98 62.564 0.251 7.58 5036 0.01
5/28/2023 4:00:00 AM 16.94 62.492 0.245 7.6 5036 0.01
5/28/2023 4:15:00 AM 16.92 62.456 0.248 7.6 5036 0.01
5/28/2023 4:30:00 AM 16.88 62.384 0.246 7.66 5036 0.01
5/28/2023 4:45:00 AM 16.83 62.294 0.252 7.66 5036 0.01
5/28/2023 5:00:00 AM 16.76 62.168 0.246 7.65 5036 0.01
5/28/2023 5:15:00 AM 16.7 62.06 0.248 7.65 5036 0.01
5/28/2023 5:30:00 AM 16.64 61.952 0.244 7.64 5036 0.01
5/28/2023 5:45:00 AM 16.58 61.844 0.256 7.63 5036 0.01
5/28/2023 6:00:00 AM 16.51 61.718 0.246 7.63 5036 0.01
5/28/2023 6:15:00 AM 16.46 61.628 0.255 7.62 5036 0.01
5/28/2023 6:30:00 AM 16.41 61.538 0.255 7.61 5036 0.01
5/28/2023 6:45:00 AM 16.32 61.376 0.246 7.6 5036 0.01
5/28/2023 7:00:00 AM 16.23 61.214 0.245 7.63 5036 0.01
5/28/2023 7:15:00 AM 16.23 61.214 0.251 7.62 5036 0.01
5/28/2023 7:30:00 AM 16.18 61.124 0.251 7.61 5036 0.01
5/28/2023 7:45:00 AM 16.15 61.07 0.25 7.61 5036 0.01
5/28/2023 8:00:00 AM 16.12 61.016 0.251 7.6 5036 0.01
5/28/2023 8:15:00 AM 16.12 61.016 0.26 7.61 5036 0.01
5/28/2023 8:30:00 AM 16.11 60.998 0.252 7.58 5036 0.01
5/28/2023 8:45:00 AM 16.1 60.98 0.246 7.58 5036 0.01
5/28/2023 9:00:00 AM 16.11 60.998 0.245 7.6 5036 0.01
5/28/2023 9:15:00 AM 16.25 61.25 0.244 7.64 5036 0.01
5/28/2023 9:30:00 AM 16.24 61.232 0.244 7.67 5036 0.01
5/28/2023 9:45:00 AM 16.26 61.268 0.244 7.68 5036 0.01
5/28/2023 10:00:00 AM 16.41 61.538 0.246 7.72 5036 0.01
5/28/2023 10:15:00 AM 16.52 61.736 0.245 7.76 5036 0.01
5/28/2023 10:30:00 AM 16.74 62.132 0.248 7.8 5036 0.01
5/28/2023 10:45:00 AM 16.72 62.096 0.245 7.84 5036 0.01
5/28/2023 11:00:00 AM 16.76 62.168 0.244 7.89 5036 0.01
5/28/2023 11:15:00 AM 16.78 62.204 0.245 7.91 5036 0.01
5/28/2023 11:30:00 AM 16.79 62.222 0.244 7.93 5036 0.01
5/28/2023 11:45:00 AM 16.77 62.186 0.244 7.95 5036 0.01
5/28/2023 12:00:00 PM 16.73 62.114 0.241 8.01 5036 0.01
5/28/2023 12:15:00 PM 16.78 62.204 0.241 7.99 5036 0.01
5/28/2023 12:30:00 PM 16.94 62.492 0.24 8.13 5036 0.01
5/28/2023 12:45:00 PM 16.96 62.528 0.241 8.17 5036 0.01
5/28/2023 1:00:00 PM 16.9 62.42 0.238 8.23 5036 0.01
5/28/2023 1:15:00 PM 16.91 62.438 0.24 8.29 5036 0.01
5/28/2023 1:30:00 PM 16.91 62.438 0.24 8.32 5036 0.01
5/28/2023 1:45:00 PM 17.03 62.654 0.241 8.35 5036 0.01
5/28/2023 2:00:00 PM 17.03 62.654 0.241 8.37 5036 0.01
5/28/2023 2:15:00 PM 17.07 62.726 0.242 8.4 5036 0.01
5/28/2023 2:30:00 PM 17.44 63.392 0.246 8.42 5036 0.01
5/28/2023 2:45:00 PM 17.59 63.662 0.241 8.46 5036 0.01
5/28/2023 3:00:00 PM 17.65 63.77 0.241 8.52 5036 0.01
5/28/2023 3:15:00 PM 17.58 63.644 0.24 8.57 5036 0.01
5/28/2023 3:30:00 PM 17.59 63.662 0.242 8.55 5036 0.01
5/28/2023 3:45:00 PM 17.73 63.914 0.239 8.62 5036 0.01
5/28/2023 4:00:00 PM 17.85 64.13 0.24 8.67 5036 0.01
5/28/2023 4:15:00 PM 17.69 63.842 0.241 8.64 5036 0.01
5/28/2023 4:30:00 PM 17.69 63.842 0.239 8.7 5036 0.01
5/28/2023 4:45:00 PM 17.62 63.716 0.239 8.76 5036 0.01
5/28/2023 5:00:00 PM 17.72 63.896 0.243 8.7 5036 0.01
5/28/2023 5:15:00 PM 17.79 64.022 0.239 8.77 5036 0.01
5/28/2023 5:30:00 PM 17.72 63.896 0.239 8.76 5036 0.01
5/28/2023 5:45:00 PM 17.71 63.878 0.239 8.79 5036 0.01
5/28/2023 6:00:00 PM 17.72 63.896 0.239 8.78 5036 0.01
5/28/2023 6:15:00 PM 17.72 63.896 0.238 8.79 5036 0.01
5/28/2023 6:30:00 PM 17.71 63.878 0.239 8.75 5036 0.01
5/28/2023 6:45:00 PM 17.75 63.95 0.239 8.68 5036 0.01
5/28/2023 7:00:00 PM 17.75 63.95 0.238 8.79 5036 0.01
5/28/2023 7:15:00 PM 17.78 64.004 0.241 8.73 5036 0.01
5/28/2023 7:30:00 PM 17.88 64.184 0.239 8.74 5036 0.01
5/28/2023 7:45:00 PM 17.79 64.022 0.238 8.72 5036 0.01
5/28/2023 8:00:00 PM 17.75 63.95 0.243 8.65 5036 0.01
5/28/2023 8:15:00 PM 17.79 64.022 0.241 8.62 5036 0.01
5/28/2023 8:30:00 PM 17.74 63.932 0.239 8.65 5036 0.01
5/28/2023 8:45:00 PM 17.67 63.806 0.24 8.68 5036 0.01
5/28/2023 9:00:00 PM 17.65 63.77 0.241 8.61 5036 0.01
5/28/2023 9:15:00 PM 17.62 63.716 0.24 8.6 5036 0.01
5/28/2023 9:30:00 PM 17.9 64.22 0.241 8.64 5036 0.01
5/28/2023 9:45:00 PM 17.74 63.932 0.241 8.61 5035 0.01
5/28/2023 10:00:00 PM 17.69 63.842 0.245 8.54 4852 0.01
5/28/2023 10:15:00 PM 17.59 63.662 0.245 8.41 4753 0.01
5/28/2023 10:30:00 PM 17.53 63.554 0.246 8.33 4600 0.01
5/28/2023 10:45:00 PM 17.6 63.68 0.252 8.26 4584 0.01
5/28/2023 11:00:00 PM 17.53 63.554 0.245 8.24 4490 0.01
5/28/2023 11:15:00 PM 17.76 63.968 0.243 8.29 4409 0.01
5/28/2023 11:30:00 PM 17.53 63.554 0.245 8.27 4287 0.01
5/28/2023 11:45:00 PM 17.49 63.482 0.246 8.2 4177 0.01
5/29/2023 12:00:00 AM 17.52 63.536 0.247 8.14 4043 0.01
5/29/2023 12:15:00 AM 17.47 63.446 0.247 8.08 3885 0.01
5/29/2023 12:30:00 AM 17.4 63.32 0.246 8.07 3671 0.01
5/29/2023 12:45:00 AM 17.49 63.482 0.247 8.02 3559 0.01
5/29/2023 1:00:00 AM 17.41 63.338 0.246 7.99 3463 0.01
5/29/2023 1:15:00 AM 17.34 63.212 0.246 7.97 3305 0.01
5/29/2023 1:30:00 AM 17.31 63.158 0.248 7.92 3193 0.01
5/29/2023 1:45:00 AM 17.41 63.338 0.25 7.89 3191 0.01
5/29/2023 2:00:00 AM 17.31 63.158 0.249 7.87 3183 0.01
5/29/2023 2:15:00 AM 17.26 63.068 0.247 7.86 3178 0.01
5/29/2023 2:30:00 AM 17.3 63.14 0.248 7.8 3157 0.01
5/29/2023 2:45:00 AM 17.2 62.96 0.247 7.8 3225 0.01
5/29/2023 3:00:00 AM 17.15 62.87 0.247 7.73 3427 0.01
5/29/2023 3:15:00 AM 17.16 62.888 0.245 7.72 3569 0.01
5/29/2023 3:30:00 AM 17.13 62.834 0.245 7.72 3825 0.01
5/29/2023 3:45:00 AM 17.1 62.78 0.246 7.73 4167 0.01
5/29/2023 4:00:00 AM 17.11 62.798 0.247 7.71 4449 0.01
5/29/2023 4:15:00 AM 17.07 62.726 0.248 7.69 4671 0.01
5/29/2023 4:30:00 AM 17.01 62.618 0.248 7.69 4911 0.01
5/29/2023 4:45:00 AM 16.99 62.582 0.248 7.67 5030 0.01
5/29/2023 5:00:00 AM 16.95 62.51 0.249 7.64 5036 0.01
5/29/2023 5:15:00 AM 16.93 62.474 0.249 7.63 5036 0.01
5/29/2023 5:30:00 AM 16.92 62.456 0.248 7.64 5036 0.01
5/29/2023 5:45:00 AM 16.87 62.366 0.245 7.64 5036 0.01
5/29/2023 6:00:00 AM 16.84 62.312 0.248 7.62 5036 0.01
5/29/2023 6:15:00 AM 16.81 62.258 0.251 7.62 5036 0.01
5/29/2023 6:30:00 AM 16.76 62.168 0.248 7.57 5036 0.01
5/29/2023 6:45:00 AM 16.77 62.186 0.246 7.57 5036 0.01
5/29/2023 7:00:00 AM 16.7 62.06 0.247 7.58 5036 0.01
5/29/2023 7:15:00 AM 16.7 62.06 0.248 7.61 5036 0.01
5/29/2023 7:30:00 AM 16.66 61.988 0.25 7.6 5036 0.01
5/29/2023 7:45:00 AM 16.65 61.97 0.247 7.62 5036 0.01
5/29/2023 8:00:00 AM 16.62 61.916 0.247 7.6 5036 0.01
5/29/2023 8:15:00 AM 16.59 61.862 0.246 7.58 5036 0.01
5/29/2023 8:30:00 AM 16.58 61.844 0.247 7.57 5036 0.01
5/29/2023 8:45:00 AM 16.64 61.952 0.247 7.59 5036 0.01
5/29/2023 9:00:00 AM 16.66 61.988 0.246 7.61 5036 0.01
5/29/2023 9:15:00 AM 16.65 61.97 0.24 7.64 5036 0.01
5/29/2023 9:30:00 AM 16.69 62.042 0.246 7.67 5036 0.01
5/29/2023 9:45:00 AM 16.88 62.384 0.243 7.69 5036 0.01
5/29/2023 10:00:00 AM 17.13 62.834 0.244 7.74 5036 0.01
5/29/2023 10:15:00 AM 17.01 62.618 0.239 7.77 5036 0.01
5/29/2023 10:30:00 AM 17.03 62.654 0.241 7.81 5036 0.01
5/29/2023 10:45:00 AM 17.12 62.816 0.247 7.83 5036 0.01
5/29/2023 11:00:00 AM 17.45 63.41 0.248 7.86 5036 0.01
5/29/2023 11:15:00 AM 17.75 63.95 0.244 7.91 5036 0.01
5/29/2023 11:30:00 AM 17.59 63.662 0.247 7.96 5036 0.01
5/29/2023 11:45:00 AM 17.52 63.536 0.246 7.98 5036 0.01
5/29/2023 12:00:00 PM 17.45 63.41 0.245 7.99 5036 0.01
5/29/2023 12:15:00 PM 17.7 63.86 0.244 8.04 5036 0.01
5/29/2023 12:30:00 PM 17.65 63.77 0.239 8.1 5036 0.01
5/29/2023 12:45:00 PM 17.79 64.022 0.243 8.15 5036 0.01
5/29/2023 1:00:00 PM 17.72 63.896 0.24 8.19 5036 0.01
5/29/2023 1:15:00 PM 17.74 63.932 0.239 8.23 5036 0.01
5/29/2023 1:30:00 PM 17.73 63.914 0.241 8.26 5036 0.01
5/29/2023 1:45:00 PM 17.76 63.968 0.237 8.3 5036 0.01
5/29/2023 2:00:00 PM 17.86 64.148 0.245 8.3 5036 0.01
5/29/2023 2:15:00 PM 17.93 64.274 0.244 8.37 5036 0.01
5/29/2023 2:30:00 PM 18.02 64.436 0.24 8.4 5036 0.01
5/29/2023 2:45:00 PM 18.01 64.418 0.238 8.43 5036 0.01
5/29/2023 3:00:00 PM 18.15 64.67 0.242 8.44 5036 0.01
5/29/2023 3:15:00 PM 18.1 64.58 0.242 8.41 5036 0.01
5/29/2023 3:30:00 PM 18.08 64.544 0.242 8.44 5036 0
5/29/2023 3:45:00 PM 18.29 64.922 0.244 8.43 5036 0.01
5/29/2023 4:00:00 PM 18.29 64.922 0.241 8.48 5036 0.01
5/29/2023 4:15:00 PM 18.38 65.084 0.241 8.52 5036 0
5/29/2023 4:30:00 PM 18.57 65.426 0.24 8.56 5035 0.01
5/29/2023 4:45:00 PM 18.38 65.084 0.238 8.58 5035 0.01
5/29/2023 5:00:00 PM 18.35 65.03 0.239 8.63 5036 0.01
5/29/2023 5:15:00 PM 18.44 65.192 0.241 8.64 5036 0.01
5/29/2023 5:30:00 PM 18.63 65.534 0.24 8.66 5035 0.01
5/29/2023 5:45:00 PM 18.6 65.48 0.24 8.67 5036 0.01
5/29/2023 6:00:00 PM 18.51 65.318 0.238 8.69 5035 0.01
5/29/2023 6:15:00 PM 18.71 65.67799 0.238 8.72 5035 0.01
5/29/2023 6:30:00 PM 18.62 65.516 0.238 8.71 5036 0.01
5/29/2023 6:45:00 PM 18.57 65.426 0.237 8.74 5035 0.01
5/29/2023 7:00:00 PM 18.59 65.462 0.239 8.75 5035 0.01
5/29/2023 7:15:00 PM 18.82 65.876 0.239 8.71 5036 0.01
5/29/2023 7:30:00 PM 18.72 65.696 0.239 8.72 5030 0.01
5/29/2023 7:45:00 PM 18.73 65.714 0.24 8.7 4859 0.01
5/29/2023 8:00:00 PM 18.73 65.714 0.24 8.67 4624 0.01
5/29/2023 8:15:00 PM 18.84 65.912 0.241 8.66 4356 0
5/29/2023 8:30:00 PM 18.83 65.894 0.239 8.69 4223 0.01
5/29/2023 8:45:00 PM 18.7 65.66 0.239 8.67 4130 0.01
5/29/2023 9:00:00 PM 18.61 65.498 0.241 8.62 4056 0.01
5/29/2023 9:15:00 PM 18.6 65.48 0.24 8.61 4001 0.01
5/29/2023 9:30:00 PM 18.65 65.57 0.239 8.6 3956 0.01
5/29/2023 9:45:00 PM 18.69 65.642 0.241 8.57 3899 0.01
5/29/2023 10:00:00 PM 18.67 65.606 0.242 8.56 3862 0.01
5/29/2023 10:15:00 PM 18.47 65.246 0.247 8.52 3821 0.01
5/29/2023 10:30:00 PM 18.39 65.102 0.245 8.45 3986 0.01
5/29/2023 10:45:00 PM 18.46 65.228 0.245 8.41 4242 0.01
5/29/2023 11:00:00 PM 18.33 64.994 0.246 8.37 4048 0.01
5/29/2023 11:15:00 PM 18.37 65.066 0.244 8.32 3882 0.01
5/29/2023 11:30:00 PM 18.45 65.21 0.245 8.25 3812 0.01
5/29/2023 11:45:00 PM 18.32 64.976 0.248 8.18 3745 0.01
5/30/2023 12:00:00 AM 18.39 65.102 0.244 8.15 3706 0.01
5/30/2023 12:15:00 AM 18.29 64.922 0.245 8.08 3661 0.01
5/30/2023 12:30:00 AM 18.11 64.598 0.244 8.04 3603 0.01
5/30/2023 12:45:00 AM 18.06 64.508 0.245 7.97 4129 0.01
5/30/2023 1:00:00 AM 18.07 64.526 0.246 7.93 4088 0.01
5/30/2023 1:15:00 AM 18.09 64.562 0.246 7.91 4078 0.01
5/30/2023 1:30:00 AM 17.96 64.328 0.247 7.9 4024 0.01
5/30/2023 1:45:00 AM 18.02 64.436 0.247 7.87 4022 0.01
5/30/2023 2:00:00 AM 17.9 64.22 0.248 7.84 3938 0.01
5/30/2023 2:15:00 AM 17.79 64.022 0.25 7.81 3918 0.01
5/30/2023 2:30:00 AM 17.73 63.914 0.25 7.77 3862 0.01
5/30/2023 2:45:00 AM 17.68 63.824 0.249 7.75 3929 0.01
5/30/2023 3:00:00 AM 17.7 63.86 0.249 7.72 3871 0.01
5/30/2023 3:15:00 AM 17.62 63.716 0.251 7.72 3817 0.01
5/30/2023 3:30:00 AM 17.55 63.59 0.247 7.68 3812 0.01
5/30/2023 3:45:00 AM 17.52 63.536 0.248 7.66 3779 0.01
5/30/2023 4:00:00 AM 17.46 63.428 0.249 7.65 3759 0.01
5/30/2023 4:15:00 AM 17.41 63.338 0.252 7.64 3750 0.01
5/30/2023 4:30:00 AM 17.36 63.248 0.255 7.59 3958 0.01
5/30/2023 4:45:00 AM 17.31 63.158 0.255 7.55 4017 0.01
5/30/2023 5:00:00 AM 17.27 63.086 0.257 7.54 3970 0.01
5/30/2023 5:15:00 AM 17.22 62.996 0.256 7.53 3930 0.01
5/30/2023 5:30:00 AM 17.18 62.924 0.255 7.54 3893 0.01
5/30/2023 5:45:00 AM 17.12 62.816 0.252 7.58 3889 0.01
5/30/2023 6:00:00 AM 17.08 62.744 0.248 7.6 3852 0.01
5/30/2023 6:15:00 AM 17.03 62.654 0.249 7.59 3849 0.01
5/30/2023 6:30:00 AM 16.98 62.564 0.257 7.55 3826 0.01
5/30/2023 6:45:00 AM 16.93 62.474 0.246 7.56 3867 0.01
5/30/2023 7:00:00 AM 16.89 62.402 0.257 7.57 3829 0.01
5/30/2023 7:15:00 AM 16.85 62.33 0.252 7.55 3853 0.01
5/30/2023 7:30:00 AM 16.82 62.276 0.261 7.51 3832 0.01
5/30/2023 7:45:00 AM 16.78 62.204 0.25 7.51 3807 0.01
5/30/2023 8:00:00 AM 16.75 62.15 0.252 7.55 3796 0.01
5/30/2023 8:15:00 AM 16.73 62.114 0.25 7.55 3741 0.01
5/30/2023 8:30:00 AM 16.71 62.078 0.249 7.54 3715 0.01
5/30/2023 8:45:00 AM 16.69 62.042 0.265 7.55 3700 0.01
5/30/2023 9:00:00 AM 16.69 62.042 0.268 7.59 3655 0.01
5/30/2023 9:15:00 AM 16.69 62.042 0.248 7.6 3616 0.01
5/30/2023 9:30:00 AM 16.73 62.114 0.248 7.64 3543 0.01
5/30/2023 9:45:00 AM 16.78 62.204 0.255 7.67 3550 0.01
5/30/2023 10:00:00 AM 16.84 62.312 0.248 7.7 3514 0.01
5/30/2023 10:15:00 AM 17.05 62.69 0.251 7.73 3489 0.01
5/30/2023 10:30:00 AM 17.04 62.672 0.249 7.76 3472 0.01
5/30/2023 10:45:00 AM 17.13 62.834 0.251 7.77 3510 0.01
5/30/2023 11:00:00 AM 17.25 63.05 0.252 7.8 3464 0.01
5/30/2023 11:15:00 AM 17.39 63.302 0.251 7.83 3434 0.01
5/30/2023 11:30:00 AM 17.43 63.374 0.253 7.87 3420 0.01
5/30/2023 11:45:00 AM 17.39 63.302 0.251 7.9 3441 0.03
5/30/2023 12:00:00 PM 17.44 63.392 0.251 7.91 3410 0.01
5/30/2023 12:15:00 PM 17.46 63.428 0.25 7.89 3386 0.03
5/30/2023 12:30:00 PM 17.7 63.86 0.25 7.92 3739 0.02
5/30/2023 12:45:00 PM 17.82 64.076 0.248 7.99 3517 0.01
5/30/2023 1:00:00 PM 17.86 64.148 0.248 8.06 3682 0.01
5/30/2023 1:15:00 PM 18.11 64.598 0.247 8.12 3960 0.01
5/30/2023 1:30:00 PM 17.93 64.274 0.248 8.16 4264 0.01
5/30/2023 1:45:00 PM 17.99 64.382 0.25 8.18 4592 0.01
5/30/2023 2:00:00 PM 18.14 64.652 0.249 8.19 4820 0.01
5/30/2023 2:15:00 PM 18.21 64.778 0.248 8.22 4991 0.01
5/30/2023 2:30:00 PM 18.24 64.832 0.248 8.25 5036 0.01
5/30/2023 2:45:00 PM 18.24 64.832 0.248 8.28 5036 0.01
5/30/2023 3:00:00 PM 18.45 65.21 0.245 8.32 5036 0.01
5/30/2023 3:15:00 PM 18.29 64.922 0.243 8.32 5036 0.01
5/30/2023 3:30:00 PM 18.23 64.814 0.248 8.41 5036 0.01
5/30/2023 3:45:00 PM 18.24 64.832 0.246 8.41 5036 0.01
5/30/2023 4:00:00 PM 18.23 64.814 0.246 8.42 3893 0.01
5/30/2023 4:15:00 PM 18.26 64.868 0.247 8.41 3701 0.01
5/30/2023 4:30:00 PM 19.11 66.398 0.246 8.39 3783 0.01
5/30/2023 4:45:00 PM 18.77 65.786 0.248 8.41 3768 0.01
5/30/2023 5:00:00 PM 19.15 66.47 0.246 8.43 3830 0.01
5/30/2023 5:15:00 PM 18.83 65.894 0.246 8.46 4784 0.01
5/30/2023 5:30:00 PM 18.7 65.66 0.244 8.52 5035 0.01
5/30/2023 5:45:00 PM 18.67 65.606 0.245 8.51 4600 0
5/30/2023 6:00:00 PM 18.66 65.588 0.244 8.53 4286 0.01
5/30/2023 6:15:00 PM 18.65 65.57 0.244 8.53 4157 0.01
5/30/2023 6:30:00 PM 18.94 66.092 0.247 8.48 4569 0.01
5/30/2023 6:45:00 PM 18.98 66.164 0.248 8.49 4642 0.01
5/30/2023 7:00:00 PM 18.94 66.092 0.246 8.52 4863 0
5/30/2023 7:15:00 PM 19.14 66.452 0.246 8.51 4887 0
5/30/2023 7:30:00 PM 19.11 66.398 0.245 8.52 5035 0.01
5/30/2023 7:45:00 PM 19.56 67.208 0.244 8.53 5036 0.01
5/30/2023 8:00:00 PM 19.09 66.362 0.249 8.49 5035 0.01
5/30/2023 8:15:00 PM 19.07 66.326 0.247 8.44 5035 0
5/30/2023 8:30:00 PM 18.91 66.038 0.248 8.45 5035 0.03
5/30/2023 8:45:00 PM 18.84 65.912 0.248 8.43 5035 0.02
5/30/2023 9:00:00 PM 18.79 65.82201 0.248 8.43 5035 0.02
5/30/2023 9:15:00 PM 18.95 66.11 0.246 8.38 5035 0.01
5/30/2023 9:30:00 PM 18.97 66.146 0.244 8.44 5035 0.01
5/30/2023 9:45:00 PM 18.91 66.038 0.244 8.41 5035 0.01
5/30/2023 10:00:00 PM 18.85 65.93 0.247 8.38 5035 0.01
5/30/2023 10:15:00 PM 18.69 65.642 0.245 8.32 5035 0.01
5/30/2023 10:30:00 PM 18.66 65.588 0.248 8.27 5036 0.01
5/30/2023 10:45:00 PM 18.56 65.408 0.247 8.26 5035 0.01
5/30/2023 11:00:00 PM 18.49 65.282 0.25 8.21 5036 0.01
5/30/2023 11:15:00 PM 18.43 65.174 0.25 8.13 5036 0.01
5/30/2023 11:30:00 PM 18.44 65.192 0.251 8.08 5036 0.01
5/30/2023 11:45:00 PM 18.39 65.102 0.249 8.05 5036 0.01
5/31/2023 12:00:00 AM 18.41 65.138 0.248 8.02 5036 0.01
5/31/2023 12:15:00 AM 18.29 64.922 0.252 7.91 5036 0.01
5/31/2023 12:30:00 AM 18.22 64.796 0.251 7.85 5036 0.01
5/31/2023 12:45:00 AM 18.16 64.688 0.249 7.81 5036 0.01
5/31/2023 1:00:00 AM 18.1 64.58 0.25 7.8 5036 0.01
5/31/2023 1:15:00 AM 18.1 64.58 0.247 7.8 5036 0.01
5/31/2023 1:30:00 AM 18.05 64.49 0.251 7.76 5036 0.01
5/31/2023 1:45:00 AM 18.04 64.472 0.245 7.8 5036 0.01
5/31/2023 2:00:00 AM 18.04 64.472 0.246 7.73 5036 0.01
5/31/2023 2:15:00 AM 17.91 64.238 0.249 7.75 5036 0.01
5/31/2023 2:30:00 AM 17.86 64.148 0.248 7.73 5036 0.01
5/31/2023 2:45:00 AM 17.81 64.058 0.249 7.72 5036 0.01
5/31/2023 3:00:00 AM 17.75 63.95 0.251 7.69 5036 0.01
5/31/2023 3:15:00 AM 17.69 63.842 0.253 7.68 5036 0.01
5/31/2023 3:30:00 AM 17.65 63.77 0.25 7.69 5036 0.01
5/31/2023 3:45:00 AM 17.59 63.662 0.253 7.66 5036 0.01
5/31/2023 4:00:00 AM 17.53 63.554 0.253 7.59 5036 0.01
5/31/2023 4:15:00 AM 17.49 63.482 0.252 7.57 5036 0.01
5/31/2023 4:30:00 AM 17.44 63.392 0.257 7.55 5036 0.01
5/31/2023 4:45:00 AM 17.39 63.302 0.263 7.52 5036 0.01
5/31/2023 5:00:00 AM 17.34 63.212 0.266 7.5 5036 0.01
5/31/2023 5:15:00 AM 17.28 63.104 0.267 7.49 5036 0.01
5/31/2023 5:30:00 AM 17.2 62.96 0.259 7.56 5036 0.01
5/31/2023 5:45:00 AM 17.15 62.87 0.262 7.56 5036 0.01
5/31/2023 6:00:00 AM 17.1 62.78 0.267 7.56 5036 0.01
5/31/2023 6:15:00 AM 17.04 62.672 0.274 7.56 5036 0.01
5/31/2023 6:30:00 AM 16.91 62.438 0.248 7.55 5036 0.01
5/31/2023 6:45:00 AM 16.83 62.294 0.252 7.59 5036 0.01
5/31/2023 7:00:00 AM 16.78 62.204 0.268 7.61 5036 0.01
5/31/2023 7:15:00 AM 16.68 62.024 0.263 7.6 5036 0.01
5/31/2023 7:30:00 AM 16.69 62.042 0.265 7.58 5036 0.01
5/31/2023 7:45:00 AM 16.62 61.916 0.25 7.59 5036 0.01
5/31/2023 8:00:00 AM 16.55 61.79 0.252 7.6 5036 0.01
5/31/2023 8:15:00 AM 16.57 61.826 0.252 7.58 5036 0.01
5/31/2023 8:30:00 AM 16.55 61.79 0.25 7.58 5036 0.01
5/31/2023 8:45:00 AM 16.57 61.826 0.251 7.59 5036 0.01
5/31/2023 9:00:00 AM 16.59 61.862 0.255 7.6 5036 0.01
5/31/2023 9:15:00 AM 16.6 61.88 0.251 7.62 4404 0.01
5/31/2023 9:30:00 AM 16.75 62.15 0.254 7.58 4721 0.01
5/31/2023 9:45:00 AM 17.07 62.726 0.25 7.63 4862 0.01
5/31/2023 10:00:00 AM 16.84 62.312 0.244 7.67 4959 0.01
5/31/2023 10:15:00 AM 17.17 62.906 0.236 7.66 5036 0.01
5/31/2023 10:30:00 AM 17.49 63.482 0.233 7.68 5036 0.01
5/31/2023 10:45:00 AM 17.28 63.104 0.224 7.73 4188 0.01
5/31/2023 11:00:00 AM 17.38 63.284 0.255 7.71 3730 0.01
5/31/2023 11:15:00 AM 17.45 63.41 0.253 7.75 2730 0.01
5/31/2023 11:30:00 AM 17.8 64.04 0.251 7.8 2329 0.01
5/31/2023 11:45:00 AM 17.68 63.824 0.253 7.83 2134 0.01
5/31/2023 12:00:00 PM 18.04 64.472 0.251 7.85 784.7 0.01
5/31/2023 12:15:00 PM 17.95 64.31 0.254 7.84 770.5 0.01
5/31/2023 12:30:00 PM 17.84 64.112 0.251 7.85 900 0.01
5/31/2023 12:45:00 PM 18.26 64.868 0.255 7.81 843.1 0.01
5/31/2023 1:00:00 PM 17.68 63.824 0.227 7.86 700.7 0.01
5/31/2023 1:15:00 PM 17.59 63.662 0.234 7.89 934 0.01
5/31/2023 1:30:00 PM 17.56 63.608 0.237 7.78 941.3 0.01
5/31/2023 1:45:00 PM 17.56 63.608 0.257 7.79 932.8 0.01
5/31/2023 2:00:00 PM 17.59 63.662 0.255 7.88 939.8 0.01
5/31/2023 2:15:00 PM 17.62 63.716 0.255 7.89 960.5 0.01
5/31/2023 2:30:00 PM 17.64 63.752 0.245 7.94 970.5 0.01
5/31/2023 2:45:00 PM 17.66 63.788 0.258 7.92 975.8 0.01
5/31/2023 3:00:00 PM 17.69 63.842 0.256 7.9 985 0.01
5/31/2023 3:15:00 PM 18.88 65.984 0.229 7.83 1003 0.01
5/31/2023 3:30:00 PM 19.22 66.596 0.218 8.05 948.2 0.01
5/31/2023 3:45:00 PM 18.96 66.128 0.254 8.13 946.5 0.01
5/31/2023 4:00:00 PM 18.35 65.03 0.216 8.11 991.4 0.01
5/31/2023 4:15:00 PM 18.21 64.778 0.219 8.12 1002 0.01
5/31/2023 4:30:00 PM 18.38 65.084 0.224 8.01 990.1 0.01
5/31/2023 4:45:00 PM 18.25 64.85 0.226 7.95 1009 0.01
5/31/2023 5:00:00 PM 19.89 67.802 0.245 8.17 1558 0.01
5/31/2023 5:15:00 PM 19.4 66.92 0.249 8.28 1575 0.01
5/31/2023 5:30:00 PM 19.93 67.874 0.245 8.35 1599 0.01
5/31/2023 5:45:00 PM 20.05 68.09 0.244 8.38 1633 0.01
5/31/2023 6:00:00 PM 19.96 67.92799 0.248 8.36 1669 0.01
5/31/2023 6:15:00 PM 19.66 67.388 0.248 8.36 1748 0.01
5/31/2023 6:30:00 PM 20.12 68.216 0.244 8.35 1965 0.01
5/31/2023 6:45:00 PM 20.07 68.126 0.246 8.4 1817 0.01
5/31/2023 7:00:00 PM 19.73 67.514 0.247 8.42 1791 0.01
5/31/2023 7:15:00 PM 20.15 68.27 0.244 8.45 1744 0.01
5/31/2023 7:30:00 PM 19.89 67.802 0.245 8.44 1698 0.01
5/31/2023 7:45:00 PM 19.68 67.424 0.252 8.38 1673 0.01
5/31/2023 8:00:00 PM 19.62 67.316 0.248 8.3 2169 0.01
5/31/2023 8:15:00 PM 19.69 67.442 0.252 8.26 2069 0.01
5/31/2023 8:30:00 PM 19.69 67.442 0.247 8.28 2001 0.01
5/31/2023 8:45:00 PM 19.59 67.262 0.247 8.26 4032 0.01
5/31/2023 9:00:00 PM 19.73 67.514 0.247 8.21 4184 0.01
5/31/2023 9:15:00 PM 19.42 66.956 0.248 8.21 4005 0.01
5/31/2023 9:30:00 PM 19.52 67.136 0.246 8.26 3684 0.01
5/31/2023 9:45:00 PM 19.48 67.064 0.247 8.3 3513 0.01
5/31/2023 10:00:00 PM 19.4 66.92 0.248 8.26 3358 0.01
5/31/2023 10:15:00 PM 19.27 66.686 0.249 8.22 3225 0.01
5/31/2023 10:30:00 PM 19.22 66.596 0.251 8.2 3172 0.01
5/31/2023 10:45:00 PM 19.05 66.29 0.251 8.18 3224 0.01
5/31/2023 11:00:00 PM 19.05 66.29 0.251 8.17 3055 0.01
5/31/2023 11:15:00 PM 18.93 66.074 0.252 8.15 5036 0.01
5/31/2023 11:30:00 PM 18.93 66.074 0.253 8.08 5036 0.01
5/31/2023 11:45:00 PM 18.81 65.858 0.254 8.03 5036 0.01
6/1/2023 12:00:00 AM 18.81 65.858 0.251 8.03 5036 0.01
6/1/2023 12:15:00 AM 18.75 65.75 0.25 8.02 5036 0.01
6/1/2023 12:30:00 AM 18.69 65.642 0.25 8 5036 0.01
6/1/2023 12:45:00 AM 18.55 65.39 0.252 7.94 5036 0.01
6/1/2023 1:00:00 AM 18.46 65.228 0.253 7.9 5036 0.01
6/1/2023 1:15:00 AM 18.41 65.138 0.251 7.88 5036 0.01
6/1/2023 1:30:00 AM 18.28 64.904 0.249 7.87 5036 0.01
6/1/2023 1:45:00 AM 18.33 64.994 0.25 7.83 5036 0.01
6/1/2023 2:00:00 AM 18.25 64.85 0.249 7.81 5036 0.01
6/1/2023 2:15:00 AM 18.16 64.688 0.248 7.81 5036 0.01
6/1/2023 2:30:00 AM 18.08 64.544 0.249 7.77 5036 0.01
6/1/2023 2:45:00 AM 18.03 64.454 0.249 7.73 3417 0.01
6/1/2023 3:00:00 AM 17.95 64.31 0.249 7.75 3024 0.01
6/1/2023 3:15:00 AM 17.86 64.148 0.248 7.73 2934 0.01
6/1/2023 3:30:00 AM 17.76 63.968 0.249 7.72 2102 0.01
6/1/2023 3:45:00 AM 17.72 63.896 0.248 7.73 2661 0.01
6/1/2023 4:00:00 AM 17.65 63.77 0.25 7.7 2962 0.01
6/1/2023 4:15:00 AM 17.58 63.644 0.253 7.68 3169 0.01
6/1/2023 4:30:00 AM 17.49 63.482 0.254 7.64 3299 0.01
6/1/2023 4:45:00 AM 17.44 63.392 0.256 7.65 3439 0.01
6/1/2023 5:00:00 AM 17.36 63.248 0.26 7.61 3542 0.01
6/1/2023 5:15:00 AM 17.3 63.14 0.259 7.61 3630 0.01
6/1/2023 5:30:00 AM 17.22 62.996 0.261 7.6 3843 0.01
6/1/2023 5:45:00 AM 17.12 62.816 0.258 7.56 3734 0.01
6/1/2023 6:00:00 AM 17.05 62.69 0.259 7.56 3777 0.01
6/1/2023 6:15:00 AM 17.02 62.636 0.257 7.55 3801 0.01
6/1/2023 6:30:00 AM 16.92 62.456 0.265 7.57 3923 0.01
6/1/2023 6:45:00 AM 16.88 62.384 0.259 7.57 3834 0.01
6/1/2023 7:00:00 AM 16.79 62.222 0.251 7.57 4089 0.01
6/1/2023 7:15:00 AM 16.73 62.114 0.256 7.56 4150 0.01
6/1/2023 7:30:00 AM 16.69 62.042 0.256 7.53 4188 0.01
6/1/2023 7:45:00 AM 16.64 61.952 0.251 7.58 4184 0.01
6/1/2023 8:00:00 AM 16.63 61.934 0.257 7.58 4165 0.01
6/1/2023 8:15:00 AM 16.64 61.952 0.255 7.59 4172 0.01
6/1/2023 8:30:00 AM 16.66 61.988 0.259 7.56 4443 0.01
6/1/2023 8:45:00 AM 16.68 62.024 0.264 7.48 4865 0.01
6/1/2023 9:00:00 AM 16.75 62.15 0.258 7.5 5034 0.01
6/1/2023 9:15:00 AM 16.82 62.276 0.254 7.53 5036 0.01
6/1/2023 9:30:00 AM 16.81 62.258 0.251 7.57 5036 0.01
6/1/2023 9:45:00 AM 16.96 62.528 0.251 7.57 5036 0.01
6/1/2023 10:00:00 AM 17.14 62.852 0.253 7.59 5036 0.01
6/1/2023 10:15:00 AM 17.14 62.852 0.251 7.61 4868 0.01
6/1/2023 10:30:00 AM 17.3 63.14 0.253 7.62 4237 0.01
6/1/2023 10:45:00 AM 17.44 63.392 0.253 7.64 5036 0.01
6/1/2023 11:00:00 AM 17.83 64.094 0.253 7.67 5036 0.01
6/1/2023 11:15:00 AM 17.84 64.112 0.253 7.65 5036 0.01
6/1/2023 11:30:00 AM 18.28 64.904 0.25 7.7 1689 0.01
6/1/2023 11:45:00 AM 18.32 64.976 0.251 7.71 2117 0.01
6/1/2023 12:00:00 PM 18.47 65.246 0.247 7.74 2637 0.01
6/1/2023 12:15:00 PM 18.4 65.12 0.251 7.73 1982 0.01
6/1/2023 12:30:00 PM 18.5 65.3 0.25 7.7 2666 0.01
6/1/2023 12:45:00 PM 18.55 65.39 0.251 7.71 5036 0.01
6/1/2023 1:00:00 PM 18.68 65.624 0.249 7.75 5036 0.01
6/1/2023 1:15:00 PM 18.67 65.606 0.249 7.78 5036 0.01
6/1/2023 1:30:00 PM 18.7 65.66 0.25 7.82 5036 0.01
6/1/2023 1:45:00 PM 18.85 65.93 0.248 7.85 5036 0.01
6/1/2023 2:00:00 PM 18.95 66.11 0.24 7.89 5035 0.01
6/1/2023 2:15:00 PM 19.07 66.326 0.248 7.91 5036 0.01
6/1/2023 2:30:00 PM 19.26 66.668 0.247 7.96 5035 0.01
6/1/2023 2:45:00 PM 19.4 66.92 0.247 7.96 5035 0.01
6/1/2023 3:00:00 PM 19.69 67.442 0.245 8.03 5035 0.01
6/1/2023 3:15:00 PM 19.72 67.496 0.243 8.08 5035 0.01
6/1/2023 3:30:00 PM 19.76 67.568 0.245 8.08 5035 0.01
6/1/2023 3:45:00 PM 19.96 67.92799 0.245 8.1 5035 0.01
6/1/2023 4:00:00 PM 19.93 67.874 0.245 8.07 5035 0.01
6/1/2023 4:15:00 PM 20.04 68.07201 0.245 8.08 5035 0.01
6/1/2023 4:30:00 PM 20.03 68.054 0.247 8.06 5035 0.01
6/1/2023 4:45:00 PM 20.05 68.09 0.252 8.05 5035 0.01
6/1/2023 5:00:00 PM 20.21 68.378 0.246 8.06 5035 0.01
6/1/2023 5:15:00 PM 20.25 68.45 0.247 8.05 5035 0.01
6/1/2023 5:30:00 PM 19.92 67.856 0.249 8.06 5035 0.01
6/1/2023 5:45:00 PM 19.55 67.19 0.251 8.03 5035 0
6/1/2023 6:00:00 PM 19.49 67.082 0.256 8.01 5035 0.01
6/1/2023 6:15:00 PM 20.08 68.144 0.249 8.06 5035 0.01
6/1/2023 6:30:00 PM 20.22 68.396 0.248 8.14 5035 0.01
6/1/2023 6:45:00 PM 20.25 68.45 0.246 8.23 5035 0.01
6/1/2023 7:00:00 PM 20.24 68.432 0.247 8.25 5035 0.01
6/1/2023 7:15:00 PM 20.2 68.36 0.248 8.24 5035 0.01
6/1/2023 7:30:00 PM 20.17 68.306 0.247 8.28 3479 0.01
6/1/2023 7:45:00 PM 20.03 68.054 0.25 8.27 5035 0.01
6/1/2023 8:00:00 PM 19.85 67.73 0.249 8.26 5035 0.01
6/1/2023 8:15:00 PM 19.97 67.946 0.249 8.29 5035 0.01
6/1/2023 8:30:00 PM 19.93 67.874 0.249 8.3 5035 0.01
6/1/2023 8:45:00 PM 19.87 67.766 0.249 8.28 5035 0.03
6/1/2023 9:00:00 PM 19.78 67.604 0.252 8.27 5035 0.01
6/1/2023 9:15:00 PM 19.73 67.514 0.25 8.23 5035 0.01
6/1/2023 9:30:00 PM 19.77 67.586 0.249 8.17 5035 0.01
6/1/2023 9:45:00 PM 19.79 67.622 0.248 8.22 5035 0.01
6/1/2023 10:00:00 PM 19.81 67.658 0.248 8.2 5035 0.01
6/1/2023 10:15:00 PM 19.79 67.622 0.249 8.18 5035 0.01
6/1/2023 10:30:00 PM 19.81 67.658 0.25 8.21 5035 0.01
6/1/2023 10:45:00 PM 19.66 67.388 0.252 8.18 5035 0.01
6/1/2023 11:00:00 PM 19.6 67.28 0.253 8.15 5035 0.01
6/1/2023 11:15:00 PM 19.63 67.334 0.251 8.13 5035 0.01
6/1/2023 11:30:00 PM 19.51 67.118 0.251 8.07 5035 0.01
6/1/2023 11:45:00 PM 19.31 66.758 0.252 8.03 5036 0.01
6/2/2023 12:00:00 AM 19.41 66.938 0.253 7.97 4877 0.01
6/2/2023 12:15:00 AM 19.26 66.668 0.253 7.96 4556 0.01
6/2/2023 12:30:00 AM 19.3 66.74 0.254 7.88 4342 0.01
6/2/2023 12:45:00 AM 19.15 66.47 0.254 7.88 3723 0.01
6/2/2023 1:00:00 AM 19.23 66.614 0.253 7.84 3299 0.01
6/2/2023 1:15:00 AM 19.14 66.452 0.255 7.82 5035 0.01
6/2/2023 1:30:00 AM 19.11 66.398 0.256 7.79 5035 0.01
6/2/2023 1:45:00 AM 19.02 66.236 0.256 7.76 5035 0.01
6/2/2023 2:00:00 AM 18.93 66.074 0.26 7.74 5035 0.01
6/2/2023 2:15:00 AM 18.94 66.092 0.258 7.7 5035 0.01
6/2/2023 2:30:00 AM 18.93 66.074 0.257 7.66 5035 0.01
6/2/2023 2:45:00 AM 18.92 66.056 0.256 7.69 5036 0.01
6/2/2023 3:00:00 AM 18.84 65.912 0.26 7.65 5035 0.01
6/2/2023 3:15:00 AM 18.68 65.624 0.267 7.57 5036 0.01
6/2/2023 3:30:00 AM 18.71 65.67799 0.257 7.5 5036 0.01
6/2/2023 3:45:00 AM 18.55 65.39 0.257 7.55 5036 0.01
6/2/2023 4:00:00 AM 18.68 65.624 0.253 7.6 5036 0.01
6/2/2023 4:15:00 AM 18.49 65.282 0.256 7.6 5036 0.01
6/2/2023 4:30:00 AM 18.59 65.462 0.254 7.6 5036 0.01
6/2/2023 4:45:00 AM 18.55 65.39 0.255 7.62 5036 0.01
6/2/2023 5:00:00 AM 18.47 65.246 0.256 7.59 5036 0.01
6/2/2023 5:15:00 AM 18.43 65.174 0.257 7.58 5036 0.01
6/2/2023 5:30:00 AM 18.39 65.102 0.255 7.57 5036 0.01
6/2/2023 5:45:00 AM 18.25 64.85 0.255 7.58 5036 0.01
6/2/2023 6:00:00 AM 18.27 64.886 0.257 7.53 5036 0.01
6/2/2023 6:15:00 AM 18.19 64.742 0.263 7.53 5036 0.01
6/2/2023 6:30:00 AM 18.12 64.616 0.255 7.55 5036 0.01
6/2/2023 6:45:00 AM 18.07 64.526 0.254 7.53 5036 0.01
6/2/2023 7:00:00 AM 18.03 64.454 0.253 7.56 5036 0.01
6/2/2023 7:15:00 AM 17.98 64.364 0.26 7.53 5036 0.01
6/2/2023 7:30:00 AM 17.92 64.256 0.256 7.52 5036 0.01
6/2/2023 7:45:00 AM 17.88 64.184 0.256 7.51 5036 0.01
6/2/2023 8:00:00 AM 17.92 64.256 0.256 7.51 5036 0.01
6/2/2023 8:15:00 AM 17.82 64.076 0.26 7.5 5036 0.01
6/2/2023 8:30:00 AM 17.93 64.274 0.257 7.48 5036 0.01
6/2/2023 8:45:00 AM 17.92 64.256 0.257 7.49 5036 0.01
6/2/2023 9:00:00 AM 17.87 64.166 0.257 7.49 5036 0.01
6/2/2023 9:15:00 AM 17.99 64.382 0.256 7.5 5036 0.01
6/2/2023 9:30:00 AM 17.98 64.364 0.26 7.53 5036 0.01
6/2/2023 9:45:00 AM 18.08 64.544 0.256 7.58 5036 0.01
6/2/2023 10:00:00 AM 18.43 65.174 0.256 7.58 5036 0.01
6/2/2023 10:15:00 AM 18.56 65.408 0.256 7.63 5036 0.01
6/2/2023 10:30:00 AM 18.63 65.534 0.256 7.67 5036 0.01
6/2/2023 10:45:00 AM 18.36 65.048 0.259 7.66 5036 0.01
6/2/2023 11:00:00 AM 18.85 65.93 0.258 7.62 5035 0.01
6/2/2023 11:15:00 AM 19.01 66.218 0.258 7.66 5036 0.01
6/2/2023 11:30:00 AM 19.08 66.344 0.257 7.69 5036 0.01
6/2/2023 11:45:00 AM 19.28 66.704 0.257 7.74 5035 0.01
6/2/2023 12:00:00 PM 19.06 66.308 0.253 7.74 5036 0.01
6/2/2023 12:15:00 PM 19.39 66.902 0.256 7.74 5035 0.01
6/2/2023 12:30:00 PM 19.47 67.046 0.256 7.76 5035 0.01
6/2/2023 12:45:00 PM 19.36 66.848 0.261 7.68 5036 0.01
6/2/2023 1:00:00 PM 19.74 67.532 0.256 7.67 5035 0
6/2/2023 1:15:00 PM 19.86 67.748 0.254 7.78 5035 0.01
6/2/2023 1:30:00 PM 20 68 0.253 7.85 5035 0.01
6/2/2023 1:45:00 PM 20.12 68.216 0.253 7.88 5035 0.01
6/2/2023 2:00:00 PM 20.21 68.378 0.254 7.85 5035 0.22

These are provisional data and have not been subject to a quality assurance process, but rather are the raw data reported by the instrument.
H: value is above sensor operating range
L: value is below sensor operating range
Offline: station is not reporting data
NC: parameter is not collected at site

Data Availability & Limitations

Uncertainty and potential for error can be associated with environmental monitoring data. Provisional data have not been subject to a quality assurance process, but rather are the raw data reported by the instrument. Data users are cautioned to consider carefully the provisional nature of the information before using it for decisions that concern personal or public safety or the conduct of business that involves substantial monetary or operational consequences.

Approved data are currently available by request by emailing: [email protected]. Approved data have been subject to a quality assurance process to correct for equipment or fouling drift. Data recorded during equipment malfunctions have been removed.

View Historical Stations that have been discontinued.